Provisional Data: Little Muncy Creek near Moreland, PA


Please select a monitoring station.
Please select start date.
Please select start date.

Toggle Unit: C/F Toggle Unit: C/F
Sample Time Temperature (C) Temperature (F) Specific Conductivity (mS/cm) pH   Turbidity (NTU+) DO (mg/L)
9/6/2021 12:00:00 AM 17.05 62.69 0.088 7.14 149.61 9
9/6/2021 12:15:00 AM 17.06 62.708 0.083 7.16 187.97 9.05
9/6/2021 12:30:00 AM 17.23 63.014 0.076 7.19 231.23 9.03
9/6/2021 12:45:00 AM 17.37 63.266 0.074 7.23 237.8 8.99
9/6/2021 1:00:00 AM 17.46 63.428 0.074 7.24 220.45 8.97
9/6/2021 1:15:00 AM 17.5 63.5 0.074 7.23 204.3 8.95
9/6/2021 1:30:00 AM 17.52 63.536 0.072 7.21 176.99 8.95
9/6/2021 1:45:00 AM 17.53 63.554 0.071 7.2 153.35 8.95
9/6/2021 2:00:00 AM 17.53 63.554 0.069 7.18 125.37 8.96
9/6/2021 2:15:00 AM 17.52 63.536 0.069 7.16 108.44 8.96
9/6/2021 2:30:00 AM 17.51 63.518 0.068 7.15 93.79 8.96
9/6/2021 2:45:00 AM 17.49 63.482 0.068 7.15 81.58 8.96
9/6/2021 3:00:00 AM 17.46 63.428 0.068 7.15 72.71 8.97
9/6/2021 3:15:00 AM 17.44 63.392 0.068 7.14 65.74 8.97
9/6/2021 3:30:00 AM 17.42 63.356 0.068 7.15 58.26 8.97
9/6/2021 3:45:00 AM 17.4 63.32 0.068 7.15 50.72 8.98
9/6/2021 4:00:00 AM 17.37 63.266 0.069 7.13 48.26 8.98
9/6/2021 4:15:00 AM 17.35 63.23 0.069 7.16 44.42 8.99
9/6/2021 4:30:00 AM 17.33 63.194 0.069 7.16 41.3 8.99
9/6/2021 4:45:00 AM 17.3 63.14 0.07 7.16 36.77 9
9/6/2021 5:00:00 AM 17.27 63.086 0.07 7.15 35.27 9.01
9/6/2021 5:15:00 AM 17.24 63.032 0.071 7.17 33.18 9.02
9/6/2021 5:30:00 AM 17.21 62.978 0.071 7.16 30.43 9.02
9/6/2021 5:45:00 AM 17.18 62.924 0.072 7.18 30.23 9.03
9/6/2021 6:00:00 AM 17.15 62.87 0.072 7.19 27.07 9.03
9/6/2021 6:15:00 AM 17.12 62.816 0.073 7.19 26.13 9.04
9/6/2021 6:30:00 AM 17.09 62.762 0.073 7.19 27.77 9.05
9/6/2021 6:45:00 AM 17.07 62.726 0.074 7.19 23.37 9.05
9/6/2021 7:00:00 AM 17.05 62.69 0.074 7.2 22.06 9.06
9/6/2021 7:15:00 AM 17.02 62.636 0.074 7.2 20.94 9.07
9/6/2021 7:30:00 AM 16.99 62.582 0.075 7.2 20.79 9.08
9/6/2021 7:45:00 AM 16.97 62.546 0.075 7.2 19.23 9.09
9/6/2021 8:00:00 AM 16.95 62.51 0.076 7.21 18.12 9.1
9/6/2021 8:15:00 AM 16.93 62.474 0.076 7.21 17.76 9.12
9/6/2021 8:30:00 AM 16.92 62.456 0.076 7.21 17.16 9.14
9/6/2021 8:45:00 AM 16.91 62.438 0.077 7.21 15.57 9.16
9/6/2021 9:00:00 AM 16.91 62.438 0.077 7.22 15.1 9.19
9/6/2021 9:15:00 AM 16.9 62.42 0.077 7.22 21.98 9.2
9/6/2021 9:30:00 AM 16.9 62.42 0.078 7.22 14 9.22
9/6/2021 9:45:00 AM 16.9 62.42 0.078 7.24 12.75 9.23
9/6/2021 10:00:00 AM 16.92 62.456 0.078 7.25 13.5 9.25
9/6/2021 10:15:00 AM 16.93 62.474 0.079 7.26 12.09 9.28
9/6/2021 10:30:00 AM 16.95 62.51 0.079 7.27 11.84 9.32
9/6/2021 10:45:00 AM 17 62.6 0.079 7.28 11.54 9.34
9/6/2021 11:00:00 AM 17.05 62.69 0.079 7.29 10.54 9.36
9/6/2021 11:15:00 AM 17.11 62.798 0.08 7.3 11.29 9.38
9/6/2021 11:30:00 AM 17.16 62.888 0.08 7.3 9.95 9.38
9/6/2021 11:45:00 AM 17.26 63.068 0.08 7.32 10.08 9.4
9/6/2021 12:00:00 PM 17.35 63.23 0.08 7.33 9.56 9.41
9/6/2021 12:15:00 PM 17.45 63.41 0.081 7.33 9.68 9.41
9/6/2021 12:30:00 PM 17.52 63.536 0.081 7.35 9.31 9.42
9/6/2021 12:45:00 PM 17.58 63.644 0.081 7.35 8.88 9.41
9/6/2021 1:00:00 PM 17.72 63.896 0.081 7.33 8.88 9.43
9/6/2021 1:15:00 PM 17.75 63.95 0.081 7.37 8.46 9.39
9/6/2021 1:30:00 PM 17.9 64.22 0.082 7.38 8.44 9.41
9/6/2021 1:45:00 PM 18.04 64.472 0.082 7.39 7.98 9.41
9/6/2021 2:00:00 PM 18.17 64.706 0.082 7.41 8.13 9.4
9/6/2021 2:15:00 PM 18.28 64.904 0.082 7.42 7.87 9.39
9/6/2021 2:30:00 PM 18.39 65.102 0.082 7.43 7.88 9.39
9/6/2021 2:45:00 PM 18.45 65.21 0.082 7.42 7.57 9.35
9/6/2021 3:00:00 PM 18.55 65.39 0.082 7.42 7.29 9.35
9/6/2021 3:15:00 PM 18.62 65.516 0.083 7.45 7.4 9.32
9/6/2021 3:30:00 PM 18.66 65.588 0.083 7.45 7.19 9.28
9/6/2021 3:45:00 PM 18.71 65.67799 0.083 7.44 7.45 9.26
9/6/2021 4:00:00 PM 18.76 65.768 0.083 7.45 7.25 9.22
9/6/2021 4:15:00 PM 18.79 65.82201 0.083 7.44 6.84 9.19
9/6/2021 4:30:00 PM 18.8 65.84 0.083 7.44 7.27 9.16
9/6/2021 4:45:00 PM 18.83 65.894 0.083 7.44 7.37 9.15
9/6/2021 5:00:00 PM 18.83 65.894 0.084 7.43 6.9 9.12
9/6/2021 5:15:00 PM 18.81 65.858 0.084 7.42 6.73 9.07
9/6/2021 5:30:00 PM 18.81 65.858 0.084 7.42 6.96 9.05
9/6/2021 5:45:00 PM 18.78 65.804 0.084 7.4 7.4 9.01
9/6/2021 6:00:00 PM 18.72 65.696 0.084 7.39 6.63 8.97
9/6/2021 6:15:00 PM 18.67 65.606 0.084 7.38 6.53 8.96
9/6/2021 6:30:00 PM 18.62 65.516 0.085 7.37 6.74 8.94
9/6/2021 6:45:00 PM 18.57 65.426 0.085 7.35 6.86 8.92
9/6/2021 7:00:00 PM 18.52 65.336 0.085 7.35 6.61 8.91
9/6/2021 7:15:00 PM 18.46 65.228 0.085 7.34 6.75 8.89
9/6/2021 7:30:00 PM 18.41 65.138 0.085 7.33 6.95 8.88
9/6/2021 7:45:00 PM 18.36 65.048 0.085 7.32 6.49 8.87
9/6/2021 8:00:00 PM 18.3 64.94 0.085 7.31 6.61 8.85
9/6/2021 8:15:00 PM 18.25 64.85 0.086 7.31 7.08 8.84
9/6/2021 8:30:00 PM 18.18 64.724 0.086 7.3 7.13 8.85
9/6/2021 8:45:00 PM 18.12 64.616 0.086 7.3 6.76 8.85
9/6/2021 9:00:00 PM 18.06 64.508 0.086 7.28 6.71 8.86
9/6/2021 9:15:00 PM 18.01 64.418 0.086 7.29 6.97 8.87
9/6/2021 9:30:00 PM 17.95 64.31 0.086 7.29 6.87 8.86
9/6/2021 9:45:00 PM 17.89 64.202 0.086 7.26 7.55 8.88
9/6/2021 10:00:00 PM 17.83 64.094 0.087 7.27 7.04 8.89
9/6/2021 10:15:00 PM 17.77 63.986 0.087 7.27 6.9 8.89
9/6/2021 10:30:00 PM 17.7 63.86 0.087 7.27 6.85 8.91
9/6/2021 10:45:00 PM 17.63 63.734 0.087 7.26 6.78 8.93
9/6/2021 11:00:00 PM 17.57 63.626 0.087 7.27 6.86 8.93
9/6/2021 11:15:00 PM 17.5 63.5 0.087 7.23 6.84 8.94
9/6/2021 11:30:00 PM 17.42 63.356 0.087 7.27 6.53 8.96
9/6/2021 11:45:00 PM 17.34 63.212 0.087 7.26 6.54 8.98
9/7/2021 12:00:00 AM 17.27 63.086 0.087 7.27 6.02 9
9/7/2021 12:15:00 AM 17.19 62.942 0.088 7.27 6.52 9.02
9/7/2021 12:30:00 AM 17.12 62.816 0.088 7.25 6.71 9.04
9/7/2021 12:45:00 AM 17.04 62.672 0.088 7.26 6.05 9.06
9/7/2021 1:00:00 AM 16.96 62.528 0.088 7.26 6.32 9.07
9/7/2021 1:15:00 AM 16.88 62.384 0.088 7.26 6.27 9.08
9/7/2021 1:30:00 AM 16.81 62.258 0.088 7.26 6.02 9.1
9/7/2021 1:45:00 AM 16.73 62.114 0.088 7.26 6.11 9.12
9/7/2021 2:00:00 AM 16.65 61.97 0.088 7.26 6.01 9.14
9/7/2021 2:15:00 AM 16.58 61.844 0.088 7.26 6.24 9.16
9/7/2021 2:30:00 AM 16.49 61.682 0.088 7.25 5.97 9.18
9/7/2021 2:45:00 AM 16.41 61.538 0.088 7.26 5.94 9.2
9/7/2021 3:00:00 AM 16.33 61.394 0.089 7.25 6.1 9.21
9/7/2021 3:15:00 AM 16.25 61.25 0.089 7.26 5.85 9.23
9/7/2021 3:30:00 AM 16.17 61.106 0.089 7.26 6.08 9.24
9/7/2021 3:45:00 AM 16.09 60.962 0.089 7.26 5.8 9.26
9/7/2021 4:00:00 AM 16.02 60.836 0.089 7.26 5.72 9.28
9/7/2021 4:15:00 AM 15.94 60.692 0.089 7.26 5.56 9.31
9/7/2021 4:30:00 AM 15.87 60.566 0.089 7.26 5.74 9.32
9/7/2021 4:45:00 AM 15.79 60.422 0.089 7.26 5.34 9.34
9/7/2021 5:00:00 AM 15.72 60.296 0.089 7.26 5.26 9.36
9/7/2021 5:15:00 AM 15.65 60.17 0.089 7.26 5.14 9.38
9/7/2021 5:30:00 AM 15.57 60.026 0.089 7.24 5.54 9.39
9/7/2021 5:45:00 AM 15.5 59.9 0.089 7.26 5.63 9.4
9/7/2021 6:00:00 AM 15.43 59.774 0.089 7.26 5.49 9.42
9/7/2021 6:15:00 AM 15.36 59.648 0.089 7.25 5.5 9.44
9/7/2021 6:30:00 AM 15.29 59.522 0.089 7.25 5.03 9.46
9/7/2021 6:45:00 AM 15.22 59.396 0.089 7.25 5.1 9.49
9/7/2021 7:00:00 AM 15.15 59.27 0.089 7.26 5.08 9.5
9/7/2021 7:15:00 AM 15.09 59.162 0.089 7.26 4.83 9.53
9/7/2021 7:30:00 AM 15.03 59.054 0.09 7.26 5.1 9.56
9/7/2021 7:45:00 AM 14.98 58.964 0.09 7.25 4.93 9.6
9/7/2021 8:00:00 AM 14.92 58.856 0.089 7.27 4.69 9.63
9/7/2021 8:15:00 AM 14.88 58.784 0.09 7.28 4.45 9.68
9/7/2021 8:30:00 AM 14.85 58.73 0.09 7.29 4.41 9.71
9/7/2021 8:45:00 AM 14.81 58.658 0.09 7.29 4.59 9.73
9/7/2021 9:00:00 AM 14.79 58.622 0.09 7.29 4.26 9.75
9/7/2021 9:15:00 AM 14.79 58.622 0.09 7.27 4.12 9.79
9/7/2021 9:30:00 AM 14.8 58.64 0.09 7.3 4.25 9.82
9/7/2021 9:45:00 AM 14.82 58.676 0.09 7.32 3.81 9.84
9/7/2021 10:00:00 AM 14.86 58.748 0.09 7.29 3.89 9.87
9/7/2021 10:15:00 AM 14.9 58.82 0.09 7.32 4.06 9.89
9/7/2021 10:30:00 AM 14.95 58.91 0.09 7.35 3.46 9.93
9/7/2021 10:45:00 AM 15.01 59.018 0.09 7.35 3.59 9.94
9/7/2021 11:00:00 AM 15.07 59.126 0.09 7.35 3.54 9.95
9/7/2021 11:15:00 AM 15.16 59.288 0.09 7.38 3.51 9.97
9/7/2021 11:30:00 AM 15.26 59.468 0.089 7.38 3.51 9.97
9/7/2021 11:45:00 AM 15.38 59.684 0.089 7.4 3.23 9.97
9/7/2021 12:00:00 PM 15.52 59.936 0.089 7.41 3.32 9.98
9/7/2021 12:15:00 PM 15.67 60.206 0.089 7.4 3.4 10
9/7/2021 12:30:00 PM 15.85 60.53 0.089 7.45 3.47 10.01
9/7/2021 12:45:00 PM 16.02 60.836 0.089 7.46 3.12 10
9/7/2021 1:00:00 PM 16.17 61.106 0.089 7.45 3.16 9.98
9/7/2021 1:15:00 PM 16.33 61.394 0.089 7.49 3.19 9.99
9/7/2021 1:30:00 PM 16.48 61.664 0.089 7.51 3.17 9.97
9/7/2021 1:45:00 PM 16.63 61.934 0.089 7.52 3.14 9.94
9/7/2021 2:00:00 PM 16.77 62.186 0.089 7.52 3.13 9.91
9/7/2021 2:15:00 PM 16.91 62.438 0.089 7.54 3.09 9.89
9/7/2021 2:30:00 PM 17.03 62.654 0.089 7.54 3.12 9.87
9/7/2021 2:45:00 PM 17.15 62.87 0.089 7.55 3.21 9.84
9/7/2021 3:00:00 PM 17.27 63.086 0.089 7.54 3.36 9.8
9/7/2021 3:15:00 PM 17.36 63.248 0.089 7.55 4 9.75
9/7/2021 3:30:00 PM 17.44 63.392 0.089 7.54 3.33 9.7
9/7/2021 3:45:00 PM 17.51 63.518 0.089 7.55 3.37 9.65
9/7/2021 4:00:00 PM 17.58 63.644 0.089 7.54 3.22 9.61
9/7/2021 4:15:00 PM 17.67 63.806 0.089 7.54 3.29 9.59
9/7/2021 4:30:00 PM 17.73 63.914 0.089 7.54 3.14 9.56
9/7/2021 4:45:00 PM 17.76 63.968 0.089 7.53 3.41 9.51
9/7/2021 5:00:00 PM 17.77 63.986 0.089 7.51 3.51 9.44
9/7/2021 5:15:00 PM 17.79 64.022 0.089 7.5 3.35 9.4
9/7/2021 5:30:00 PM 17.8 64.04 0.089 7.48 3.36 9.35
9/7/2021 5:45:00 PM 17.8 64.04 0.089 7.46 3.68 9.3
9/7/2021 6:00:00 PM 17.8 64.04 0.089 7.45 3.87 9.25
9/7/2021 6:15:00 PM 17.79 64.022 0.089 7.44 3.42 9.22
9/7/2021 6:30:00 PM 17.78 64.004 0.09 7.43 3.73 9.17
9/7/2021 6:45:00 PM 17.77 63.986 0.09 7.41 3.84 9.15
9/7/2021 7:00:00 PM 17.75 63.95 0.09 7.4 3.94 9.11
9/7/2021 7:15:00 PM 17.73 63.914 0.09 7.39 3.81 9.09
9/7/2021 7:30:00 PM 17.7 63.86 0.09 7.36 3.86 9.06
9/7/2021 7:45:00 PM 17.66 63.788 0.09 7.37 3.97 9.05
9/7/2021 8:00:00 PM 17.63 63.734 0.09 7.35 4.21 9.02
9/7/2021 8:15:00 PM 17.59 63.662 0.09 7.34 3.91 9
9/7/2021 8:30:00 PM 17.54 63.572 0.09 7.33 4.19 8.99
9/7/2021 8:45:00 PM 17.5 63.5 0.091 7.32 4.07 8.98
9/7/2021 9:00:00 PM 17.46 63.428 0.091 7.31 4.29 8.98
9/7/2021 9:15:00 PM 17.42 63.356 0.091 7.31 4.46 8.98
9/7/2021 9:30:00 PM 17.38 63.284 0.091 7.31 4.33 8.99
9/7/2021 9:45:00 PM 17.34 63.212 0.091 7.31 4.16 8.99
9/7/2021 10:00:00 PM 17.31 63.158 0.091 7.31 4.05 9
9/7/2021 10:15:00 PM 17.27 63.086 0.091 7.3 4.12 9
9/7/2021 10:30:00 PM 17.23 63.014 0.091 7.3 4.47 9
9/7/2021 10:45:00 PM 17.2 62.96 0.091 7.3 4.38 9.01
9/7/2021 11:00:00 PM 17.16 62.888 0.091 7.3 4.78 9.02
9/7/2021 11:15:00 PM 17.12 62.816 0.091 7.24 4.51 9.02
9/7/2021 11:30:00 PM 17.09 62.762 0.091 7.3 4.44 9.03
9/7/2021 11:45:00 PM 17.04 62.672 0.092 7.3 4.59 9.04
9/8/2021 12:00:00 AM 17 62.6 0.092 7.29 4.49 9.04
9/8/2021 12:15:00 AM 16.96 62.528 0.092 7.3 4.24 9.05
9/8/2021 12:30:00 AM 16.92 62.456 0.092 7.29 4.69 9.05
9/8/2021 12:45:00 AM 16.88 62.384 0.092 7.29 3.84 9.06
9/8/2021 1:00:00 AM 16.83 62.294 0.092 7.29 4.25 9.07
9/8/2021 1:15:00 AM 16.79 62.222 0.092 7.29 4.04 9.08
9/8/2021 1:30:00 AM 16.75 62.15 0.092 7.29 3.99 9.09
9/8/2021 1:45:00 AM 16.71 62.078 0.092 7.27 4.25 9.1
9/8/2021 2:00:00 AM 16.66 61.988 0.092 7.29 4.04 9.11
9/8/2021 2:15:00 AM 16.62 61.916 0.092 7.29 3.77 9.12
9/8/2021 2:30:00 AM 16.58 61.844 0.092 7.29 4.05 9.13
9/8/2021 2:45:00 AM 16.54 61.772 0.092 7.29 3.76 9.14
9/8/2021 3:00:00 AM 16.5 61.7 0.092 7.27 3.89 9.15
9/8/2021 3:15:00 AM 16.46 61.628 0.092 7.25 3.87 9.16
9/8/2021 3:30:00 AM 16.41 61.538 0.093 7.29 3.56 9.16
9/8/2021 3:45:00 AM 16.37 61.466 0.093 7.29 3.81 9.17
9/8/2021 4:00:00 AM 16.33 61.394 0.093 7.29 3.9 9.18
9/8/2021 4:15:00 AM 16.29 61.322 0.093 7.29 3.81 9.18
9/8/2021 4:30:00 AM 16.25 61.25 0.093 7.29 3.77 9.19
9/8/2021 4:45:00 AM 16.2 61.16 0.093 7.29 3.62 9.19
9/8/2021 5:00:00 AM 16.17 61.106 0.093 7.29 3.64 9.2
9/8/2021 5:15:00 AM 16.13 61.034 0.093 7.28 4.19 9.2
9/8/2021 5:30:00 AM 16.09 60.962 0.093 7.29 4.12 9.22
9/8/2021 5:45:00 AM 16.05 60.89 0.093 7.29 4 9.23
9/8/2021 6:00:00 AM 16.01 60.818 0.093 7.28 3.59 9.24
9/8/2021 6:15:00 AM 15.97 60.746 0.093 7.29 3.41 9.25
9/8/2021 6:30:00 AM 15.93 60.674 0.093 7.29 3.57 9.26
9/8/2021 6:45:00 AM 15.9 60.62 0.093 7.29 3.45 9.28
9/8/2021 7:00:00 AM 15.87 60.566 0.093 7.3 3.64 9.29
9/8/2021 7:15:00 AM 15.85 60.53 0.093 7.22 3.42 9.31
9/8/2021 7:30:00 AM 15.82 60.476 0.093 7.3 3.29 9.33
9/8/2021 7:45:00 AM 15.8 60.44 0.093 7.31 3.15 9.35
9/8/2021 8:00:00 AM 15.79 60.422 0.093 7.26 3.17 9.39
9/8/2021 8:15:00 AM 15.78 60.404 0.093 7.32 3.15 9.43
9/8/2021 8:30:00 AM 15.78 60.404 0.093 7.33 2.89 9.48
9/8/2021 8:45:00 AM 15.78 60.404 0.093 7.34 3.01 9.52
9/8/2021 9:00:00 AM 15.81 60.458 0.093 7.36 3.17 9.57
9/8/2021 9:15:00 AM 15.85 60.53 0.093 7.37 2.73 9.62
9/8/2021 9:30:00 AM 15.88 60.584 0.093 7.39 2.97 9.66
9/8/2021 9:45:00 AM 15.94 60.692 0.093 7.4 2.74 9.7
9/8/2021 10:00:00 AM 16 60.8 0.093 7.42 2.7 9.73
9/8/2021 10:15:00 AM 16.06 60.908 0.093 7.43 2.58 9.75
9/8/2021 10:30:00 AM 16.13 61.034 0.093 7.45 2.57 9.77
9/8/2021 10:45:00 AM 16.21 61.178 0.093 7.46 2.56 9.78
9/8/2021 11:00:00 AM 16.29 61.322 0.093 7.47 2.52 9.78
9/8/2021 11:15:00 AM 16.39 61.502 0.093 7.48 2.55 9.8
9/8/2021 11:30:00 AM 16.51 61.718 0.093 7.5 2.41 9.81
9/8/2021 11:45:00 AM 16.64 61.952 0.093 7.52 2.4 9.83
9/8/2021 12:00:00 PM 16.79 62.222 0.093 7.53 2.41 9.83
9/8/2021 12:15:00 PM 16.96 62.528 0.093 7.55 2.28 9.85
9/8/2021 12:30:00 PM 17.16 62.888 0.093 7.58 2.37 9.87
9/8/2021 12:45:00 PM 17.32 63.176 0.092 7.61 2.29 9.88
9/8/2021 1:00:00 PM 17.5 63.5 0.092 7.59 2.36 9.87
9/8/2021 1:15:00 PM 17.66 63.788 0.092 7.64 2.44 9.87
9/8/2021 1:30:00 PM 17.84 64.112 0.092 7.65 2.33 9.88
9/8/2021 1:45:00 PM 17.97 64.346 0.092 7.68 2.41 9.85
9/8/2021 2:00:00 PM 17.97 64.346 0.092 7.66 2.31 9.76
9/8/2021 2:15:00 PM 17.94 64.292 0.092 7.65 2.56 9.69
9/8/2021 2:30:00 PM 18 64.4 0.092 7.65 2.33 9.69
9/8/2021 2:45:00 PM 18.21 64.778 0.092 7.69 2.42 9.71
9/8/2021 3:00:00 PM 18.37 65.066 0.092 7.7 2.3 9.71
9/8/2021 3:15:00 PM 18.4 65.12 0.092 7.71 2.42 9.67
9/8/2021 3:30:00 PM 18.36 65.048 0.092 7.68 2.42 9.58
9/8/2021 3:45:00 PM 18.38 65.084 0.092 7.66 2.42 9.52
9/8/2021 4:00:00 PM 18.41 65.138 0.092 7.56 2.36 9.41
9/8/2021 4:15:00 PM 18.43 65.174 0.092 7.59 2.65 9.29
9/8/2021 4:30:00 PM 18.44 65.192 0.092 7.55 2.49 9.22
9/8/2021 4:45:00 PM 18.43 65.174 0.092 7.53 2.45 9.14
9/8/2021 5:00:00 PM 18.43 65.174 0.092 7.51 2.67 9.07
9/8/2021 5:15:00 PM 18.42 65.156 0.093 7.49 2.67 9.04
9/8/2021 5:30:00 PM 18.42 65.156 0.093 7.47 2.48 8.97
9/8/2021 5:45:00 PM 18.42 65.156 0.092 7.45 3.46 8.94
9/8/2021 6:00:00 PM 18.4 65.12 0.092 7.45 3.22 8.92
9/8/2021 6:15:00 PM 18.38 65.084 0.092 7.43 3.56 8.89
9/8/2021 6:30:00 PM 18.34 65.012 0.092 7.42 3.91 8.88
9/8/2021 6:45:00 PM 18.31 64.958 0.092 7.4 3.83 8.85
9/8/2021 7:00:00 PM 18.28 64.904 0.092 7.4 3.91 8.83
9/8/2021 7:15:00 PM 18.25 64.85 0.092 7.38 3.83 8.81
9/8/2021 7:30:00 PM 18.22 64.796 0.092 7.37 3.83 8.8
9/8/2021 7:45:00 PM 18.19 64.742 0.093 7.36 3.87 8.78
9/8/2021 8:00:00 PM 18.17 64.706 0.093 7.36 4.18 8.78
9/8/2021 8:15:00 PM 18.14 64.652 0.094 7.35 4.52 8.77
9/8/2021 8:30:00 PM 18.11 64.598 0.094 7.35 5.02 8.77
9/8/2021 8:45:00 PM 18.08 64.544 0.094 7.34 5.23 8.77
9/8/2021 9:00:00 PM 18.04 64.472 0.094 7.34 5.69 8.78
9/8/2021 9:15:00 PM 18 64.4 0.095 7.33 7.17 8.79
9/8/2021 9:30:00 PM 17.97 64.346 0.096 7.35 8.71 8.8
9/8/2021 9:45:00 PM 17.93 64.274 0.096 7.34 8.91 8.8
9/8/2021 10:00:00 PM 17.89 64.202 0.096 7.34 9.94 8.81
9/8/2021 10:15:00 PM 17.86 64.148 0.096 7.34 11.16 8.83
9/8/2021 10:30:00 PM 17.82 64.076 0.096 7.33 12.38 8.83
9/8/2021 10:45:00 PM 17.8 64.04 0.095 7.28 14.18 8.83
9/8/2021 11:00:00 PM 17.78 64.004 0.094 7.34 14.62 8.84
9/8/2021 11:15:00 PM 17.74 63.932 0.093 7.32 17.08 8.84
9/8/2021 11:30:00 PM 17.7 63.86 0.092 7.31 15.31 8.85
9/8/2021 11:45:00 PM 17.67 63.806 0.092 7.29 15.38 8.86
9/9/2021 12:00:00 AM 17.65 63.77 0.091 7.31 15.28 8.87
9/9/2021 12:15:00 AM 17.63 63.734 0.091 7.31 16.03 8.86
9/9/2021 12:30:00 AM 17.62 63.716 0.09 7.3 17.41 8.86
9/9/2021 12:45:00 AM 17.59 63.662 0.09 7.3 22.03 8.87
9/9/2021 1:00:00 AM 17.56 63.608 0.089 7.29 26.15 8.87
9/9/2021 1:15:00 AM 17.53 63.554 0.089 7.29 26.11 8.88
9/9/2021 1:30:00 AM 17.5 63.5 0.089 7.24 29.52 8.89
9/9/2021 1:45:00 AM 17.47 63.446 0.089 7.29 21.51 8.9
9/9/2021 2:00:00 AM 17.44 63.392 0.09 7.29 17.83 8.91
9/9/2021 2:15:00 AM 17.42 63.356 0.09 7.29 14.87 8.92
9/9/2021 2:30:00 AM 17.39 63.302 0.09 7.27 14.11 8.93
9/9/2021 2:45:00 AM 17.37 63.266 0.09 7.29 12.87 8.94
9/9/2021 3:00:00 AM 17.35 63.23 0.09 7.3 13.12 8.94
9/9/2021 3:15:00 AM 17.33 63.194 0.09 7.3 11.94 8.95
9/9/2021 3:30:00 AM 17.31 63.158 0.09 7.29 11.24 8.96
9/9/2021 3:45:00 AM 17.29 63.122 0.09 7.3 11.4 8.95
9/9/2021 4:00:00 AM 17.28 63.104 0.09 7.28 11.63 8.96
9/9/2021 4:15:00 AM 17.26 63.068 0.09 7.29 11.13 8.97
9/9/2021 4:30:00 AM 17.24 63.032 0.09 7.3 10.78 8.97
9/9/2021 4:45:00 AM 17.22 62.996 0.09 7.3 9.59 8.97
9/9/2021 5:00:00 AM 17.21 62.978 0.09 7.3 8.95 8.98
9/9/2021 5:15:00 AM 17.19 62.942 0.09 7.29 8.8 8.98
9/9/2021 5:30:00 AM 17.17 62.906 0.09 7.3 7.89 8.98
9/9/2021 5:45:00 AM 17.15 62.87 0.09 7.3 8 8.99
9/9/2021 6:00:00 AM 17.14 62.852 0.09 7.3 7.92 8.99
9/9/2021 6:15:00 AM 17.12 62.816 0.09 7.3 7.45 8.99
9/9/2021 6:30:00 AM 17.1 62.78 0.09 7.3 7.54 8.99
9/9/2021 6:45:00 AM 17.09 62.762 0.09 7.3 6.99 9
9/9/2021 7:00:00 AM 17.07 62.726 0.09 7.3 6.67 9
9/9/2021 7:15:00 AM 17.06 62.708 0.09 7.3 6.54 9
9/9/2021 7:30:00 AM 17.04 62.672 0.09 7.3 6.58 9.02
9/9/2021 7:45:00 AM 17.03 62.654 0.09 7.31 6.27 9.03
9/9/2021 8:00:00 AM 17.02 62.636 0.09 7.31 6.15 9.05
9/9/2021 8:15:00 AM 17.01 62.618 0.09 7.32 5.89 9.07
9/9/2021 8:30:00 AM 17 62.6 0.09 7.32 6.16 9.09
9/9/2021 8:45:00 AM 16.99 62.582 0.09 7.34 5.47 9.11
9/9/2021 9:00:00 AM 16.98 62.564 0.091 7.34 5.19 9.12
9/9/2021 9:15:00 AM 16.98 62.564 0.091 7.35 5.36 9.15
9/9/2021 9:30:00 AM 16.99 62.582 0.091 7.36 4.87 9.21
9/9/2021 9:45:00 AM 17 62.6 0.091 7.37 5.09 9.24
9/9/2021 10:00:00 AM 17 62.6 0.091 7.38 4.63 9.27
9/9/2021 10:15:00 AM 17.01 62.618 0.091 7.39 4.39 9.29
9/9/2021 10:30:00 AM 17.06 62.708 0.091 7.39 4.3 9.39
9/9/2021 10:45:00 AM 17.08 62.744 0.091 7.43 4.27 9.44
9/9/2021 11:00:00 AM 17.14 62.852 0.091 7.46 4.47 9.53
9/9/2021 11:15:00 AM 17.17 62.906 0.091 7.48 4 9.56
9/9/2021 11:30:00 AM 17.21 62.978 0.091 7.5 3.95 9.6
9/9/2021 11:45:00 AM 17.24 63.032 0.091 7.51 3.86 9.6
9/9/2021 12:00:00 PM 17.33 63.194 0.091 7.53 3.91 9.68
9/9/2021 12:15:00 PM 17.34 63.212 0.091 7.54 3.66 9.68
9/9/2021 12:30:00 PM 17.39 63.302 0.091 7.58 3.89 9.71
9/9/2021 12:45:00 PM 17.44 63.392 0.091 7.59 3.8 9.73
9/9/2021 1:00:00 PM 17.48 63.464 0.091 7.59 3.42 9.69
9/9/2021 1:15:00 PM 17.53 63.554 0.091 7.59 4.04 9.72
9/9/2021 1:30:00 PM 17.58 63.644 0.091 7.63 3.5 9.73
9/9/2021 1:45:00 PM 17.59 63.662 0.091 7.62 3.4 9.7
9/9/2021 2:00:00 PM 17.6 63.68 0.091 7.61 3.38 9.66
9/9/2021 2:15:00 PM 17.62 63.716 0.091 7.61 3.24 9.67
9/9/2021 2:30:00 PM 17.69 63.842 0.091 7.64 3.26 9.71
9/9/2021 2:45:00 PM 17.77 63.986 0.091 7.67 3.37 9.74
9/9/2021 3:00:00 PM 17.9 64.22 0.091 7.69 3.41 9.76
9/9/2021 3:15:00 PM 17.89 64.202 0.091 7.68 3.44 9.73
9/9/2021 3:30:00 PM 18.02 64.436 0.091 7.69 3.29 9.73
9/9/2021 3:45:00 PM 18.06 64.508 0.091 7.7 3.27 9.71
9/9/2021 4:00:00 PM 18.01 64.418 0.091 7.65 3.51 9.57
9/9/2021 4:15:00 PM 18.01 64.418 0.091 7.61 3.26 9.44
9/9/2021 4:30:00 PM 18 64.4 0.091 7.57 3.52 9.36
9/9/2021 4:45:00 PM 18.01 64.418 0.091 7.56 3.41 9.32
9/9/2021 5:00:00 PM 18.01 64.418 0.091 7.56 3.3 9.33
9/9/2021 5:15:00 PM 18 64.4 0.091 7.53 3.42 9.29
9/9/2021 5:30:00 PM 17.98 64.364 0.091 7.54 3.51 9.25
9/9/2021 5:45:00 PM 17.95 64.31 0.092 7.52 3.43 9.19
9/9/2021 6:00:00 PM 17.92 64.256 0.092 7.5 3.39 9.16
9/9/2021 6:15:00 PM 17.9 64.22 0.092 7.49 3.37 9.14
9/9/2021 6:30:00 PM 17.87 64.166 0.092 7.49 3.31 9.15
9/9/2021 6:45:00 PM 17.83 64.094 0.092 7.44 3.39 9.12
9/9/2021 7:00:00 PM 17.78 64.004 0.092 7.47 3.21 9.08
9/9/2021 7:15:00 PM 17.75 63.95 0.092 7.44 3.32 9.05
9/9/2021 7:30:00 PM 17.73 63.914 0.092 7.44 3.29 9.01
9/9/2021 7:45:00 PM 17.71 63.878 0.092 7.41 3.41 8.98
9/9/2021 8:00:00 PM 17.68 63.824 0.093 7.41 3.63 8.96
9/9/2021 8:15:00 PM 17.64 63.752 0.092 7.41 5.12 8.96
9/9/2021 8:30:00 PM 17.6 63.68 0.092 7.39 4.35 8.95
9/9/2021 8:45:00 PM 17.56 63.608 0.092 7.39 4.02 8.93
9/9/2021 9:00:00 PM 17.51 63.518 0.092 7.37 5.12 8.92
9/9/2021 9:15:00 PM 17.46 63.428 0.092 7.3 5.42 8.91
9/9/2021 9:30:00 PM 17.42 63.356 0.093 7.37 5.25 8.92
9/9/2021 9:45:00 PM 17.37 63.266 0.093 7.36 5.01 8.92
9/9/2021 10:00:00 PM 17.33 63.194 0.093 7.35 5.02 8.92
9/9/2021 10:15:00 PM 17.28 63.104 0.094 7.35 5.3 8.93
9/9/2021 10:30:00 PM 17.24 63.032 0.094 7.34 5.5 8.93
9/9/2021 10:45:00 PM 17.2 62.96 0.095 7.35 5.89 8.94
9/9/2021 11:00:00 PM 17.16 62.888 0.095 7.34 5.12 8.94
9/9/2021 11:15:00 PM 17.12 62.816 0.096 7.34 5.11 8.95
9/9/2021 11:30:00 PM 17.07 62.726 0.096 7.32 4.87 8.96
9/9/2021 11:45:00 PM 17.04 62.672 0.097 7.34 5.2 8.97
9/10/2021 12:00:00 AM 17 62.6 0.097 7.34 7.48 8.98
9/10/2021 12:15:00 AM 16.97 62.546 0.097 7.34 5.23 8.99
9/10/2021 12:30:00 AM 16.93 62.474 0.098 7.34 4.94 9
9/10/2021 12:45:00 AM 16.9 62.42 0.098 7.34 4.69 9
9/10/2021 1:00:00 AM 16.86 62.348 0.098 7.34 4.96 9
9/10/2021 1:15:00 AM 16.83 62.294 0.098 7.34 4.77 9.02
9/10/2021 1:30:00 AM 16.79 62.222 0.098 7.34 4.75 9.03
9/10/2021 1:45:00 AM 16.75 62.15 0.098 7.34 4.45 9.04
9/10/2021 2:00:00 AM 16.71 62.078 0.097 7.34 4.19 9.04
9/10/2021 2:15:00 AM 16.68 62.024 0.097 7.34 4.22 9.05
9/10/2021 2:30:00 AM 16.63 61.934 0.097 7.34 4.17 9.07
9/10/2021 2:45:00 AM 16.58 61.844 0.097 7.34 3.87 9.07
9/10/2021 3:00:00 AM 16.54 61.772 0.097 7.34 3.76 9.08
9/10/2021 3:15:00 AM 16.49 61.682 0.097 7.34 3.87 9.1
9/10/2021 3:30:00 AM 16.46 61.628 0.097 7.34 4.04 9.11
9/10/2021 3:45:00 AM 16.41 61.538 0.097 7.34 4.03 9.12
9/10/2021 4:00:00 AM 16.36 61.448 0.097 7.33 3.84 9.13
9/10/2021 4:15:00 AM 16.31 61.358 0.097 7.34 3.64 9.14
9/10/2021 4:30:00 AM 16.27 61.286 0.097 7.33 3.79 9.14
9/10/2021 4:45:00 AM 16.22 61.196 0.097 7.33 3.55 9.15
9/10/2021 5:00:00 AM 16.17 61.106 0.097 7.33 3.4 9.16
9/10/2021 5:15:00 AM 16.12 61.016 0.097 7.33 3.68 9.17
9/10/2021 5:30:00 AM 16.07 60.926 0.097 7.33 3.52 9.18
9/10/2021 5:45:00 AM 16.02 60.836 0.097 7.26 3.45 9.2
9/10/2021 6:00:00 AM 15.96 60.728 0.097 7.33 3.37 9.22
9/10/2021 6:15:00 AM 15.91 60.638 0.097 7.33 3.32 9.23
9/10/2021 6:30:00 AM 15.86 60.548 0.097 7.33 3.31 9.25
9/10/2021 6:45:00 AM 15.81 60.458 0.097 7.33 3.41 9.27
9/10/2021 7:00:00 AM 15.77 60.386 0.097 7.33 3.2 9.29
9/10/2021 7:15:00 AM 15.72 60.296 0.097 7.33 3.3 9.32
9/10/2021 7:30:00 AM 15.69 60.242 0.097 7.34 3.31 9.34
9/10/2021 7:45:00 AM 15.66 60.188 0.097 7.34 3.18 9.38
9/10/2021 8:00:00 AM 15.63 60.134 0.097 7.36 3.07 9.42
9/10/2021 8:15:00 AM 15.61 60.098 0.097 7.36 3.16 9.45
9/10/2021 8:30:00 AM 15.6 60.08 0.097 7.37 2.89 9.49
9/10/2021 8:45:00 AM 15.59 60.062 0.097 7.38 2.79 9.53
9/10/2021 9:00:00 AM 15.59 60.062 0.097 7.39 3.03 9.59
9/10/2021 9:15:00 AM 15.6 60.08 0.097 7.41 2.72 9.64
9/10/2021 9:30:00 AM 15.61 60.098 0.096 7.42 2.71 9.71
9/10/2021 9:45:00 AM 15.61 60.098 0.096 7.44 2.63 9.77
9/10/2021 10:00:00 AM 15.69 60.242 0.096 7.44 2.54 9.84
9/10/2021 10:15:00 AM 15.73 60.314 0.096 7.48 2.44 9.88
9/10/2021 10:30:00 AM 15.76 60.368 0.096 7.48 2.58 9.92
9/10/2021 10:45:00 AM 15.82 60.476 0.096 7.51 2.49 9.95
9/10/2021 11:00:00 AM 15.88 60.584 0.096 7.52 2.55 9.96
9/10/2021 11:15:00 AM 15.96 60.728 0.096 7.54 2.49 9.99
9/10/2021 11:30:00 AM 16.05 60.89 0.096 7.55 2.41 10
9/10/2021 11:45:00 AM 16.02 60.836 0.096 7.56 2.5 10
9/10/2021 12:00:00 PM 16.08 60.944 0.096 7.59 2.27 10.06
9/10/2021 12:15:00 PM 16.27 61.286 0.096 7.61 2.44 10.08
9/10/2021 12:30:00 PM 16.41 61.538 0.096 7.64 2.46 10.11
9/10/2021 12:45:00 PM 16.58 61.844 0.096 7.6 2.31 10.12
9/10/2021 1:00:00 PM 16.73 62.114 0.096 7.68 2.25 10.12
9/10/2021 1:15:00 PM 16.84 62.312 0.096 7.67 2.35 10.09
9/10/2021 1:30:00 PM 17 62.6 0.096 7.71 2.33 10.1
9/10/2021 1:45:00 PM 17.15 62.87 0.096 7.73 2.27 10.11
9/10/2021 2:00:00 PM 17.28 63.104 0.095 7.74 2.26 10.09
9/10/2021 2:15:00 PM 17.4 63.32 0.095 7.75 2.24 10.06
9/10/2021 2:30:00 PM 17.49 63.482 0.095 7.76 2.29 10.03
9/10/2021 2:45:00 PM 17.49 63.482 0.095 7.74 2.33 9.96
9/10/2021 3:00:00 PM 17.6 63.68 0.095 7.69 2.34 9.95
9/10/2021 3:15:00 PM 17.69 63.842 0.095 7.75 2.19 9.94
9/10/2021 3:30:00 PM 17.73 63.914 0.095 7.75 2.48 9.89
9/10/2021 3:45:00 PM 17.79 64.022 0.095 7.74 2.2 9.86
9/10/2021 4:00:00 PM 17.71 63.878 0.095 7.69 2.27 9.71
9/10/2021 4:15:00 PM 17.8 64.04 0.095 7.7 2.3 9.74
9/10/2021 4:30:00 PM 17.69 63.842 0.095 7.65 2.39 9.59
9/10/2021 4:45:00 PM 17.79 64.022 0.095 7.65 2.51 9.65
9/10/2021 5:00:00 PM 17.78 64.004 0.095 7.65 2.38 9.59
9/10/2021 5:15:00 PM 17.84 64.112 0.095 7.65 2.29 9.59
9/10/2021 5:30:00 PM 17.88 64.184 0.095 7.64 2.28 9.58
9/10/2021 5:45:00 PM 17.87 64.166 0.095 7.62 2.33 9.48
9/10/2021 6:00:00 PM 17.86 64.148 0.096 7.6 2.55 9.41
9/10/2021 6:15:00 PM 17.83 64.094 0.096 7.57 2.46 9.33
9/10/2021 6:30:00 PM 17.79 64.022 0.096 7.53 2.35 9.28
9/10/2021 6:45:00 PM 17.75 63.95 0.096 7.52 2.41 9.23
9/10/2021 7:00:00 PM 17.72 63.896 0.096 7.5 2.38 9.19
9/10/2021 7:15:00 PM 17.68 63.824 0.096 7.49 2.38 9.15
9/10/2021 7:30:00 PM 17.64 63.752 0.096 7.47 2.4 9.1
9/10/2021 7:45:00 PM 17.59 63.662 0.096 7.46 2.37 9.08
9/10/2021 8:00:00 PM 17.54 63.572 0.096 7.45 2.41 9.04
9/10/2021 8:15:00 PM 17.47 63.446 0.096 7.43 2.85 9.03
9/10/2021 8:30:00 PM 17.41 63.338 0.096 7.42 2.8 9.02
9/10/2021 8:45:00 PM 17.34 63.212 0.097 7.41 2.84 9.02
9/10/2021 9:00:00 PM 17.27 63.086 0.097 7.4 3.49 9.01
9/10/2021 9:15:00 PM 17.2 62.96 0.097 7.39 3 9.02
9/10/2021 9:30:00 PM 17.13 62.834 0.097 7.38 2.78 9.02
9/10/2021 9:45:00 PM 17.05 62.69 0.097 7.38 2.75 9.03
9/10/2021 10:00:00 PM 16.97 62.546 0.097 7.37 2.7 9.03
9/10/2021 10:15:00 PM 16.89 62.402 0.097 7.37 2.8 9.04
9/10/2021 10:30:00 PM 16.81 62.258 0.097 7.36 2.59 9.06
9/10/2021 10:45:00 PM 16.72 62.096 0.097 7.36 2.8 9.08
9/10/2021 11:00:00 PM 16.65 61.97 0.097 7.35 2.63 9.09
9/10/2021 11:15:00 PM 16.57 61.826 0.097 7.35 2.81 9.12
9/10/2021 11:30:00 PM 16.49 61.682 0.097 7.35 2.59 9.13
9/10/2021 11:45:00 PM 16.41 61.538 0.098 7.35 2.75 9.14
9/11/2021 12:00:00 AM 16.34 61.412 0.098 7.33 2.73 9.16
9/11/2021 12:15:00 AM 16.27 61.286 0.098 7.35 2.73 9.17
9/11/2021 12:30:00 AM 16.19 61.142 0.098 7.34 2.6 9.18
9/11/2021 12:45:00 AM 16.11 60.998 0.098 7.34 2.62 9.2
9/11/2021 1:00:00 AM 16.04 60.872 0.098 7.34 2.75 9.22
9/11/2021 1:15:00 AM 15.97 60.746 0.098 7.33 2.73 9.24
9/11/2021 1:30:00 AM 15.89 60.602 0.098 7.32 2.82 9.27
9/11/2021 1:45:00 AM 15.82 60.476 0.098 7.34 3.01 9.28
9/11/2021 2:00:00 AM 15.74 60.332 0.098 7.33 2.84 9.3
9/11/2021 2:15:00 AM 15.67 60.206 0.098 7.32 2.7 9.32
9/11/2021 2:30:00 AM 15.6 60.08 0.098 7.33 2.8 9.33
9/11/2021 2:45:00 AM 15.53 59.954 0.098 7.32 2.79 9.34
9/11/2021 3:00:00 AM 15.45 59.81 0.098 7.33 2.71 9.36
9/11/2021 3:15:00 AM 15.38 59.684 0.098 7.33 2.58 9.38
9/11/2021 3:30:00 AM 15.3 59.54 0.099 7.33 2.68 9.4
9/11/2021 3:45:00 AM 15.23 59.414 0.099 7.33 2.7 9.42
9/11/2021 4:00:00 AM 15.16 59.288 0.099 7.33 2.69 9.45
9/11/2021 4:15:00 AM 15.1 59.18 0.099 7.33 2.78 9.45
9/11/2021 4:30:00 AM 15.03 59.054 0.099 7.33 2.59 9.47
9/11/2021 4:45:00 AM 14.96 58.928 0.099 7.33 2.62 9.49
9/11/2021 5:00:00 AM 14.89 58.802 0.099 7.27 2.64 9.51
9/11/2021 5:15:00 AM 14.82 58.676 0.099 7.33 2.47 9.51
9/11/2021 5:30:00 AM 14.76 58.568 0.099 7.33 2.7 9.53
9/11/2021 5:45:00 AM 14.69 58.442 0.099 7.33 2.86 9.55
9/11/2021 6:00:00 AM 14.63 58.334 0.099 7.32 2.51 9.57
9/11/2021 6:15:00 AM 14.56 58.208 0.099 7.33 2.56 9.59
9/11/2021 6:30:00 AM 14.5 58.1 0.099 7.31 2.65 9.61
9/11/2021 6:45:00 AM 14.44 57.992 0.099 7.33 2.58 9.62
9/11/2021 7:00:00 AM 14.4 57.92 0.099 7.33 2.6 9.66
9/11/2021 7:15:00 AM 14.35 57.83 0.099 7.33 2.55 9.69
9/11/2021 7:30:00 AM 14.31 57.758 0.099 7.34 2.44 9.76
9/11/2021 7:45:00 AM 14.28 57.704 0.099 7.35 2.43 9.83
9/11/2021 8:00:00 AM 14.26 57.668 0.099 7.37 2.32 9.91
9/11/2021 8:15:00 AM 14.24 57.632 0.099 7.38 2.25 9.99
9/11/2021 8:30:00 AM 14.22 57.596 0.099 7.39 2.57 10.04
9/11/2021 8:45:00 AM 14.2 57.56 0.099 7.41 2.31 10.08
9/11/2021 9:00:00 AM 14.19 57.542 0.099 7.42 2.32 10.15
9/11/2021 9:15:00 AM 14.2 57.56 0.099 7.45 2.39 10.22
9/11/2021 9:30:00 AM 14.21 57.578 0.099 7.46 2.5 10.3
9/11/2021 9:45:00 AM 14.24 57.632 0.099 7.5 2.88 10.4
9/11/2021 10:00:00 AM 14.27 57.686 0.099 7.53 2.25 10.46
9/11/2021 10:15:00 AM 14.34 57.812 0.099 7.56 2.13 10.53
9/11/2021 10:30:00 AM 14.39 57.902 0.099 7.58 2.03 10.56
9/11/2021 10:45:00 AM 14.43 57.974 0.099 7.6 2.05 10.58
9/11/2021 11:00:00 AM 14.49 58.082 0.099 7.6 2.01 10.57
9/11/2021 11:15:00 AM 14.59 58.262 0.099 7.62 2.09 10.58
9/11/2021 11:30:00 AM 14.69 58.442 0.099 7.62 1.95 10.55
9/11/2021 11:45:00 AM 14.81 58.658 0.099 7.63 1.96 10.54
9/11/2021 12:00:00 PM 14.96 58.928 0.098 7.64 1.94 10.57
9/11/2021 12:15:00 PM 15.13 59.234 0.098 7.67 1.88 10.58
9/11/2021 12:30:00 PM 15.31 59.558 0.098 7.7 1.98 10.59
9/11/2021 12:45:00 PM 15.51 59.918 0.098 7.72 1.99 10.58
9/11/2021 1:00:00 PM 15.69 60.242 0.098 7.71 2.03 10.59
9/11/2021 1:15:00 PM 15.87 60.566 0.098 7.76 1.95 10.58
9/11/2021 1:30:00 PM 16.03 60.854 0.098 7.77 1.86 10.55
9/11/2021 1:45:00 PM 16.19 61.142 0.098 7.79 2 10.51
9/11/2021 2:00:00 PM 16.33 61.394 0.098 7.8 1.93 10.5
9/11/2021 2:15:00 PM 16.46 61.628 0.098 7.81 1.92 10.48
9/11/2021 2:30:00 PM 16.56 61.808 0.098 7.82 2 10.44
9/11/2021 2:45:00 PM 16.68 62.024 0.098 7.83 1.83 10.41
9/11/2021 3:00:00 PM 16.71 62.078 0.098 7.81 1.87 10.33
9/11/2021 3:15:00 PM 16.73 62.114 0.098 7.81 1.99 10.28
9/11/2021 3:30:00 PM 16.81 62.258 0.098 7.82 1.87 10.25
9/11/2021 3:45:00 PM 16.84 62.312 0.098 7.78 1.91 10.18
9/11/2021 4:00:00 PM 16.93 62.474 0.098 7.81 1.95 10.15
9/11/2021 4:15:00 PM 17.03 62.654 0.098 7.82 1.98 10.17
9/11/2021 4:30:00 PM 17.02 62.636 0.098 7.79 2.02 10.07
9/11/2021 4:45:00 PM 17.07 62.726 0.098 7.78 2.04 10.03
9/11/2021 5:00:00 PM 17.12 62.816 0.098 7.77 2.14 9.99
9/11/2021 5:15:00 PM 17.14 62.852 0.098 7.75 2 9.9
9/11/2021 5:30:00 PM 17.16 62.888 0.098 7.72 2.02 9.82
9/11/2021 5:45:00 PM 17.17 62.906 0.098 7.68 2.15 9.73
9/11/2021 6:00:00 PM 17.18 62.924 0.098 7.64 2.15 9.64
9/11/2021 6:15:00 PM 17.19 62.942 0.098 7.62 2.25 9.56
9/11/2021 6:30:00 PM 17.2 62.96 0.098 7.59 2.13 9.5
9/11/2021 6:45:00 PM 17.2 62.96 0.098 7.57 2.14 9.44
9/11/2021 7:00:00 PM 17.2 62.96 0.098 7.55 2.01 9.38
9/11/2021 7:15:00 PM 17.19 62.942 0.098 7.52 1.94 9.32
9/11/2021 7:30:00 PM 17.17 62.906 0.098 7.5 2 9.26
9/11/2021 7:45:00 PM 17.14 62.852 0.098 7.48 2.32 9.21
9/11/2021 8:00:00 PM 17.11 62.798 0.098 7.46 2.21 9.18
9/11/2021 8:15:00 PM 17.08 62.744 0.098 7.45 2.38 9.15
9/11/2021 8:30:00 PM 17.05 62.69 0.098 7.43 2.52 9.13
9/11/2021 8:45:00 PM 17 62.6 0.098 7.42 2.21 9.11
9/11/2021 9:00:00 PM 16.95 62.51 0.099 7.41 2.35 9.1
9/11/2021 9:15:00 PM 16.9 62.42 0.099 7.34 2.24 9.08
9/11/2021 9:30:00 PM 16.85 62.33 0.099 7.39 2.32 9.08
9/11/2021 9:45:00 PM 16.79 62.222 0.099 7.38 2.34 9.08
9/11/2021 10:00:00 PM 16.73 62.114 0.099 7.37 2.22 9.08
9/11/2021 10:15:00 PM 16.67 62.006 0.099 7.37 2.26 9.1
9/11/2021 10:30:00 PM 16.62 61.916 0.099 7.37 2.47 9.1
9/11/2021 10:45:00 PM 16.56 61.808 0.099 7.37 2.47 9.11
9/11/2021 11:00:00 PM 16.51 61.718 0.099 7.35 2.33 9.11
9/11/2021 11:15:00 PM 16.45 61.61 0.099 7.36 2.3 9.13
9/11/2021 11:30:00 PM 16.4 61.52 0.099 7.36 2.25 9.14
9/11/2021 11:45:00 PM 16.34 61.412 0.1 7.32 2.26 9.15
9/12/2021 12:00:00 AM 16.3 61.34 0.1 7.36 2.31 9.15
9/12/2021 12:15:00 AM 16.25 61.25 0.1 7.35 2.34 9.16
9/12/2021 12:30:00 AM 16.2 61.16 0.1 7.35 2.24 9.17
9/12/2021 12:45:00 AM 16.15 61.07 0.1 7.35 2.28 9.17
9/12/2021 1:00:00 AM 16.11 60.998 0.1 7.35 2.39 9.19
9/12/2021 1:15:00 AM 16.06 60.908 0.1 7.35 2.26 9.2
9/12/2021 1:30:00 AM 16.01 60.818 0.1 7.35 2.37 9.21
9/12/2021 1:45:00 AM 15.97 60.746 0.1 7.33 2.28 9.22
9/12/2021 2:00:00 AM 15.92 60.656 0.1 7.35 2.36 9.24
9/12/2021 2:15:00 AM 15.88 60.584 0.1 7.34 2.39 9.25
9/12/2021 2:30:00 AM 15.84 60.512 0.1 7.34 2.49 9.26
9/12/2021 2:45:00 AM 15.8 60.44 0.101 7.34 2.36 9.27
9/12/2021 3:00:00 AM 15.76 60.368 0.101 7.34 2.4 9.28
9/12/2021 3:15:00 AM 15.72 60.296 0.101 7.34 2.28 9.29
9/12/2021 3:30:00 AM 15.68 60.224 0.101 7.34 2.26 9.3
9/12/2021 3:45:00 AM 15.64 60.152 0.101 7.34 2.34 9.3
9/12/2021 4:00:00 AM 15.6 60.08 0.101 7.34 2.44 9.31
9/12/2021 4:15:00 AM 15.55 59.99 0.101 7.34 2.31 9.32
9/12/2021 4:30:00 AM 15.51 59.918 0.101 7.34 2.28 9.32
9/12/2021 4:45:00 AM 15.47 59.846 0.101 7.34 2.33 9.33
9/12/2021 5:00:00 AM 15.43 59.774 0.101 7.33 2.27 9.34
9/12/2021 5:15:00 AM 15.38 59.684 0.101 7.33 2.26 9.36
9/12/2021 5:30:00 AM 15.34 59.612 0.101 7.34 2.38 9.37
9/12/2021 5:45:00 AM 15.3 59.54 0.101 7.33 2.35 9.38
9/12/2021 6:00:00 AM 15.26 59.468 0.101 7.33 2.33 9.4
9/12/2021 6:15:00 AM 15.23 59.414 0.101 7.33 2.22 9.4
9/12/2021 6:30:00 AM 15.2 59.36 0.101 7.33 2.24 9.41
9/12/2021 6:45:00 AM 15.17 59.306 0.101 7.33 2.1 9.42
9/12/2021 7:00:00 AM 15.14 59.252 0.101 7.33 2.22 9.43
9/12/2021 7:15:00 AM 15.12 59.216 0.101 7.34 2.1 9.46
9/12/2021 7:30:00 AM 15.09 59.162 0.101 7.34 2.26 9.48
9/12/2021 7:45:00 AM 15.08 59.144 0.101 7.31 2.29 9.53
9/12/2021 8:00:00 AM 15.07 59.126 0.101 7.35 2.03 9.59
9/12/2021 8:15:00 AM 15.07 59.126 0.101 7.38 2.09 9.67
9/12/2021 8:30:00 AM 15.06 59.108 0.101 7.39 2.19 9.71
9/12/2021 8:45:00 AM 15.07 59.126 0.101 7.4 1.99 9.8
9/12/2021 9:00:00 AM 15.09 59.162 0.101 7.42 1.93 9.9
9/12/2021 9:15:00 AM 15.1 59.18 0.101 7.45 1.95 9.97
9/12/2021 9:30:00 AM 15.14 59.252 0.101 7.48 1.91 10.06
9/12/2021 9:45:00 AM 15.18 59.324 0.101 7.5 1.87 10.1
9/12/2021 10:00:00 AM 15.22 59.396 0.101 7.53 1.89 10.18
9/12/2021 10:15:00 AM 15.3 59.54 0.101 7.56 1.79 10.28
9/12/2021 10:30:00 AM 15.31 59.558 0.101 7.58 1.84 10.3
9/12/2021 10:45:00 AM 15.37 59.666 0.101 7.61 1.78 10.34
9/12/2021 11:00:00 AM 15.45 59.81 0.101 7.65 1.75 10.42
9/12/2021 11:15:00 AM 15.5 59.9 0.101 7.67 1.77 10.41
9/12/2021 11:30:00 AM 15.53 59.954 0.101 7.68 1.78 10.42
9/12/2021 11:45:00 AM 15.64 60.152 0.1 7.71 3.05 10.5
9/12/2021 12:00:00 PM 15.72 60.296 0.1 7.76 1.75 10.54
9/12/2021 12:15:00 PM 15.86 60.548 0.1 7.8 1.84 10.6
9/12/2021 12:30:00 PM 16.01 60.818 0.1 7.85 2.2 10.64
9/12/2021 12:45:00 PM 16.15 61.07 0.1 7.88 1.82 10.63
9/12/2021 1:00:00 PM 16.15 61.07 0.1 7.88 1.8 10.57
9/12/2021 1:15:00 PM 16.2 61.16 0.1 7.89 1.72 10.55
9/12/2021 1:30:00 PM 16.31 61.358 0.1 7.93 1.71 10.59
9/12/2021 1:45:00 PM 16.4 61.52 0.1 7.95 1.68 10.58
9/12/2021 2:00:00 PM 16.54 61.772 0.1 7.98 1.82 10.59
9/12/2021 2:15:00 PM 16.73 62.114 0.1 8.01 2.18 10.6
9/12/2021 2:30:00 PM 16.82 62.276 0.1 8.05 1.8 10.59
9/12/2021 2:45:00 PM 16.96 62.528 0.099 8.08 1.81 10.61
9/12/2021 3:00:00 PM 17.04 62.672 0.099 8.09 1.84 10.6
9/12/2021 3:15:00 PM 17.05 62.69 0.099 8.09 1.77 10.55
9/12/2021 3:30:00 PM 17.09 62.762 0.099 8.09 1.85 10.51
9/12/2021 3:45:00 PM 17.15 62.87 0.099 8.1 1.89 10.49
9/12/2021 4:00:00 PM 17.22 62.996 0.099 8.1 1.73 10.46
9/12/2021 4:15:00 PM 17.22 62.996 0.099 8.07 1.73 10.38
9/12/2021 4:30:00 PM 17.24 63.032 0.099 8.03 1.68 10.29
9/12/2021 4:45:00 PM 17.28 63.104 0.099 7.97 1.8 10.18
9/12/2021 5:00:00 PM 17.29 63.122 0.099 7.89 1.78 10.02
9/12/2021 5:15:00 PM 17.34 63.212 0.099 7.86 1.72 9.97
9/12/2021 5:30:00 PM 17.38 63.284 0.099 7.81 1.94 9.86
9/12/2021 5:45:00 PM 17.42 63.356 0.099 7.78 2.04 9.81
9/12/2021 6:00:00 PM 17.44 63.392 0.099 7.71 1.88 9.71
9/12/2021 6:15:00 PM 17.45 63.41 0.099 7.69 1.96 9.62
9/12/2021 6:30:00 PM 17.46 63.428 0.099 7.65 2.09 9.54
9/12/2021 6:45:00 PM 17.46 63.428 0.1 7.61 1.98 9.45
9/12/2021 7:00:00 PM 17.46 63.428 0.1 7.51 1.92 9.36
9/12/2021 7:15:00 PM 17.45 63.41 0.1 7.55 1.86 9.27
9/12/2021 7:30:00 PM 17.44 63.392 0.1 7.51 2.03 9.2
9/12/2021 7:45:00 PM 17.44 63.392 0.1 7.48 1.93 9.14
9/12/2021 8:00:00 PM 17.43 63.374 0.1 7.46 2.37 9.09
9/12/2021 8:15:00 PM 17.42 63.356 0.1 7.43 2.16 9.05
9/12/2021 8:30:00 PM 17.41 63.338 0.1 7.42 2.14 9.02
9/12/2021 8:45:00 PM 17.41 63.338 0.1 7.4 2.12 8.99
9/12/2021 9:00:00 PM 17.4 63.32 0.101 7.38 2.16 8.97
9/12/2021 9:15:00 PM 17.4 63.32 0.101 7.36 2.14 8.95
9/12/2021 9:30:00 PM 17.39 63.302 0.101 7.35 2.23 8.93
9/12/2021 9:45:00 PM 17.39 63.302 0.101 7.33 2.35 8.92
9/12/2021 10:00:00 PM 17.37 63.266 0.101 7.29 2 8.91
9/12/2021 10:15:00 PM 17.37 63.266 0.101 7.31 2.17 8.91
9/12/2021 10:30:00 PM 17.36 63.248 0.101 7.3 2.06 8.9
9/12/2021 10:45:00 PM 17.35 63.23 0.101 7.3 2.21 8.89
9/12/2021 11:00:00 PM 17.35 63.23 0.102 7.29 2.12 8.89
9/12/2021 11:15:00 PM 17.34 63.212 0.102 7.28 2.14 8.89
9/12/2021 11:30:00 PM 17.32 63.176 0.102 7.29 2.1 8.89
9/12/2021 11:45:00 PM 17.3 63.14 0.102 7.28 2.1 8.89
9/13/2021 12:00:00 AM 17.28 63.104 0.102 7.28 2.14 8.89
9/13/2021 12:15:00 AM 17.26 63.068 0.102 7.27 2.08 8.89
9/13/2021 12:30:00 AM 17.24 63.032 0.102 7.27 2.05 8.89
9/13/2021 12:45:00 AM 17.22 62.996 0.102 7.26 2.04 8.89
9/13/2021 1:00:00 AM 17.2 62.96 0.102 7.27 2.32 8.9
9/13/2021 1:15:00 AM 17.18 62.924 0.102 7.26 2.22 8.9
9/13/2021 1:30:00 AM 17.15 62.87 0.102 7.26 2.08 8.91
9/13/2021 1:45:00 AM 17.14 62.852 0.103 7.25 2.1 8.9
9/13/2021 2:00:00 AM 17.13 62.834 0.103 7.26 2.27 8.91
9/13/2021 2:15:00 AM 17.11 62.798 0.103 7.26 2.03 8.92
9/13/2021 2:30:00 AM 17.1 62.78 0.103 7.23 2.32 8.92
9/13/2021 2:45:00 AM 17.08 62.744 0.103 7.26 1.91 8.93
9/13/2021 3:00:00 AM 17.06 62.708 0.103 7.26 2.07 8.93
9/13/2021 3:15:00 AM 17.04 62.672 0.103 7.26 2.2 8.93
9/13/2021 3:30:00 AM 17.03 62.654 0.103 7.26 2.07 8.92
9/13/2021 3:45:00 AM 17.01 62.618 0.103 7.26 1.98 8.93
9/13/2021 4:00:00 AM 16.99 62.582 0.103 7.25 2.05 8.93
9/13/2021 4:15:00 AM 16.98 62.564 0.103 7.26 2.14 8.94
9/13/2021 4:30:00 AM 16.95 62.51 0.103 7.26 2.02 8.95
9/13/2021 4:45:00 AM 16.94 62.492 0.103 7.26 1.99 8.95
9/13/2021 5:00:00 AM 16.92 62.456 0.103 7.26 2.17 8.95
9/13/2021 5:15:00 AM 16.9 62.42 0.103 7.27 2.22 8.95
9/13/2021 5:30:00 AM 16.88 62.384 0.104 7.27 2.25 8.96
9/13/2021 5:45:00 AM 16.86 62.348 0.104 7.27 2.21 8.96
9/13/2021 6:00:00 AM 16.85 62.33 0.104 7.27 2.12 8.96
9/13/2021 6:15:00 AM 16.83 62.294 0.104 7.27 2.14 8.97
9/13/2021 6:30:00 AM 16.81 62.258 0.104 7.26 2 8.98
9/13/2021 6:45:00 AM 16.79 62.222 0.104 7.26 2.16 8.97
9/13/2021 7:00:00 AM 16.77 62.186 0.104 7.27 2.19 8.99
9/13/2021 7:15:00 AM 16.75 62.15 0.104 7.27 2.11 9.02
9/13/2021 7:30:00 AM 16.74 62.132 0.104 7.28 1.98 9.08
9/13/2021 7:45:00 AM 16.73 62.114 0.104 7.23 2.11 9.15
9/13/2021 8:00:00 AM 16.72 62.096 0.104 7.29 1.97 9.22
9/13/2021 8:15:00 AM 16.73 62.114 0.104 7.32 1.99 9.32
9/13/2021 8:30:00 AM 16.73 62.114 0.104 7.34 2.13 9.41
9/13/2021 8:45:00 AM 16.74 62.132 0.104 7.35 2.33 9.48
9/13/2021 9:00:00 AM 16.78 62.204 0.104 7.38 2.09 9.59
9/13/2021 9:15:00 AM 16.82 62.276 0.104 7.4 2.31 9.68
9/13/2021 9:30:00 AM 16.84 62.312 0.104 7.43 2.15 9.73
9/13/2021 9:45:00 AM 16.87 62.366 0.103 7.45 1.91 9.83
9/13/2021 10:00:00 AM 16.97 62.546 0.103 7.5 2.26 9.92
9/13/2021 10:15:00 AM 17.07 62.726 0.103 7.53 2.36 10.01
9/13/2021 10:30:00 AM 17.14 62.852 0.103 7.58 2.17 10.05
9/13/2021 10:45:00 AM 17.2 62.96 0.103 7.62 2.21 10.09
9/13/2021 11:00:00 AM 17.26 63.068 0.103 7.66 2.17 10.13
9/13/2021 11:15:00 AM 17.36 63.248 0.103 7.7 1.98 10.17
9/13/2021 11:30:00 AM 17.49 63.482 0.103 7.75 1.98 10.22
9/13/2021 11:45:00 AM 17.51 63.518 0.103 7.76 2.1 10.17
9/13/2021 12:00:00 PM 17.63 63.734 0.103 7.8 1.86 10.25
9/13/2021 12:15:00 PM 17.83 64.094 0.103 7.87 1.82 10.31
9/13/2021 12:30:00 PM 18.04 64.472 0.103 7.94 1.89 10.36
9/13/2021 12:45:00 PM 18.17 64.706 0.102 7.97 1.91 10.36
9/13/2021 1:00:00 PM 18.32 64.976 0.102 8.03 1.73 10.4
9/13/2021 1:15:00 PM 18.56 65.408 0.102 8.1 1.86 10.45
9/13/2021 1:30:00 PM 18.76 65.768 0.102 8.14 1.67 10.47
9/13/2021 1:45:00 PM 18.83 65.894 0.102 8.14 1.8 10.36
9/13/2021 2:00:00 PM 18.86 65.948 0.102 8.15 1.67 10.31
9/13/2021 2:15:00 PM 18.98 66.164 0.102 8.17 1.72 10.32
9/13/2021 2:30:00 PM 19.07 66.326 0.102 8.17 1.86 10.29
9/13/2021 2:45:00 PM 19.16 66.488 0.102 8.21 1.79 10.3
9/13/2021 3:00:00 PM 19.25 66.65 0.102 8.22 1.96 10.25
9/13/2021 3:15:00 PM 19.21 66.578 0.102 8.16 1.76 10.11
9/13/2021 3:30:00 PM 19.2 66.56 0.102 8.12 2.07 10.01
9/13/2021 3:45:00 PM 19.32 66.776 0.101 8.13 214.87 10.03
9/13/2021 4:00:00 PM 19.38 66.884 0.101 8.09 3.28 9.95
9/13/2021 4:15:00 PM 19.41 66.938 0.101 8.13 1.92 9.94
9/13/2021 4:30:00 PM 19.48 67.064 0.101 8.09 1.71 9.84
9/13/2021 4:45:00 PM 19.5 67.1 0.101 8.07 2.21 9.78
9/13/2021 5:00:00 PM 19.49 67.082 0.101 8.01 1.79 9.68
9/13/2021 5:15:00 PM 19.47 67.046 0.101 7.9 1.68 9.57
9/13/2021 5:30:00 PM 19.46 67.028 0.101 7.87 5.45 9.49
9/13/2021 5:45:00 PM 19.44 66.992 0.101 7.81 1.99 9.35
9/13/2021 6:00:00 PM 19.43 66.974 0.101 7.77 1.58 9.3
9/13/2021 6:15:00 PM 19.4 66.92 0.102 7.73 2.69 9.25
9/13/2021 6:30:00 PM 19.37 66.866 0.102 7.66 7.5 9.12
9/13/2021 6:45:00 PM 19.33 66.794 0.102 7.62 2.1 9.03
9/13/2021 7:00:00 PM 19.3 66.74 0.102 7.58 6.25 8.94
9/13/2021 7:15:00 PM 19.27 66.686 0.102 7.54 1.74 8.86
9/13/2021 7:30:00 PM 19.24 66.632 0.102 7.51 1.79 8.79
9/13/2021 7:45:00 PM 19.21 66.578 0.099 7.49 9.12 8.75
9/13/2021 8:00:00 PM 19.08 66.344 0.098 7.47 4.87 8.72
9/13/2021 8:15:00 PM 18.97 66.146 0.098 7.41 8.55 8.68
9/13/2021 8:30:00 PM 18.93 66.074 0.099 7.42 14.69 8.66
9/13/2021 8:45:00 PM 18.75 65.75 0.103 7.47 151.05 8.58
9/13/2021 9:00:00 PM 18.44 65.192 0.099 7.47 265.12 8.64
9/13/2021 9:15:00 PM 18.08 64.544 0.108 8.01 321.76 8.72
9/13/2021 9:30:00 PM 17.93 64.274 0.109 7.9 264.61 8.78
9/13/2021 9:45:00 PM 17.98 64.364 0.11 7.8 243.42 8.75
9/13/2021 10:00:00 PM 18.03 64.454 0.108 7.65 163.6 8.72
9/13/2021 10:15:00 PM 18.07 64.526 0.105 7.51 108.05 8.68
9/13/2021 10:30:00 PM 18.14 64.652 0.104 7.45 101.16 8.66
9/13/2021 10:45:00 PM 18.16 64.688 0.104 7.42 82.14 8.64
9/13/2021 11:00:00 PM 18.12 64.616 0.106 7.42 62.7 8.67
9/13/2021 11:15:00 PM 18.09 64.562 0.108 7.45 61.68 8.67
9/13/2021 11:30:00 PM 18.04 64.472 0.108 7.46 58.46 8.68
9/13/2021 11:45:00 PM 17.98 64.364 0.106 7.45 62.47 8.69
9/14/2021 12:00:00 AM 17.91 64.238 0.105 7.44 70.64 8.71
9/14/2021 12:15:00 AM 17.86 64.148 0.104 7.43 66.91 8.71
9/14/2021 12:30:00 AM 17.82 64.076 0.102 7.41 67.54 8.72
9/14/2021 12:45:00 AM 17.78 64.004 0.1 7.4 73.4 8.74
9/14/2021 1:00:00 AM 17.75 63.95 0.098 7.38 61.1 8.75
9/14/2021 1:15:00 AM 17.73 63.914 0.098 7.36 53.85 8.75
9/14/2021 1:30:00 AM 17.71 63.878 0.098 7.35 49.39 8.77
9/14/2021 1:45:00 AM 17.71 63.878 0.099 7.36 39.7 8.77
9/14/2021 2:00:00 AM 17.71 63.878 0.1 7.36 34.86 8.77
9/14/2021 2:15:00 AM 17.7 63.86 0.1 7.37 31.78 8.78
9/14/2021 2:30:00 AM 17.7 63.86 0.101 7.36 28.53 8.78
9/14/2021 2:45:00 AM 17.69 63.842 0.101 7.37 28.85 8.78
9/14/2021 3:00:00 AM 17.68 63.824 0.101 7.36 28.22 8.78
9/14/2021 3:15:00 AM 17.66 63.788 0.101 7.36 27.86 8.78
9/14/2021 3:30:00 AM 17.64 63.752 0.102 7.37 28.21 8.79
9/14/2021 3:45:00 AM 17.61 63.698 0.102 7.35 28.58 8.79
9/14/2021 4:00:00 AM 17.58 63.644 0.103 7.37 26.63 8.79
9/14/2021 4:15:00 AM 17.55 63.59 0.103 7.36 27.02 8.79
9/14/2021 4:30:00 AM 17.52 63.536 0.103 7.35 28.11 8.8
9/14/2021 4:45:00 AM 17.5 63.5 0.103 7.36 29.59 8.81
9/14/2021 5:00:00 AM 17.48 63.464 0.104 7.36 25.4 8.81
9/14/2021 5:15:00 AM 17.46 63.428 0.104 7.36 17.69 8.82
9/14/2021 5:30:00 AM 17.44 63.392 0.105 7.36 22.37 8.83
9/14/2021 5:45:00 AM 17.41 63.338 0.105 7.36 37.18 8.83
9/14/2021 6:00:00 AM 17.39 63.302 0.106 7.36 19.61 8.84
9/14/2021 6:15:00 AM 17.38 63.284 0.106 7.36 17.84 8.85
9/14/2021 6:30:00 AM 17.36 63.248 0.107 7.36 16.64 8.86
9/14/2021 6:45:00 AM 17.34 63.212 0.108 7.35 15.66 8.86
9/14/2021 7:00:00 AM 17.31 63.158 0.108 7.35 14.65 8.86
9/14/2021 7:15:00 AM 17.29 63.122 0.109 7.36 13.9 8.88
9/14/2021 7:30:00 AM 17.27 63.086 0.11 7.36 13.79 8.91
9/14/2021 7:45:00 AM 17.26 63.068 0.11 7.37 12.71 8.94
9/14/2021 8:00:00 AM 17.26 63.068 0.11 7.37 12.01 8.98
9/14/2021 8:15:00 AM 17.26 63.068 0.111 7.37 11.22 9.02
9/14/2021 8:30:00 AM 17.27 63.086 0.111 7.34 10.62 9.08
9/14/2021 8:45:00 AM 17.28 63.104 0.111 7.4 9.91 9.13
9/14/2021 9:00:00 AM 17.3 63.14 0.111 7.41 9.3 9.2
9/14/2021 9:15:00 AM 17.33 63.194 0.111 7.42 8.73 9.25
9/14/2021 9:30:00 AM 17.37 63.266 0.111 7.44 7.93 9.3
9/14/2021 9:45:00 AM 17.41 63.338 0.111 7.45 7.73 9.36
9/14/2021 10:00:00 AM 17.46 63.428 0.111 7.47 7.2 9.41
9/14/2021 10:15:00 AM 17.53 63.554 0.111 7.49 6.9 9.48
9/14/2021 10:30:00 AM 17.6 63.68 0.111 7.52 6.55 9.55
9/14/2021 10:45:00 AM 17.68 63.824 0.111 7.54 6.68 9.6
9/14/2021 11:00:00 AM 17.76 63.968 0.111 7.57 6.37 9.67
9/14/2021 11:15:00 AM 17.86 64.148 0.111 7.59 5.81 9.71
9/14/2021 11:30:00 AM 17.96 64.328 0.111 7.62 5.63 9.76
9/14/2021 11:45:00 AM 18.05 64.49 0.111 7.65 5.45 9.79
9/14/2021 12:00:00 PM 18.14 64.652 0.111 7.68 5.3 9.84
9/14/2021 12:15:00 PM 18.19 64.742 0.111 7.7 5.2 9.85
9/14/2021 12:30:00 PM 18.28 64.904 0.112 7.71 4.86 9.88
9/14/2021 12:45:00 PM 18.48 65.264 0.112 7.77 4.77 9.96
9/14/2021 1:00:00 PM 18.61 65.498 0.112 7.8 4.9 9.99
9/14/2021 1:15:00 PM 18.74 65.732 0.112 7.77 4.72 10.01
9/14/2021 1:30:00 PM 18.88 65.984 0.112 7.86 4.48 10.02
9/14/2021 1:45:00 PM 19.01 66.218 0.112 7.89 4.23 10.02
9/14/2021 2:00:00 PM 19.14 66.452 0.111 7.92 4.22 10.03
9/14/2021 2:15:00 PM 19.19 66.542 0.111 7.91 4.14 9.95
9/14/2021 2:30:00 PM 19.27 66.686 0.111 7.91 3.98 9.92
9/14/2021 2:45:00 PM 19.38 66.884 0.111 7.9 4.38 9.91
9/14/2021 3:00:00 PM 19.44 66.992 0.111 7.92 3.99 9.84
9/14/2021 3:15:00 PM 19.59 67.262 0.11 7.94 3.83 9.85
9/14/2021 3:30:00 PM 19.62 67.316 0.11 7.93 3.97 9.79
9/14/2021 3:45:00 PM 19.66 67.388 0.11 7.92 3.91 9.74
9/14/2021 4:00:00 PM 19.67 67.406 0.11 7.9 3.91 9.67
9/14/2021 4:15:00 PM 19.71 67.478 0.11 7.88 3.93 9.63
9/14/2021 4:30:00 PM 19.73 67.514 0.11 7.85 3.87 9.54
9/14/2021 4:45:00 PM 19.76 67.568 0.11 7.83 3.74 9.46
9/14/2021 5:00:00 PM 19.78 67.604 0.11 7.77 3.79 9.33
9/14/2021 5:15:00 PM 19.79 67.622 0.11 7.75 3.69 9.25
9/14/2021 5:30:00 PM 19.81 67.658 0.11 7.72 3.83 9.19
9/14/2021 5:45:00 PM 19.81 67.658 0.11 7.68 4.03 9.14
9/14/2021 6:00:00 PM 19.8 67.64 0.11 7.67 3.66 9.08
9/14/2021 6:15:00 PM 19.78 67.604 0.11 7.64 3.73 9.02
9/14/2021 6:30:00 PM 19.75 67.55 0.11 7.61 3.92 8.94
9/14/2021 6:45:00 PM 19.72 67.496 0.11 7.58 3.64 8.88
9/14/2021 7:00:00 PM 19.69 67.442 0.11 7.56 3.56 8.81
9/14/2021 7:15:00 PM 19.66 67.388 0.11 7.53 3.79 8.73
9/14/2021 7:30:00 PM 19.62 67.316 0.11 7.49 3.67 8.66
9/14/2021 7:45:00 PM 19.58 67.244 0.111 7.48 3.77 8.6
9/14/2021 8:00:00 PM 19.55 67.19 0.11 7.46 4.01 8.56
9/14/2021 8:15:00 PM 19.51 67.118 0.111 7.44 3.92 8.54
9/14/2021 8:30:00 PM 19.47 67.046 0.111 7.43 3.85 8.51
9/14/2021 8:45:00 PM 19.43 66.974 0.111 7.41 3.95 8.49
9/14/2021 9:00:00 PM 19.39 66.902 0.111 7.37 4.76 8.48
9/14/2021 9:15:00 PM 19.34 66.812 0.111 7.4 4.94 8.46
9/14/2021 9:30:00 PM 19.3 66.74 0.111 7.39 4.02 8.47
9/14/2021 9:45:00 PM 19.25 66.65 0.111 7.38 3.75 8.47
9/14/2021 10:00:00 PM 19.21 66.578 0.111 7.36 3.8 8.47
9/14/2021 10:15:00 PM 19.16 66.488 0.111 7.36 3.86 8.47
9/14/2021 10:30:00 PM 19.11 66.398 0.111 7.35 3.87 8.47
9/14/2021 10:45:00 PM 19.07 66.326 0.111 7.35 3.89 8.47
9/14/2021 11:00:00 PM 19.02 66.236 0.111 7.35 3.81 8.47
9/14/2021 11:15:00 PM 18.97 66.146 0.111 7.33 3.83 8.47
9/14/2021 11:30:00 PM 18.92 66.056 0.111 7.33 4.25 8.49
9/14/2021 11:45:00 PM 18.88 65.984 0.111 7.33 3.78 8.49
9/15/2021 12:00:00 AM 18.84 65.912 0.111 7.33 3.88 8.49
9/15/2021 12:15:00 AM 18.79 65.82201 0.111 7.33 4.14 8.5
9/15/2021 12:30:00 AM 18.75 65.75 0.111 7.33 3.62 8.51
9/15/2021 12:45:00 AM 18.72 65.696 0.111 7.33 3.8 8.53
9/15/2021 1:00:00 AM 18.68 65.624 0.111 7.33 3.81 8.53
9/15/2021 1:15:00 AM 18.64 65.552 0.111 7.32 3.82 8.54
9/15/2021 1:30:00 AM 18.6 65.48 0.111 7.32 3.74 8.55
9/15/2021 1:45:00 AM 18.57 65.426 0.111 7.32 3.71 8.57
9/15/2021 2:00:00 AM 18.54 65.372 0.111 7.32 4 8.57
9/15/2021 2:15:00 AM 18.5 65.3 0.111 7.32 3.75 8.57
9/15/2021 2:30:00 AM 18.47 65.246 0.111 7.32 3.9 8.58
9/15/2021 2:45:00 AM 18.44 65.192 0.111 7.31 3.84 8.58
9/15/2021 3:00:00 AM 18.41 65.138 0.111 7.32 3.83 8.59
9/15/2021 3:15:00 AM 18.38 65.084 0.111 7.32 3.57 8.6
9/15/2021 3:30:00 AM 18.35 65.03 0.111 7.32 3.71 8.6
9/15/2021 3:45:00 AM 18.31 64.958 0.111 7.32 3.7 8.61
9/15/2021 4:00:00 AM 18.28 64.904 0.112 7.32 3.68 8.61
9/15/2021 4:15:00 AM 18.25 64.85 0.112 7.29 4.52 8.6
9/15/2021 4:30:00 AM 18.23 64.814 0.112 7.32 4.16 8.61
9/15/2021 4:45:00 AM 18.21 64.778 0.112 7.31 4 8.62
9/15/2021 5:00:00 AM 18.19 64.742 0.112 7.31 3.78 8.62
9/15/2021 5:15:00 AM 18.17 64.706 0.112 7.28 3.95 8.64
9/15/2021 5:30:00 AM 18.15 64.67 0.112 7.31 3.65 8.64
9/15/2021 5:45:00 AM 18.11 64.598 0.112 7.31 4.7 8.64
9/15/2021 6:00:00 AM 18.09 64.562 0.113 7.31 3.93 8.66
9/15/2021 6:15:00 AM 18.06 64.508 0.113 7.3 3.68 8.66
9/15/2021 6:30:00 AM 18.03 64.454 0.113 7.29 3.62 8.65
9/15/2021 6:45:00 AM 18.01 64.418 0.113 7.31 3.84 8.68
9/15/2021 7:00:00 AM 17.99 64.382 0.113 7.31 3.51 8.69
9/15/2021 7:15:00 AM 17.96 64.328 0.113 7.31 3.56 8.72
9/15/2021 7:30:00 AM 17.93 64.274 0.113 7.31 3.61 8.75
9/15/2021 7:45:00 AM 17.92 64.256 0.113 7.32 3.26 8.81
9/15/2021 8:00:00 AM 17.91 64.238 0.113 7.33 3.31 8.86
9/15/2021 8:15:00 AM 17.9 64.22 0.113 7.34 3.35 8.93
9/15/2021 8:30:00 AM 17.9 64.22 0.113 7.35 3.06 9.01
9/15/2021 8:45:00 AM 17.91 64.238 0.112 7.36 3.16 9.09
9/15/2021 9:00:00 AM 17.94 64.292 0.112 7.38 3 9.19
9/15/2021 9:15:00 AM 17.96 64.328 0.112 7.4 2.92 9.25
9/15/2021 9:30:00 AM 17.99 64.382 0.112 7.42 3.1 9.32
9/15/2021 9:45:00 AM 18.06 64.508 0.112 7.46 2.89 9.44
9/15/2021 10:00:00 AM 18.16 64.688 0.112 7.51 2.82 9.53
9/15/2021 10:15:00 AM 18.29 64.922 0.112 7.56 2.83 9.63
9/15/2021 10:30:00 AM 18.34 65.012 0.112 7.59 2.97 9.66
9/15/2021 10:45:00 AM 18.41 65.138 0.112 7.61 2.64 9.7
9/15/2021 11:00:00 AM 18.52 65.336 0.112 7.66 2.78 9.78
9/15/2021 11:15:00 AM 18.63 65.534 0.112 7.69 2.61 9.82
9/15/2021 11:30:00 AM 18.75 65.75 0.112 7.73 2.7 9.84
9/15/2021 11:45:00 AM 18.89 66.002 0.112 7.76 2.78 9.86
9/15/2021 12:00:00 PM 19 66.2 0.111 7.8 2.69 9.91
9/15/2021 12:15:00 PM 19.17 66.506 0.111 7.85 2.65 9.97
9/15/2021 12:30:00 PM 19.34 66.812 0.111 7.9 2.68 10.03
9/15/2021 12:45:00 PM 19.51 67.118 0.111 7.95 2.67 10.06
9/15/2021 1:00:00 PM 19.64 67.352 0.111 7.99 2.67 10.08
9/15/2021 1:15:00 PM 19.78 67.604 0.111 8.03 2.69 10.09
9/15/2021 1:30:00 PM 19.89 67.802 0.111 8.06 2.56 10.09
9/15/2021 1:45:00 PM 19.98 67.964 0.111 8.09 2.55 10.09
9/15/2021 2:00:00 PM 20.07 68.126 0.111 8.11 2.67 10.07
9/15/2021 2:15:00 PM 20.12 68.216 0.11 8.11 2.68 10.03
9/15/2021 2:30:00 PM 20.29 68.522 0.11 8.14 2.63 10.01
9/15/2021 2:45:00 PM 20.39 68.702 0.11 8.14 2.71 9.97
9/15/2021 3:00:00 PM 20.28 68.504 0.11 8.03 2.67 9.7
9/15/2021 3:15:00 PM 20.26 68.468 0.11 7.93 2.61 9.52
9/15/2021 3:30:00 PM 20.22 68.396 0.11 7.86 2.59 9.33
9/15/2021 3:45:00 PM 20.21 68.378 0.11 7.76 2.68 9.09
9/15/2021 4:00:00 PM 20.24 68.432 0.108 7.69 3.87 8.91
9/15/2021 4:15:00 PM 20.19 68.342 0.109 7.64 3.25 8.81
9/15/2021 4:30:00 PM 20.15 68.27 0.109 7.62 3.47 8.78
9/15/2021 4:45:00 PM 20.1 68.18 0.109 7.59 3.64 8.71
9/15/2021 5:00:00 PM 20.05 68.09 0.108 7.55 4.36 8.62
9/15/2021 5:15:00 PM 19.98 67.964 0.109 7.52 3.68 8.55
9/15/2021 5:30:00 PM 19.92 67.856 0.109 7.5 3.65 8.54
9/15/2021 5:45:00 PM 19.92 67.856 0.105 7.49 27.28 8.57
9/15/2021 6:00:00 PM 19.9 67.82 0.106 7.44 128.26 8.46
9/15/2021 6:15:00 PM 19.88 67.784 0.103 7.46 227.94 8.38
9/15/2021 6:30:00 PM 19.87 67.766 0.104 7.7 596.48 8.32
9/15/2021 6:45:00 PM 19.95 67.91 0.098 7.64 754.52 8.29
9/15/2021 7:00:00 PM 19.97 67.946 0.087 7.4 501.27 8.34
9/15/2021 7:15:00 PM 19.82 67.676 0.08 7.27 448.96 8.38
9/15/2021 7:30:00 PM 19.68 67.424 0.083 7.34 435.49 8.42
9/15/2021 7:45:00 PM 19.62 67.316 0.078 7.3 448.72 8.42
9/15/2021 8:00:00 PM 19.6 67.28 0.071 7.21 454.41 8.44
9/15/2021 8:15:00 PM 19.57 67.226 0.067 7.15 427.98 8.46
9/15/2021 8:30:00 PM 19.53 67.154 0.066 7.13 386.48 8.49
9/15/2021 8:45:00 PM 19.49 67.082 0.066 7.14 367.89 8.51
9/15/2021 9:00:00 PM 19.44 66.992 0.067 7.12 305.69 8.53
9/15/2021 9:15:00 PM 19.39 66.902 0.067 7.14 266.77 8.54
9/15/2021 9:30:00 PM 19.33 66.794 0.068 7.14 235.17 8.57
9/15/2021 9:45:00 PM 19.27 66.686 0.069 7.14 213.86 8.58
9/15/2021 10:00:00 PM 19.22 66.596 0.07 7.14 187.63 8.6
9/15/2021 10:15:00 PM 19.16 66.488 0.07 7.14 165.34 8.62
9/15/2021 10:30:00 PM 19.1 66.38 0.071 7.14 148.64 8.63
9/15/2021 10:45:00 PM 19.04 66.272 0.072 7.16 128.18 8.65
9/15/2021 11:00:00 PM 18.98 66.164 0.073 7.17 120.46 8.65
9/15/2021 11:15:00 PM 18.92 66.056 0.074 7.17 104.67 8.66
9/15/2021 11:30:00 PM 18.85 65.93 0.074 7.18 96.87 8.68
9/15/2021 11:45:00 PM 18.78 65.804 0.075 7.19 84.21 8.71
9/16/2021 12:00:00 AM 18.71 65.67799 0.076 7.2 78.99 8.72
9/16/2021 12:15:00 AM 18.65 65.57 0.077 7.21 71.9 8.74
9/16/2021 12:30:00 AM 18.58 65.444 0.078 7.19 65.75 8.76
9/16/2021 12:45:00 AM 18.52 65.336 0.078 7.21 57.21 8.77
9/16/2021 1:00:00 AM 18.46 65.228 0.079 7.21 56.6 8.79
9/16/2021 1:15:00 AM 18.41 65.138 0.08 7.21 52.23 8.8
9/16/2021 1:30:00 AM 18.35 65.03 0.08 7.18 49.42 8.81
9/16/2021 1:45:00 AM 18.3 64.94 0.081 7.21 47.45 8.82
9/16/2021 2:00:00 AM 18.25 64.85 0.082 7.21 47.05 8.82
9/16/2021 2:15:00 AM 18.21 64.778 0.082 7.15 44.73 8.83
9/16/2021 2:30:00 AM 18.17 64.706 0.083 7.22 42.07 8.84
9/16/2021 2:45:00 AM 18.12 64.616 0.083 7.21 36.42 8.85
9/16/2021 3:00:00 AM 18.08 64.544 0.084 7.18 37.59 8.87
9/16/2021 3:15:00 AM 18.04 64.472 0.084 7.21 36.61 8.88
9/16/2021 3:30:00 AM 18 64.4 0.083 7.2 35.36 8.89
9/16/2021 3:45:00 AM 17.96 64.328 0.084 7.13 34.39 8.9
9/16/2021 4:00:00 AM 17.92 64.256 0.083 7.2 33.74 8.91
9/16/2021 4:15:00 AM 17.88 64.184 0.083 7.19 31.19 8.93
9/16/2021 4:30:00 AM 17.84 64.112 0.083 7.19 29.33 8.94
9/16/2021 4:45:00 AM 17.8 64.04 0.083 7.19 29.72 8.95
9/16/2021 5:00:00 AM 17.76 63.968 0.084 7.19 27.87 8.96
9/16/2021 5:15:00 AM 17.72 63.896 0.084 7.2 26.71 8.97
9/16/2021 5:30:00 AM 17.68 63.824 0.084 7.2 26.6 8.98
9/16/2021 5:45:00 AM 17.64 63.752 0.084 7.21 23.49 8.98
9/16/2021 6:00:00 AM 17.6 63.68 0.084 7.21 25.12 8.99
9/16/2021 6:15:00 AM 17.57 63.626 0.085 7.17 23.45 8.99
9/16/2021 6:30:00 AM 17.53 63.554 0.085 7.21 24.22 9
9/16/2021 6:45:00 AM 17.49 63.482 0.085 7.15 31.48 9.02
9/16/2021 7:00:00 AM 17.45 63.41 0.086 7.2 22.26 9.03
9/16/2021 7:15:00 AM 17.41 63.338 0.086 7.2 22.04 9.05
9/16/2021 7:30:00 AM 17.38 63.284 0.086 7.2 21.62 9.06
9/16/2021 7:45:00 AM 17.34 63.212 0.086 7.21 21.03 9.07
9/16/2021 8:00:00 AM 17.31 63.158 0.086 7.22 21.77 9.1
9/16/2021 8:15:00 AM 17.28 63.104 0.086 7.23 20.23 9.11
9/16/2021 8:30:00 AM 17.26 63.068 0.084 7.23 20.43 9.13
9/16/2021 8:45:00 AM 17.24 63.032 0.087 7.23 23.8 9.16
9/16/2021 9:00:00 AM 17.22 62.996 0.087 7.23 22.59 9.18
9/16/2021 9:15:00 AM 17.21 62.978 0.087 7.24 16.9 9.2
9/16/2021 9:30:00 AM 17.19 62.942 0.087 7.25 16.24 9.22
9/16/2021 9:45:00 AM 17.19 62.942 0.087 7.26 16.29 9.25
9/16/2021 10:00:00 AM 17.18 62.924 0.087 7.27 15.67 9.26
9/16/2021 10:15:00 AM 17.17 62.906 0.087 7.27 16.24 9.27
9/16/2021 10:30:00 AM 17.18 62.924 0.087 7.28 14.8 9.3
9/16/2021 10:45:00 AM 17.19 62.942 0.087 7.29 14.6 9.32
9/16/2021 11:00:00 AM 17.2 62.96 0.087 7.29 13.86 9.33
9/16/2021 11:15:00 AM 17.21 62.978 0.087 7.29 13.81 9.35
9/16/2021 11:30:00 AM 17.23 63.014 0.088 7.3 13.77 9.38
9/16/2021 11:45:00 AM 17.24 63.032 0.088 7.26 13.38 9.38
9/16/2021 12:00:00 PM 17.23 63.014 0.088 7.31 13.92 9.38
9/16/2021 12:15:00 PM 17.23 63.014 0.088 7.31 13.18 9.38
9/16/2021 12:30:00 PM 17.24 63.032 0.088 7.31 12.62 9.39
9/16/2021 12:45:00 PM 17.27 63.086 0.088 7.31 13.31 9.4
9/16/2021 1:00:00 PM 17.31 63.158 0.088 7.32 12.23 9.43
9/16/2021 1:15:00 PM 17.36 63.248 0.088 7.33 12.32 9.45
9/16/2021 1:30:00 PM 17.41 63.338 0.088 7.34 11.78 9.45
9/16/2021 1:45:00 PM 17.46 63.428 0.088 7.35 11.45 9.46
9/16/2021 2:00:00 PM 17.48 63.464 0.088 7.35 11.61 9.46
9/16/2021 2:15:00 PM 17.53 63.554 0.088 7.35 11.66 9.45
9/16/2021 2:30:00 PM 17.56 63.608 0.088 7.36 11.72 9.45
9/16/2021 2:45:00 PM 17.58 63.644 0.088 7.35 11.59 9.43
9/16/2021 3:00:00 PM 17.61 63.698 0.088 7.36 10.91 9.42
9/16/2021 3:15:00 PM 17.63 63.734 0.088 7.36 11.27 9.41
9/16/2021 3:30:00 PM 17.63 63.734 0.088 7.35 10.78 9.37
9/16/2021 3:45:00 PM 17.65 63.77 0.088 7.34 11.12 9.34
9/16/2021 4:00:00 PM 17.66 63.788 0.088 7.34 11.05 9.34
9/16/2021 4:15:00 PM 17.69 63.842 0.088 7.33 11.46 9.35
9/16/2021 4:30:00 PM 17.71 63.878 0.089 7.35 10.81 9.35
9/16/2021 4:45:00 PM 17.72 63.896 0.089 7.34 10.92 9.33
9/16/2021 5:00:00 PM 17.73 63.914 0.089 7.34 10.87 9.31
9/16/2021 5:15:00 PM 17.74 63.932 0.089 7.33 10.75 9.29
9/16/2021 5:30:00 PM 17.74 63.932 0.089 7.33 10.87 9.26
9/16/2021 5:45:00 PM 17.72 63.896 0.089 7.32 10.73 9.23
9/16/2021 6:00:00 PM 17.71 63.878 0.089 7.3 10.18 9.21
9/16/2021 6:15:00 PM 17.68 63.824 0.089 7.31 10.17 9.19
9/16/2021 6:30:00 PM 17.66 63.788 0.089 7.29 10.87 9.18
9/16/2021 6:45:00 PM 17.64 63.752 0.089 7.29 10.53 9.16
9/16/2021 7:00:00 PM 17.62 63.716 0.09 7.28 10.33 9.14
9/16/2021 7:15:00 PM 17.59 63.662 0.09 7.27 10.84 9.12
9/16/2021 7:30:00 PM 17.56 63.608 0.09 7.25 10.44 9.1
9/16/2021 7:45:00 PM 17.54 63.572 0.09 7.21 10.63 9.09
9/16/2021 8:00:00 PM 17.51 63.518 0.09 7.26 11.14 9.09
9/16/2021 8:15:00 PM 17.49 63.482 0.09 7.25 11.21 9.08
9/16/2021 8:30:00 PM 17.46 63.428 0.09 7.24 10.92 9.09
9/16/2021 8:45:00 PM 17.43 63.374 0.09 7.24 10.93 9.09
9/16/2021 9:00:00 PM 17.41 63.338 0.09 7.24 10.97 9.09
9/16/2021 9:15:00 PM 17.38 63.284 0.09 7.23 10.8 9.1
9/16/2021 9:30:00 PM 17.36 63.248 0.09 7.23 10.67 9.1
9/16/2021 9:45:00 PM 17.33 63.194 0.09 7.23 10.48 9.11
9/16/2021 10:00:00 PM 17.31 63.158 0.091 7.22 10.41 9.12
9/16/2021 10:15:00 PM 17.28 63.104 0.091 7.23 10.43 9.12
9/16/2021 10:30:00 PM 17.25 63.05 0.091 7.22 10.92 9.13
9/16/2021 10:45:00 PM 17.23 63.014 0.091 7.21 10.14 9.14
9/16/2021 11:00:00 PM 17.2 62.96 0.091 7.21 10.18 9.14
9/16/2021 11:15:00 PM 17.17 62.906 0.091 7.22 9.97 9.14
9/16/2021 11:30:00 PM 17.15 62.87 0.091 7.22 9.85 9.15
9/16/2021 11:45:00 PM 17.12 62.816 0.091 7.22 10.41 9.15
9/17/2021 12:00:00 AM 17.1 62.78 0.091 7.22 10.43 9.16
9/17/2021 12:15:00 AM 17.07 62.726 0.091 7.22 10.33 9.17
9/17/2021 12:30:00 AM 17.05 62.69 0.091 7.22 9.56 9.17
9/17/2021 12:45:00 AM 17.03 62.654 0.091 7.22 9.58 9.17
9/17/2021 1:00:00 AM 17.01 62.618 0.091 7.22 9.94 9.17
9/17/2021 1:15:00 AM 16.98 62.564 0.091 7.23 8.89 9.18
9/17/2021 1:30:00 AM 16.96 62.528 0.091 7.23 9.34 9.18
9/17/2021 1:45:00 AM 16.93 62.474 0.091 7.23 9.15 9.18
9/17/2021 2:00:00 AM 16.91 62.438 0.091 7.16 9.34 9.18
9/17/2021 2:15:00 AM 16.89 62.402 0.092 7.23 8.7 9.18
9/17/2021 2:30:00 AM 16.87 62.366 0.092 7.22 8.92 9.19
9/17/2021 2:45:00 AM 16.85 62.33 0.092 7.22 9.05 9.19
9/17/2021 3:00:00 AM 16.83 62.294 0.092 7.23 8.75 9.2
9/17/2021 3:15:00 AM 16.82 62.276 0.092 7.21 8.89 9.2
9/17/2021 3:30:00 AM 16.8 62.24 0.092 7.23 9.01 9.21
9/17/2021 3:45:00 AM 16.78 62.204 0.092 7.23 8.73 9.21
9/17/2021 4:00:00 AM 16.77 62.186 0.092 7.23 8.75 9.22
9/17/2021 4:15:00 AM 16.75 62.15 0.092 7.23 8.53 9.22
9/17/2021 4:30:00 AM 16.73 62.114 0.092 7.22 8.91 9.22
9/17/2021 4:45:00 AM 16.71 62.078 0.092 7.23 8.27 9.23
9/17/2021 5:00:00 AM 16.7 62.06 0.092 7.23 8.34 9.23
9/17/2021 5:15:00 AM 16.69 62.042 0.092 7.23 8.66 9.23
9/17/2021 5:30:00 AM 16.67 62.006 0.092 7.23 8.63 9.24
9/17/2021 5:45:00 AM 16.66 61.988 0.092 7.22 7.95 9.24
9/17/2021 6:00:00 AM 16.64 61.952 0.092 7.22 8.34 9.25
9/17/2021 6:15:00 AM 16.63 61.934 0.092 7.22 7.97 9.25
9/17/2021 6:30:00 AM 16.62 61.916 0.092 7.22 8.11 9.26
9/17/2021 6:45:00 AM 16.61 61.898 0.092 7.22 7.7 9.26
9/17/2021 7:00:00 AM 16.6 61.88 0.092 7.22 7.9 9.27
9/17/2021 7:15:00 AM 16.6 61.88 0.092 7.22 7.48 9.27
9/17/2021 7:30:00 AM 16.59 61.862 0.092 7.22 7.72 9.28
9/17/2021 7:45:00 AM 16.58 61.844 0.092 7.2 7.55 9.29
9/17/2021 8:00:00 AM 16.58 61.844 0.092 7.23 6.94 9.3
9/17/2021 8:15:00 AM 16.57 61.826 0.092 7.23 6.84 9.31
9/17/2021 8:30:00 AM 16.57 61.826 0.092 7.23 6.59 9.32
9/17/2021 8:45:00 AM 16.57 61.826 0.092 7.23 6.55 9.34
9/17/2021 9:00:00 AM 16.58 61.844 0.092 7.24 6.19 9.37
9/17/2021 9:15:00 AM 16.59 61.862 0.092 7.24 6.14 9.39
9/17/2021 9:30:00 AM 16.6 61.88 0.092 7.25 6.42 9.4
9/17/2021 9:45:00 AM 16.62 61.916 0.092 7.26 5.68 9.44
9/17/2021 10:00:00 AM 16.66 61.988 0.092 7.28 5.62 9.49
9/17/2021 10:15:00 AM 16.7 62.06 0.092 7.29 5.58 9.53
9/17/2021 10:30:00 AM 16.73 62.114 0.092 7.3 5.41 9.56
9/17/2021 10:45:00 AM 16.78 62.204 0.092 7.33 5.47 9.59
9/17/2021 11:00:00 AM 16.86 62.348 0.092 7.35 5.68 9.63
9/17/2021 11:15:00 AM 16.9 62.42 0.092 7.36 5.15 9.65
9/17/2021 11:30:00 AM 16.93 62.474 0.092 7.37 5.37 9.63
9/17/2021 11:45:00 AM 16.97 62.546 0.092 7.35 5.18 9.64
9/17/2021 12:00:00 PM 17.05 62.69 0.092 7.4 4.97 9.68
9/17/2021 12:15:00 PM 17.1 62.78 0.092 7.41 5.18 9.69
9/17/2021 12:30:00 PM 17.15 62.87 0.092 7.42 5.45 9.71
9/17/2021 12:45:00 PM 17.2 62.96 0.092 7.42 4.95 9.68
9/17/2021 1:00:00 PM 17.25 63.05 0.092 7.42 5.02 9.71
9/17/2021 1:15:00 PM 17.29 63.122 0.092 7.44 5.19 9.65
9/17/2021 1:30:00 PM 17.34 63.212 0.092 7.44 5 9.64
9/17/2021 1:45:00 PM 17.42 63.356 0.092 7.45 5.13 9.66
9/17/2021 2:00:00 PM 17.46 63.428 0.092 7.45 4.97 9.62
9/17/2021 2:15:00 PM 17.5 63.5 0.092 7.46 4.81 9.64
9/17/2021 2:30:00 PM 17.54 63.572 0.092 7.41 4.96 9.61
9/17/2021 2:45:00 PM 17.59 63.662 0.092 7.48 4.95 9.63
9/17/2021 3:00:00 PM 17.64 63.752 0.092 7.47 5.08 9.63
9/17/2021 3:15:00 PM 17.75 63.95 0.092 7.49 4.88 9.66
9/17/2021 3:30:00 PM 17.74 63.932 0.092 7.47 5.09 9.58
9/17/2021 3:45:00 PM 17.77 63.986 0.092 7.47 5.17 9.54
9/17/2021 4:00:00 PM 17.79 64.022 0.092 7.46 5.18 9.52
9/17/2021 4:15:00 PM 17.8 64.04 0.092 7.46 4.87 9.51
9/17/2021 4:30:00 PM 17.82 64.076 0.092 7.45 5.25 9.5
9/17/2021 4:45:00 PM 17.84 64.112 0.092 7.45 5.14 9.48
9/17/2021 5:00:00 PM 17.84 64.112 0.092 7.44 5.43 9.43
9/17/2021 5:15:00 PM 17.86 64.148 0.092 7.43 5.44 9.41
9/17/2021 5:30:00 PM 17.85 64.13 0.092 7.41 5.19 9.34
9/17/2021 5:45:00 PM 17.85 64.13 0.092 7.4 5.21 9.3
9/17/2021 6:00:00 PM 17.85 64.13 0.092 7.37 5.75 9.25
9/17/2021 6:15:00 PM 17.84 64.112 0.092 7.36 5.91 9.21
9/17/2021 6:30:00 PM 17.84 64.112 0.092 7.35 5.67 9.19
9/17/2021 6:45:00 PM 17.83 64.094 0.092 7.34 5.52 9.16
9/17/2021 7:00:00 PM 17.81 64.058 0.092 7.33 5.63 9.12
9/17/2021 7:15:00 PM 17.8 64.04 0.092 7.26 5.72 9.09
9/17/2021 7:30:00 PM 17.77 63.986 0.092 7.3 5.5 9.06
9/17/2021 7:45:00 PM 17.75 63.95 0.093 7.29 5.77 9.05
9/17/2021 8:00:00 PM 17.72 63.896 0.093 7.28 6.07 9.04
9/17/2021 8:15:00 PM 17.69 63.842 0.093 7.27 6.23 9.03
9/17/2021 8:30:00 PM 17.66 63.788 0.093 7.26 6.04 9.02
9/17/2021 8:45:00 PM 17.62 63.716 0.093 7.26 6.13 9.02
9/17/2021 9:00:00 PM 17.59 63.662 0.093 7.24 6.65 9.01
9/17/2021 9:15:00 PM 17.55 63.59 0.093 7.24 6.92 9.01
9/17/2021 9:30:00 PM 17.53 63.554 0.093 7.23 6.1 9.01
9/17/2021 9:45:00 PM 17.5 63.5 0.093 7.24 6.18 9.01
9/17/2021 10:00:00 PM 17.48 63.464 0.093 7.24 6.54 9.02
9/17/2021 10:15:00 PM 17.45 63.41 0.093 7.24 6.23 9.02
9/17/2021 10:30:00 PM 17.42 63.356 0.093 7.23 6.27 9.03
9/17/2021 10:45:00 PM 17.4 63.32 0.093 7.23 6.38 9.04
9/17/2021 11:00:00 PM 17.37 63.266 0.093 7.24 6.59 9.04
9/17/2021 11:15:00 PM 17.34 63.212 0.093 7.24 6.27 9.05
9/17/2021 11:30:00 PM 17.31 63.158 0.094 7.24 6.37 9.06
9/17/2021 11:45:00 PM 17.28 63.104 0.093 7.24 6.46 9.07
9/18/2021 12:00:00 AM 17.25 63.05 0.094 7.24 6.4 9.07
9/18/2021 12:15:00 AM 17.22 62.996 0.094 7.24 6.32 9.08
9/18/2021 12:30:00 AM 17.19 62.942 0.094 7.25 6.14 9.09
9/18/2021 12:45:00 AM 17.15 62.87 0.094 7.25 6.88 9.1
9/18/2021 1:00:00 AM 17.12 62.816 0.094 7.25 6.01 9.1
9/18/2021 1:15:00 AM 17.09 62.762 0.094 7.25 6.22 9.11
9/18/2021 1:30:00 AM 17.06 62.708 0.094 7.23 6.27 9.11
9/18/2021 1:45:00 AM 17.02 62.636 0.094 7.25 6.21 9.12
9/18/2021 2:00:00 AM 16.99 62.582 0.094 7.25 6.31 9.12
9/18/2021 2:15:00 AM 16.96 62.528 0.094 7.24 6 9.13
9/18/2021 2:30:00 AM 16.94 62.492 0.094 7.25 6.19 9.13
9/18/2021 2:45:00 AM 16.91 62.438 0.094 7.24 6.1 9.13
9/18/2021 3:00:00 AM 16.89 62.402 0.094 7.24 5.97 9.14
9/18/2021 3:15:00 AM 16.86 62.348 0.094 7.25 6.19 9.14
9/18/2021 3:30:00 AM 16.84 62.312 0.094 7.25 6.57 9.14
9/18/2021 3:45:00 AM 16.82 62.276 0.094 7.24 5.97 9.15
9/18/2021 4:00:00 AM 16.8 62.24 0.094 7.25 6.35 9.15
9/18/2021 4:15:00 AM 16.79 62.222 0.095 7.24 6.14 9.16
9/18/2021 4:30:00 AM 16.77 62.186 0.095 7.25 6.14 9.16
9/18/2021 4:45:00 AM 16.76 62.168 0.095 7.24 5.97 9.17
9/18/2021 5:00:00 AM 16.74 62.132 0.095 7.24 6.21 9.17
9/18/2021 5:15:00 AM 16.73 62.114 0.095 7.24 6.15 9.18
9/18/2021 5:30:00 AM 16.71 62.078 0.095 7.24 6.57 9.18
9/18/2021 5:45:00 AM 16.7 62.06 0.095 7.24 6.45 9.18
9/18/2021 6:00:00 AM 16.69 62.042 0.095 7.24 11.92 9.18
9/18/2021 6:15:00 AM 16.68 62.024 0.095 7.21 6.39 9.19
9/18/2021 6:30:00 AM 16.67 62.006 0.095 7.21 6.42 9.18
9/18/2021 6:45:00 AM 16.66 61.988 0.095 7.24 7.12 9.19
9/18/2021 7:00:00 AM 16.65 61.97 0.095 7.24 6.17 9.2
9/18/2021 7:15:00 AM 16.64 61.952 0.095 7.23 8.21 9.19
9/18/2021 7:30:00 AM 16.63 61.934 0.095 7.23 7.72 9.2
9/18/2021 7:45:00 AM 16.63 61.934 0.095 7.24 5.86 9.23
9/18/2021 8:00:00 AM 16.62 61.916 0.095 7.24 7.55 9.25
9/18/2021 8:15:00 AM 16.62 61.916 0.095 7.25 5.38 9.27
9/18/2021 8:30:00 AM 16.63 61.934 0.095 7.2 5.3 9.3
9/18/2021 8:45:00 AM 16.64 61.952 0.095 7.23 5.04 9.35
9/18/2021 9:00:00 AM 16.68 62.024 0.095 7.29 5.41 9.44
9/18/2021 9:15:00 AM 16.71 62.078 0.095 7.3 4.85 9.5
9/18/2021 9:30:00 AM 16.73 62.114 0.095 7.31 4.83 9.52
9/18/2021 9:45:00 AM 16.75 62.15 0.095 7.33 4.59 9.53
9/18/2021 10:00:00 AM 16.77 62.186 0.095 7.33 4.51 9.53
9/18/2021 10:15:00 AM 16.78 62.204 0.095 7.34 4.49 9.53
9/18/2021 10:30:00 AM 16.8 62.24 0.095 7.35 4.3 9.52
9/18/2021 10:45:00 AM 16.86 62.348 0.095 7.37 4.32 9.61
9/18/2021 11:00:00 AM 16.93 62.474 0.094 7.4 4.35 9.67
9/18/2021 11:15:00 AM 16.96 62.528 0.094 7.42 4.02 9.7
9/18/2021 11:30:00 AM 17.03 62.654 0.094 7.44 4.1 9.74
9/18/2021 11:45:00 AM 17.12 62.816 0.094 7.46 4.04 9.77
9/18/2021 12:00:00 PM 17.25 63.05 0.094 7.49 3.95 9.8
9/18/2021 12:15:00 PM 17.43 63.374 0.094 7.51 3.96 9.81
9/18/2021 12:30:00 PM 17.62 63.716 0.094 7.53 3.9 9.8
9/18/2021 12:45:00 PM 17.77 63.986 0.094 7.54 4.28 9.81
9/18/2021 1:00:00 PM 17.94 64.292 0.094 7.56 3.94 9.81
9/18/2021 1:15:00 PM 18.06 64.508 0.094 7.57 3.81 9.8
9/18/2021 1:30:00 PM 18.18 64.724 0.094 7.58 4.08 9.77
9/18/2021 1:45:00 PM 18.25 64.85 0.094 7.59 3.71 9.73
9/18/2021 2:00:00 PM 18.22 64.796 0.094 7.57 3.64 9.65
9/18/2021 2:15:00 PM 18.36 65.048 0.094 7.58 3.74 9.65
9/18/2021 2:30:00 PM 18.46 65.228 0.094 7.58 3.8 9.64
9/18/2021 2:45:00 PM 18.62 65.516 0.094 7.6 3.69 9.65
9/18/2021 3:00:00 PM 18.69 65.642 0.094 7.59 3.65 9.57
9/18/2021 3:15:00 PM 18.83 65.894 0.094 7.59 3.51 9.54
9/18/2021 3:30:00 PM 18.9 66.02 0.094 7.6 3.63 9.52
9/18/2021 3:45:00 PM 18.94 66.092 0.094 7.6 3.65 9.5
9/18/2021 4:00:00 PM 18.94 66.092 0.094 7.6 3.88 9.47
9/18/2021 4:15:00 PM 18.96 66.128 0.094 7.58 4.04 9.41
9/18/2021 4:30:00 PM 19 66.2 0.094 7.57 3.83 9.37
9/18/2021 4:45:00 PM 19.04 66.272 0.094 7.56 3.87 9.33
9/18/2021 5:00:00 PM 19.11 66.398 0.094 7.55 3.56 9.33
9/18/2021 5:15:00 PM 19.14 66.452 0.094 7.55 3.8 9.27
9/18/2021 5:30:00 PM 19.15 66.47 0.094 7.51 3.94 9.14
9/18/2021 5:45:00 PM 19.17 66.506 0.094 7.48 4 9.06
9/18/2021 6:00:00 PM 19.17 66.506 0.095 7.46 3.9 9.01
9/18/2021 6:15:00 PM 19.14 66.452 0.095 7.45 4.17 8.96
9/18/2021 6:30:00 PM 19.1 66.38 0.095 7.44 4.34 8.95
9/18/2021 6:45:00 PM 19.02 66.236 0.095 7.42 4.23 8.9
9/18/2021 7:00:00 PM 18.94 66.092 0.095 7.4 5.1 8.86
9/18/2021 7:15:00 PM 18.86 65.948 0.095 7.38 4.19 8.83
9/18/2021 7:30:00 PM 18.79 65.82201 0.095 7.37 4.38 8.81
9/18/2021 7:45:00 PM 18.74 65.732 0.095 7.36 4.28 8.8
9/18/2021 8:00:00 PM 18.68 65.624 0.095 7.35 4.32 8.8
9/18/2021 8:15:00 PM 18.64 65.552 0.095 7.34 4.29 8.79
9/18/2021 8:30:00 PM 18.6 65.48 0.095 7.33 4.56 8.78
9/18/2021 8:45:00 PM 18.56 65.408 0.096 7.32 4.34 8.77
9/18/2021 9:00:00 PM 18.53 65.354 0.096 7.3 4.44 8.77
9/18/2021 9:15:00 PM 18.5 65.3 0.096 7.29 4.36 8.76
9/18/2021 9:30:00 PM 18.46 65.228 0.096 7.25 4.32 8.77
9/18/2021 9:45:00 PM 18.43 65.174 0.096 7.3 4.55 8.77
9/18/2021 10:00:00 PM 18.39 65.102 0.096 7.29 5.21 8.78
9/18/2021 10:15:00 PM 18.36 65.048 0.096 7.29 4.34 8.78
9/18/2021 10:30:00 PM 18.32 64.976 0.096 7.29 4.57 8.78
9/18/2021 10:45:00 PM 18.29 64.922 0.096 7.29 4.58 8.78
9/18/2021 11:00:00 PM 18.26 64.868 0.096 7.29 4.51 8.79
9/18/2021 11:15:00 PM 18.22 64.796 0.096 7.29 4.29 8.79
9/18/2021 11:30:00 PM 18.18 64.724 0.096 7.29 4.45 8.8
9/18/2021 11:45:00 PM 18.14 64.652 0.096 7.29 4.33 8.81
9/19/2021 12:00:00 AM 18.1 64.58 0.096 7.31 4.47 8.82
9/19/2021 12:15:00 AM 18.05 64.49 0.097 7.31 4.38 8.84
9/19/2021 12:30:00 AM 18.01 64.418 0.097 7.31 4.48 8.85
9/19/2021 12:45:00 AM 17.96 64.328 0.097 7.31 4.59 8.86
9/19/2021 1:00:00 AM 17.91 64.238 0.097 7.31 4.57 8.88
9/19/2021 1:15:00 AM 17.85 64.13 0.097 7.31 4.63 8.89
9/19/2021 1:30:00 AM 17.8 64.04 0.097 7.32 4.44 8.9
9/19/2021 1:45:00 AM 17.75 63.95 0.097 7.32 4.61 8.91
9/19/2021 2:00:00 AM 17.69 63.842 0.097 7.32 4.8 8.92
9/19/2021 2:15:00 AM 17.63 63.734 0.097 7.3 4.46 8.93
9/19/2021 2:30:00 AM 17.57 63.626 0.097 7.31 4.61 8.94
9/19/2021 2:45:00 AM 17.51 63.518 0.097 7.32 4.53 8.94
9/19/2021 3:00:00 AM 17.44 63.392 0.097 7.32 4.54 8.96
9/19/2021 3:15:00 AM 17.38 63.284 0.097 7.32 4.32 8.98
9/19/2021 3:30:00 AM 17.32 63.176 0.097 7.25 4.53 8.99
9/19/2021 3:45:00 AM 17.25 63.05 0.097 7.32 4.54 9.01
9/19/2021 4:00:00 AM 17.18 62.924 0.097 7.31 4.16 9.02
9/19/2021 4:15:00 AM 17.11 62.798 0.097 7.31 5.51 9.04
9/19/2021 4:30:00 AM 17.05 62.69 0.097 7.32 4.49 9.05
9/19/2021 4:45:00 AM 16.98 62.564 0.097 7.25 4.31 9.06
9/19/2021 5:00:00 AM 16.92 62.456 0.097 7.27 4.31 9.07
9/19/2021 5:15:00 AM 16.85 62.33 0.097 7.3 4.31 9.08
9/19/2021 5:30:00 AM 16.79 62.222 0.097 7.31 4.34 9.1
9/19/2021 5:45:00 AM 16.72 62.096 0.097 7.28 4.28 9.12
9/19/2021 6:00:00 AM 16.66 61.988 0.097 7.3 4.31 9.14
9/19/2021 6:15:00 AM 16.6 61.88 0.098 7.31 4.16 9.15
9/19/2021 6:30:00 AM 16.54 61.772 0.098 7.3 4.27 9.17
9/19/2021 6:45:00 AM 16.48 61.664 0.098 7.31 4.25 9.19
9/19/2021 7:00:00 AM 16.42 61.556 0.098 7.31 4.39 9.2
9/19/2021 7:15:00 AM 16.35 61.43 0.098 7.31 4.05 9.23
9/19/2021 7:30:00 AM 16.28 61.304 0.098 7.31 4.11 9.26
9/19/2021 7:45:00 AM 16.22 61.196 0.098 7.26 3.95 9.3
9/19/2021 8:00:00 AM 16.16 61.088 0.098 7.32 3.95 9.36
9/19/2021 8:15:00 AM 16.11 60.998 0.098 7.34 3.9 9.42
9/19/2021 8:30:00 AM 16.07 60.926 0.097 7.34 3.77 9.47
9/19/2021 8:45:00 AM 16.05 60.89 0.098 7.36 3.91 9.57
9/19/2021 9:00:00 AM 16.02 60.836 0.098 7.32 3.91 9.59
9/19/2021 9:15:00 AM 16.02 60.836 0.097 7.4 4.54 9.69
9/19/2021 9:30:00 AM 16.02 60.836 0.097 7.42 3.52 9.75
9/19/2021 9:45:00 AM 16.04 60.872 0.097 7.42 3.49 9.76
9/19/2021 10:00:00 AM 16.08 60.944 0.097 7.43 3.61 9.8
9/19/2021 10:15:00 AM 16.13 61.034 0.097 7.46 3.48 9.86
9/19/2021 10:30:00 AM 16.19 61.142 0.097 7.48 3.34 9.91
9/19/2021 10:45:00 AM 16.24 61.232 0.097 7.45 3.36 9.93
9/19/2021 11:00:00 AM 16.32 61.376 0.097 7.51 3.15 9.96
9/19/2021 11:15:00 AM 16.38 61.484 0.097 7.46 3.88 9.95
9/19/2021 11:30:00 AM 16.45 61.61 0.097 7.5 3.29 9.94
9/19/2021 11:45:00 AM 16.54 61.772 0.097 7.5 3.04 9.95
9/19/2021 12:00:00 PM 16.64 61.952 0.097 7.55 3.3 9.97
9/19/2021 12:15:00 PM 16.76 62.168 0.097 7.57 2.98 9.98
9/19/2021 12:30:00 PM 16.91 62.438 0.097 7.59 3.22 10
9/19/2021 12:45:00 PM 17.05 62.69 0.097 7.62 3.1 10.04
9/19/2021 1:00:00 PM 17.2 62.96 0.097 7.63 3.06 10.04
9/19/2021 1:15:00 PM 17.33 63.194 0.097 7.62 2.98 10.03
9/19/2021 1:30:00 PM 17.47 63.446 0.097 7.66 3.29 10.01
9/19/2021 1:45:00 PM 17.6 63.68 0.097 7.68 3.09 9.99
9/19/2021 2:00:00 PM 17.69 63.842 0.097 7.69 3.07 9.99
9/19/2021 2:15:00 PM 17.79 64.022 0.097 7.7 2.98 9.96
9/19/2021 2:30:00 PM 17.86 64.148 0.097 7.7 2.91 9.94
9/19/2021 2:45:00 PM 17.92 64.256 0.097 7.7 2.99 9.9
9/19/2021 3:00:00 PM 17.98 64.364 0.097 7.7 2.98 9.87
9/19/2021 3:15:00 PM 18.03 64.454 0.097 7.7 3.27 9.84
9/19/2021 3:30:00 PM 18.09 64.562 0.097 7.69 2.91 9.8
9/19/2021 3:45:00 PM 18.11 64.598 0.097 7.67 3.34 9.75
9/19/2021 4:00:00 PM 18.15 64.67 0.097 7.66 3.04 9.69
9/19/2021 4:15:00 PM 18.17 64.706 0.097 7.61 3.01 9.64
9/19/2021 4:30:00 PM 18.18 64.724 0.097 7.64 2.96 9.58
9/19/2021 4:45:00 PM 18.18 64.724 0.097 7.62 3.09 9.51
9/19/2021 5:00:00 PM 18.18 64.724 0.097 7.59 3.19 9.43
9/19/2021 5:15:00 PM 18.15 64.67 0.097 7.52 3.2 9.37
9/19/2021 5:30:00 PM 18.14 64.652 0.097 7.54 3.28 9.31
9/19/2021 5:45:00 PM 18.12 64.616 0.097 7.51 3.35 9.26
9/19/2021 6:00:00 PM 18.1 64.58 0.097 7.46 3.22 9.21
9/19/2021 6:15:00 PM 18.07 64.526 0.097 7.49 3.35 9.17
9/19/2021 6:30:00 PM 18.03 64.454 0.097 7.47 3.19 9.14
9/19/2021 6:45:00 PM 17.98 64.364 0.097 7.43 3.45 9.11
9/19/2021 7:00:00 PM 17.93 64.274 0.098 7.44 3.22 9.08
9/19/2021 7:15:00 PM 17.87 64.166 0.098 7.42 3.23 9.04
9/19/2021 7:30:00 PM 17.81 64.058 0.098 7.42 3.39 9.03
9/19/2021 7:45:00 PM 17.74 63.932 0.098 7.41 3.3 9.02
9/19/2021 8:00:00 PM 17.67 63.806 0.098 7.39 3.47 9
9/19/2021 8:15:00 PM 17.6 63.68 0.098 7.39 3.38 8.99
9/19/2021 8:30:00 PM 17.53 63.554 0.098 7.36 3.38 8.98
9/19/2021 8:45:00 PM 17.45 63.41 0.098 7.37 3.5 8.99
9/19/2021 9:00:00 PM 17.38 63.284 0.098 7.36 3.49 8.99
9/19/2021 9:15:00 PM 17.3 63.14 0.098 7.37 3.58 9
9/19/2021 9:30:00 PM 17.22 62.996 0.098 7.36 4.24 9.02
9/19/2021 9:45:00 PM 17.13 62.834 0.098 7.35 3.62 9.03
9/19/2021 10:00:00 PM 17.05 62.69 0.098 7.35 3.51 9.04
9/19/2021 10:15:00 PM 16.97 62.546 0.099 7.34 3.6 9.05
9/19/2021 10:30:00 PM 16.89 62.402 0.099 7.34 3.6 9.06
9/19/2021 10:45:00 PM 16.81 62.258 0.099 7.34 3.62 9.08
9/19/2021 11:00:00 PM 16.73 62.114 0.099 7.34 3.44 9.1
9/19/2021 11:15:00 PM 16.65 61.97 0.099 7.33 3.95 9.12
9/19/2021 11:30:00 PM 16.58 61.844 0.099 7.33 3.74 9.13
9/19/2021 11:45:00 PM 16.5 61.7 0.099 7.34 3.81 9.15
9/20/2021 12:00:00 AM 16.43 61.574 0.099 7.34 3.63 9.17
9/20/2021 12:15:00 AM 16.36 61.448 0.099 7.33 3.62 9.19
9/20/2021 12:30:00 AM 16.28 61.304 0.099 7.33 3.62 9.2
9/20/2021 12:45:00 AM 16.21 61.178 0.099 7.33 3.53 9.21
9/20/2021 1:00:00 AM 16.14 61.052 0.099 7.33 3.51 9.23
9/20/2021 1:15:00 AM 16.06 60.908 0.099 7.33 3.5 9.25
9/20/2021 1:30:00 AM 15.99 60.782 0.099 7.33 3.74 9.26
9/20/2021 1:45:00 AM 15.92 60.656 0.099 7.33 3.49 9.29
9/20/2021 2:00:00 AM 15.84 60.512 0.099 7.33 3.71 9.31
9/20/2021 2:15:00 AM 15.76 60.368 0.099 7.33 3.43 9.32
9/20/2021 2:30:00 AM 15.69 60.242 0.099 7.33 3.65 9.34
9/20/2021 2:45:00 AM 15.62 60.116 0.099 7.33 4.95 9.35
9/20/2021 3:00:00 AM 15.54 59.972 0.099 7.33 3.64 9.37
9/20/2021 3:15:00 AM 15.47 59.846 0.099 7.33 3.71 9.38
9/20/2021 3:30:00 AM 15.4 59.72 0.099 7.26 3.44 9.4
9/20/2021 3:45:00 AM 15.33 59.594 0.1 7.32 3.42 9.42
9/20/2021 4:00:00 AM 15.26 59.468 0.1 7.32 3.61 9.45
9/20/2021 4:15:00 AM 15.19 59.342 0.1 7.3 4.12 9.45
9/20/2021 4:30:00 AM 15.12 59.216 0.1 7.32 3.82 9.49
9/20/2021 4:45:00 AM 15.05 59.09 0.1 7.32 3.86 9.5
9/20/2021 5:00:00 AM 14.98 58.964 0.1 7.32 3.59 9.51
9/20/2021 5:15:00 AM 14.91 58.838 0.1 7.32 3.56 9.53
9/20/2021 5:30:00 AM 14.84 58.712 0.1 7.32 3.56 9.54
9/20/2021 5:45:00 AM 14.78 58.604 0.1 7.32 3.41 9.55
9/20/2021 6:00:00 AM 14.71 58.478 0.1 7.31 3.63 9.57
9/20/2021 6:15:00 AM 14.65 58.37 0.1 7.32 3.6 9.59
9/20/2021 6:30:00 AM 14.59 58.262 0.1 7.32 3.68 9.61
9/20/2021 6:45:00 AM 14.53 58.154 0.1 7.32 3.46 9.63
9/20/2021 7:00:00 AM 14.47 58.046 0.1 7.32 3.67 9.65
9/20/2021 7:15:00 AM 14.41 57.938 0.1 7.32 3.47 9.68
9/20/2021 7:30:00 AM 14.37 57.866 0.1 7.32 3.37 9.72
9/20/2021 7:45:00 AM 14.32 57.776 0.1 7.33 3.3 9.75
9/20/2021 8:00:00 AM 14.28 57.704 0.1 7.34 3.39 9.79
9/20/2021 8:15:00 AM 14.25 57.65 0.1 7.35 3.25 9.83
9/20/2021 8:30:00 AM 14.24 57.632 0.1 7.36 3.18 9.88
9/20/2021 8:45:00 AM 14.23 57.614 0.1 7.33 3.23 9.96
9/20/2021 9:00:00 AM 14.25 57.65 0.1 7.4 3.16 10.04
9/20/2021 9:15:00 AM 14.26 57.668 0.1 7.4 3.24 10.1
9/20/2021 9:30:00 AM 14.29 57.722 0.1 7.41 2.99 10.15
9/20/2021 9:45:00 AM 14.32 57.776 0.1 7.44 3.11 10.18
9/20/2021 10:00:00 AM 14.38 57.884 0.1 7.41 2.94 10.23
9/20/2021 10:15:00 AM 14.45 58.01 0.1 7.48 3 10.28
9/20/2021 10:30:00 AM 14.51 58.118 0.1 7.49 2.96 10.32
9/20/2021 10:45:00 AM 14.58 58.244 0.1 7.46 2.9 10.34
9/20/2021 11:00:00 AM 14.67 58.406 0.1 7.52 2.82 10.35
9/20/2021 11:15:00 AM 14.76 58.568 0.1 7.54 2.95 10.36
9/20/2021 11:30:00 AM 14.87 58.766 0.099 7.55 3.04 10.38
9/20/2021 11:45:00 AM 15.01 59.018 0.099 7.57 2.88 10.42
9/20/2021 12:00:00 PM 15.16 59.288 0.099 7.58 2.89 10.46
9/20/2021 12:15:00 PM 15.32 59.576 0.099 7.62 2.87 10.47
9/20/2021 12:30:00 PM 15.49 59.882 0.099 7.65 2.83 10.49
9/20/2021 12:45:00 PM 15.67 60.206 0.099 7.67 2.78 10.52
9/20/2021 1:00:00 PM 15.85 60.53 0.099 7.7 2.86 10.53
9/20/2021 1:15:00 PM 16.03 60.854 0.099 7.73 2.79 10.52
9/20/2021 1:30:00 PM 16.2 61.16 0.099 7.74 2.82 10.51
9/20/2021 1:45:00 PM 16.34 61.412 0.099 7.77 2.75 10.49
9/20/2021 2:00:00 PM 16.5 61.7 0.099 7.79 2.71 10.47
9/20/2021 2:15:00 PM 16.62 61.916 0.099 7.8 3.11 10.45
9/20/2021 2:30:00 PM 16.75 62.15 0.099 7.82 2.77 10.41
9/20/2021 2:45:00 PM 16.84 62.312 0.099 7.82 2.78 10.36
9/20/2021 3:00:00 PM 16.92 62.456 0.099 7.82 2.77 10.33
9/20/2021 3:15:00 PM 17.01 62.618 0.099 7.82 2.78 10.29
9/20/2021 3:30:00 PM 17.1 62.78 0.098 7.81 2.74 10.24
9/20/2021 3:45:00 PM 17.11 62.798 0.098 7.8 2.8 10.16
9/20/2021 4:00:00 PM 17.15 62.87 0.098 7.79 2.81 10.12
9/20/2021 4:15:00 PM 17.22 62.996 0.098 7.73 2.86 10.07
9/20/2021 4:30:00 PM 17.26 63.068 0.098 7.77 2.91 10.01
9/20/2021 4:45:00 PM 17.3 63.14 0.098 7.74 2.89 9.94
9/20/2021 5:00:00 PM 17.31 63.158 0.098 7.71 2.87 9.85
9/20/2021 5:15:00 PM 17.32 63.176 0.098 7.68 3.06 9.76
9/20/2021 5:30:00 PM 17.34 63.212 0.099 7.65 2.91 9.67
9/20/2021 5:45:00 PM 17.37 63.266 0.099 7.59 3.02 9.6
9/20/2021 6:00:00 PM 17.39 63.302 0.099 7.6 3.05 9.52
9/20/2021 6:15:00 PM 17.4 63.32 0.099 7.57 3.02 9.46
9/20/2021 6:30:00 PM 17.41 63.338 0.099 7.48 2.97 9.41
9/20/2021 6:45:00 PM 17.4 63.32 0.099 7.53 2.96 9.34
9/20/2021 7:00:00 PM 17.39 63.302 0.099 7.51 3.22 9.28
9/20/2021 7:15:00 PM 17.37 63.266 0.099 7.49 3.12 9.24
9/20/2021 7:30:00 PM 17.35 63.23 0.099 7.47 3.01 9.19
9/20/2021 7:45:00 PM 17.32 63.176 0.099 7.44 3.18 9.15
9/20/2021 8:00:00 PM 17.29 63.122 0.099 7.43 3.26 9.14
9/20/2021 8:15:00 PM 17.25 63.05 0.099 7.42 3.23 9.11
9/20/2021 8:30:00 PM 17.2 62.96 0.1 7.41 3.1 9.1
9/20/2021 8:45:00 PM 17.16 62.888 0.1 7.4 3.15 9.09
9/20/2021 9:00:00 PM 17.11 62.798 0.1 7.39 3.16 9.08
9/20/2021 9:15:00 PM 17.06 62.708 0.1 7.38 3.11 9.07
9/20/2021 9:30:00 PM 17.01 62.618 0.1 7.37 3.31 9.06
9/20/2021 9:45:00 PM 16.95 62.51 0.1 7.36 3.16 9.07
9/20/2021 10:00:00 PM 16.89 62.402 0.1 7.36 3.24 9.08
9/20/2021 10:15:00 PM 16.84 62.312 0.1 7.35 3.21 9.08
9/20/2021 10:30:00 PM 16.78 62.204 0.1 7.35 3.66 9.08
9/20/2021 10:45:00 PM 16.72 62.096 0.1 7.35 3.22 9.1
9/20/2021 11:00:00 PM 16.67 62.006 0.1 7.35 3.26 9.11
9/20/2021 11:15:00 PM 16.61 61.898 0.1 7.35 3.24 9.12
9/20/2021 11:30:00 PM 16.56 61.808 0.1 7.35 3.63 9.14
9/20/2021 11:45:00 PM 16.52 61.736 0.101 7.34 3.24 9.14
9/21/2021 12:00:00 AM 16.48 61.664 0.101 7.35 3.32 9.14
9/21/2021 12:15:00 AM 16.43 61.574 0.101 7.35 3.27 9.16
9/21/2021 12:30:00 AM 16.39 61.502 0.101 7.35 3.37 9.17
9/21/2021 12:45:00 AM 16.34 61.412 0.101 7.35 3.21 9.19
9/21/2021 1:00:00 AM 16.3 61.34 0.101 7.33 3.25 9.19
9/21/2021 1:15:00 AM 16.25 61.25 0.101 7.35 3.22 9.19
9/21/2021 1:30:00 AM 16.2 61.16 0.101 7.34 3.34 9.2
9/21/2021 1:45:00 AM 16.16 61.088 0.101 7.33 3.23 9.22
9/21/2021 2:00:00 AM 16.11 60.998 0.101 7.33 3.31 9.23
9/21/2021 2:15:00 AM 16.07 60.926 0.101 7.34 3.33 9.24
9/21/2021 2:30:00 AM 16.02 60.836 0.101 7.34 3.36 9.25
9/21/2021 2:45:00 AM 15.98 60.764 0.101 7.34 3.28 9.25
9/21/2021 3:00:00 AM 15.94 60.692 0.101 7.34 3.21 9.26
9/21/2021 3:15:00 AM 15.9 60.62 0.101 7.34 3.14 9.28
9/21/2021 3:30:00 AM 15.85 60.53 0.101 7.34 3.25 9.3
9/21/2021 3:45:00 AM 15.81 60.458 0.101 7.33 3.51 9.3
9/21/2021 4:00:00 AM 15.77 60.386 0.101 7.34 3.47 9.31
9/21/2021 4:15:00 AM 15.74 60.332 0.101 7.34 3.37 9.32
9/21/2021 4:30:00 AM 15.71 60.278 0.101 7.34 3.4 9.32
9/21/2021 4:45:00 AM 15.67 60.206 0.101 7.34 3.17 9.34
9/21/2021 5:00:00 AM 15.64 60.152 0.102 7.34 3.4 9.35
9/21/2021 5:15:00 AM 15.61 60.098 0.101 7.34 3.5 9.37
9/21/2021 5:30:00 AM 15.58 60.044 0.102 7.34 3.44 9.35
9/21/2021 5:45:00 AM 15.55 59.99 0.102 7.34 3.37 9.38
9/21/2021 6:00:00 AM 15.52 59.936 0.102 7.34 3.33 9.36
9/21/2021 6:15:00 AM 15.48 59.864 0.102 7.34 3.47 9.38
9/21/2021 6:30:00 AM 15.44 59.792 0.102 7.34 3.55 9.39
9/21/2021 6:45:00 AM 15.4 59.72 0.102 7.34 3.29 9.39
9/21/2021 7:00:00 AM 15.37 59.666 0.102 7.34 3.2 9.41
9/21/2021 7:15:00 AM 15.33 59.594 0.102 7.34 3.15 9.44
9/21/2021 7:30:00 AM 15.31 59.558 0.102 7.35 3.23 9.47
9/21/2021 7:45:00 AM 15.28 59.504 0.102 7.36 3.33 9.54
9/21/2021 8:00:00 AM 15.27 59.486 0.102 7.36 3.11 9.59
9/21/2021 8:15:00 AM 15.26 59.468 0.102 7.36 2.97 9.65
9/21/2021 8:30:00 AM 15.26 59.468 0.102 7.39 3.13 9.67
9/21/2021 8:45:00 AM 15.26 59.468 0.102 7.4 2.98 9.74
9/21/2021 9:00:00 AM 15.29 59.522 0.102 7.42 3 9.85
9/21/2021 9:15:00 AM 15.32 59.576 0.102 7.45 2.87 9.92
9/21/2021 9:30:00 AM 15.38 59.684 0.102 7.47 2.89 10.06
9/21/2021 9:45:00 AM 15.42 59.756 0.101 7.52 2.86 10.11
9/21/2021 10:00:00 AM 15.45 59.81 0.101 7.56 2.94 10.21
9/21/2021 10:15:00 AM 15.51 59.918 0.101 7.59 3 10.3
9/21/2021 10:30:00 AM 15.61 60.098 0.101 7.64 2.95 10.4
9/21/2021 10:45:00 AM 15.66 60.188 0.101 7.68 2.88 10.46
9/21/2021 11:00:00 AM 15.7 60.26 0.101 7.7 2.9 10.46
9/21/2021 11:15:00 AM 15.69 60.242 0.101 7.67 2.88 10.36
9/21/2021 11:30:00 AM 15.76 60.368 0.101 7.71 2.77 10.42
9/21/2021 11:45:00 AM 15.87 60.566 0.101 7.73 2.92 10.52
9/21/2021 12:00:00 PM 15.99 60.782 0.101 7.81 2.87 10.55
9/21/2021 12:15:00 PM 16.08 60.944 0.101 7.84 2.87 10.57
9/21/2021 12:30:00 PM 16.06 60.908 0.101 7.78 2.89 10.41
9/21/2021 12:45:00 PM 16.11 60.998 0.101 7.78 2.85 10.36
9/21/2021 1:00:00 PM 16.16 61.088 0.101 7.78 2.84 10.34
9/21/2021 1:15:00 PM 16.19 61.142 0.101 7.76 2.8 10.24
9/21/2021 1:30:00 PM 16.26 61.268 0.1 7.79 2.84 10.32
9/21/2021 1:45:00 PM 16.41 61.538 0.1 7.87 2.86 10.46
9/21/2021 2:00:00 PM 16.49 61.682 0.1 7.9 2.77 10.44
9/21/2021 2:15:00 PM 16.53 61.754 0.1 7.92 2.84 10.47
9/21/2021 2:30:00 PM 16.56 61.808 0.1 7.92 2.76 10.44
9/21/2021 2:45:00 PM 16.59 61.862 0.1 7.93 2.86 10.42
9/21/2021 3:00:00 PM 16.64 61.952 0.1 7.94 2.75 10.41
9/21/2021 3:15:00 PM 16.67 62.006 0.1 7.89 2.78 10.29
9/21/2021 3:30:00 PM 16.72 62.096 0.1 7.91 2.8 10.3
9/21/2021 3:45:00 PM 16.8 62.24 0.1 7.95 3.01 10.35
9/21/2021 4:00:00 PM 16.85 62.33 0.1 7.96 4.65 10.34
9/21/2021 4:15:00 PM 16.9 62.42 0.1 7.96 2.92 10.33
9/21/2021 4:30:00 PM 16.91 62.438 0.1 7.91 2.84 10.23
9/21/2021 4:45:00 PM 16.95 62.51 0.1 7.9 2.84 10.21
9/21/2021 5:00:00 PM 16.99 62.582 0.1 7.91 2.94 10.21
9/21/2021 5:15:00 PM 17.01 62.618 0.1 7.87 2.97 10.12
9/21/2021 5:30:00 PM 17.03 62.654 0.1 7.81 2.93 9.97
9/21/2021 5:45:00 PM 17.04 62.672 0.1 7.77 3 9.9
9/21/2021 6:00:00 PM 17.05 62.69 0.1 7.72 2.88 9.8
9/21/2021 6:15:00 PM 17.06 62.708 0.1 7.66 3.01 9.72
9/21/2021 6:30:00 PM 17.07 62.726 0.1 7.65 2.92 9.61
9/21/2021 6:45:00 PM 17.07 62.726 0.1 7.6 2.9 9.53
9/21/2021 7:00:00 PM 17.07 62.726 0.101 7.56 2.94 9.44
9/21/2021 7:15:00 PM 17.07 62.726 0.101 7.5 2.92 9.36
9/21/2021 7:30:00 PM 17.07 62.726 0.101 7.5 2.99 9.28
9/21/2021 7:45:00 PM 17.07 62.726 0.101 7.48 3.03 9.24
9/21/2021 8:00:00 PM 17.06 62.708 0.101 7.46 3.16 9.2
9/21/2021 8:15:00 PM 17.05 62.69 0.101 7.44 2.96 9.15
9/21/2021 8:30:00 PM 17.05 62.69 0.101 7.42 3.13 9.13
9/21/2021 8:45:00 PM 17.04 62.672 0.101 7.38 3.08 9.1
9/21/2021 9:00:00 PM 17.03 62.654 0.101 7.4 3.13 9.09
9/21/2021 9:15:00 PM 17.03 62.654 0.102 7.36 3.12 9.07
9/21/2021 9:30:00 PM 17.02 62.636 0.102 7.39 3.19 9.05
9/21/2021 9:45:00 PM 17.01 62.618 0.102 7.38 3.12 9.04
9/21/2021 10:00:00 PM 16.99 62.582 0.102 7.37 3.02 9.01
9/21/2021 10:15:00 PM 16.98 62.564 0.102 7.36 3.1 9.03
9/21/2021 10:30:00 PM 16.97 62.546 0.102 7.36 3.17 9.01
9/21/2021 10:45:00 PM 16.96 62.528 0.102 7.36 3.19 9.01
9/21/2021 11:00:00 PM 16.95 62.51 0.102 7.35 3.15 8.99
9/21/2021 11:15:00 PM 16.94 62.492 0.102 7.36 3.14 9.01
9/21/2021 11:30:00 PM 16.93 62.474 0.102 7.3 3.04 9
9/21/2021 11:45:00 PM 16.92 62.456 0.102 7.35 3.19 9
9/22/2021 12:00:00 AM 16.92 62.456 0.102 7.35 3.11 8.99
9/22/2021 12:15:00 AM 16.91 62.438 0.103 7.34 3.23 8.99
9/22/2021 12:30:00 AM 16.9 62.42 0.103 7.35 3.13 8.99
9/22/2021 12:45:00 AM 16.88 62.384 0.103 7.33 3.05 9.01
9/22/2021 1:00:00 AM 16.87 62.366 0.103 7.3 3.11 9
9/22/2021 1:15:00 AM 16.86 62.348 0.103 7.34 2.98 9
9/22/2021 1:30:00 AM 16.85 62.33 0.103 7.34 3.21 9.01
9/22/2021 1:45:00 AM 16.84 62.312 0.103 7.34 3.36 9
9/22/2021 2:00:00 AM 16.83 62.294 0.103 7.34 3.13 9
9/22/2021 2:15:00 AM 16.82 62.276 0.103 7.34 3.18 9.01
9/22/2021 2:30:00 AM 16.8 62.24 0.103 7.34 3.41 9.02
9/22/2021 2:45:00 AM 16.8 62.24 0.103 7.31 3.31 9.01
9/22/2021 3:00:00 AM 16.79 62.222 0.103 7.35 3.16 9.02
9/22/2021 3:15:00 AM 16.78 62.204 0.103 7.34 3.16 9.01
9/22/2021 3:30:00 AM 16.77 62.186 0.103 7.34 3.24 9.02
9/22/2021 3:45:00 AM 16.76 62.168 0.103 7.34 3.33 9.02
9/22/2021 4:00:00 AM 16.75 62.15 0.103 7.34 3.25 9.02
9/22/2021 4:15:00 AM 16.74 62.132 0.103 7.34 3.24 9.02
9/22/2021 4:30:00 AM 16.73 62.114 0.103 7.34 3.1 9
9/22/2021 4:45:00 AM 16.72 62.096 0.103 7.34 3.3 9.02
9/22/2021 5:00:00 AM 16.71 62.078 0.103 7.34 3.14 9.01
9/22/2021 5:15:00 AM 16.7 62.06 0.103 7.34 3.19 9.03
9/22/2021 5:30:00 AM 16.68 62.024 0.104 7.34 3.15 9.01
9/22/2021 5:45:00 AM 16.67 62.006 0.104 7.34 3.54 9.04
9/22/2021 6:00:00 AM 16.66 61.988 0.104 7.34 3.35 9.03
9/22/2021 6:15:00 AM 16.65 61.97 0.104 7.34 3.14 9.03
9/22/2021 6:30:00 AM 16.63 61.934 0.104 7.32 3.15 9.03
9/22/2021 6:45:00 AM 16.62 61.916 0.104 7.33 3.23 9.04
9/22/2021 7:00:00 AM 16.61 61.898 0.104 7.33 3.2 9.05
9/22/2021 7:15:00 AM 16.6 61.88 0.104 7.33 3.05 9.04
9/22/2021 7:30:00 AM 16.6 61.88 0.104 7.33 3.07 9.07
9/22/2021 7:45:00 AM 16.6 61.88 0.104 7.34 3.06 9.11
9/22/2021 8:00:00 AM 16.61 61.898 0.104 7.36 3.17 9.2
9/22/2021 8:15:00 AM 16.62 61.916 0.104 7.3 3.26 9.21
9/22/2021 8:30:00 AM 16.64 61.952 0.104 7.39 3.06 9.31
9/22/2021 8:45:00 AM 16.64 61.952 0.104 7.4 3.05 9.36
9/22/2021 9:00:00 AM 16.66 61.988 0.103 7.42 2.94 9.45
9/22/2021 9:15:00 AM 16.69 62.042 0.103 7.4 3 9.51
9/22/2021 9:30:00 AM 16.72 62.096 0.103 7.48 3.01 9.6
9/22/2021 9:45:00 AM 16.74 62.132 0.103 7.5 3.03 9.65
9/22/2021 10:00:00 AM 16.76 62.168 0.103 7.5 2.94 9.6
9/22/2021 10:15:00 AM 16.79 62.222 0.103 7.52 3.01 9.65
9/22/2021 10:30:00 AM 16.87 62.366 0.103 7.57 2.97 9.84
9/22/2021 10:45:00 AM 16.95 62.51 0.103 7.63 2.88 10
9/22/2021 11:00:00 AM 17.02 62.636 0.103 7.67 3.03 10.07
9/22/2021 11:15:00 AM 17.07 62.726 0.103 7.71 2.86 10.13
9/22/2021 11:30:00 AM 17.12 62.816 0.103 7.74 2.82 10.15
9/22/2021 11:45:00 AM 17.15 62.87 0.103 7.73 2.85 10.07
9/22/2021 12:00:00 PM 17.17 62.906 0.103 7.64 2.87 9.92
9/22/2021 12:15:00 PM 17.23 63.014 0.103 7.74 2.79 10.03
9/22/2021 12:30:00 PM 17.37 63.266 0.103 7.79 2.8 10.12
9/22/2021 12:45:00 PM 17.51 63.518 0.102 7.87 2.88 10.23
9/22/2021 1:00:00 PM 17.56 63.608 0.102 7.9 2.83 10.2
9/22/2021 1:15:00 PM 17.63 63.734 0.102 7.95 2.79 10.27
9/22/2021 1:30:00 PM 17.71 63.878 0.102 7.97 2.87 10.26
9/22/2021 1:45:00 PM 17.74 63.932 0.102 8 2.85 10.27
9/22/2021 2:00:00 PM 17.8 64.04 0.102 8.03 2.82 10.27
9/22/2021 2:15:00 PM 17.85 64.13 0.102 8.01 2.67 10.18
9/22/2021 2:30:00 PM 17.91 64.238 0.102 8.01 2.74 10.17
9/22/2021 2:45:00 PM 17.92 64.256 0.102 7.95 2.78 10.02
9/22/2021 3:00:00 PM 17.97 64.346 0.102 7.91 3.14 9.91
9/22/2021 3:15:00 PM 18.01 64.418 0.1 7.81 4 9.66
9/22/2021 3:30:00 PM 18.1 64.58 0.1 7.81 3.81 9.73
9/22/2021 3:45:00 PM 18.12 64.616 0.1 7.82 3.93 9.76
9/22/2021 4:00:00 PM 18.12 64.616 0.1 7.8 3.86 9.66
9/22/2021 4:15:00 PM 18.14 64.652 0.1 7.78 4.09 9.63
9/22/2021 4:30:00 PM 18.16 64.688 0.1 7.75 4.51 9.56
9/22/2021 4:45:00 PM 18.17 64.706 0.101 7.7 4.43 9.44
9/22/2021 5:00:00 PM 18.18 64.724 0.101 7.69 4.56 9.4
9/22/2021 5:15:00 PM 18.18 64.724 0.102 7.65 4.24 9.3
9/22/2021 5:30:00 PM 18.18 64.724 0.102 7.61 4.51 9.17
9/22/2021 5:45:00 PM 18.18 64.724 0.103 7.58 4.25 9.12
9/22/2021 6:00:00 PM 18.19 64.742 0.104 7.56 4.65 9.07
9/22/2021 6:15:00 PM 18.19 64.742 0.104 7.54 4.83 9
9/22/2021 6:30:00 PM 18.17 64.706 0.104 7.52 4.29 8.96
9/22/2021 6:45:00 PM 18.16 64.688 0.104 7.49 4.36 8.91
9/22/2021 7:00:00 PM 18.14 64.652 0.104 7.47 4.6 8.85
9/22/2021 7:15:00 PM 18.13 64.634 0.104 7.47 4.47 8.84
9/22/2021 7:30:00 PM 18.12 64.616 0.104 7.46 4.73 8.8
9/22/2021 7:45:00 PM 18.12 64.616 0.105 7.45 5.53 8.77
9/22/2021 8:00:00 PM 18.11 64.598 0.105 7.44 5.38 8.76
9/22/2021 8:15:00 PM 18.1 64.58 0.105 7.43 6.11 8.74
9/22/2021 8:30:00 PM 18.09 64.562 0.105 7.43 6.27 8.72
9/22/2021 8:45:00 PM 18.08 64.544 0.105 7.42 7.71 8.72
9/22/2021 9:00:00 PM 18.07 64.526 0.105 7.42 7.48 8.72
9/22/2021 9:15:00 PM 18.07 64.526 0.105 7.42 7.41 8.72
9/22/2021 9:30:00 PM 18.07 64.526 0.105 7.41 7.4 8.7
9/22/2021 9:45:00 PM 18.07 64.526 0.104 7.41 6.78 8.7
9/22/2021 10:00:00 PM 18.06 64.508 0.104 7.41 6.82 8.68
9/22/2021 10:15:00 PM 18.05 64.49 0.104 7.41 6.93 8.68
9/22/2021 10:30:00 PM 18.04 64.472 0.104 7.41 6.86 8.69
9/22/2021 10:45:00 PM 18.03 64.454 0.104 7.4 6.96 8.7
9/22/2021 11:00:00 PM 18.02 64.436 0.103 7.4 6.76 8.69
9/22/2021 11:15:00 PM 18.01 64.418 0.103 7.4 10.54 8.7
9/22/2021 11:30:00 PM 18 64.4 0.102 7.39 6.6 8.69
9/22/2021 11:45:00 PM 17.99 64.382 0.102 7.39 6.84 8.69
9/23/2021 12:00:00 AM 17.98 64.364 0.102 7.39 6.15 8.69
9/23/2021 12:15:00 AM 17.98 64.364 0.102 7.39 6.51 8.7
9/23/2021 12:30:00 AM 17.97 64.346 0.102 7.39 6.62 8.71
9/23/2021 12:45:00 AM 17.97 64.346 0.102 7.38 6.19 8.7
9/23/2021 1:00:00 AM 17.96 64.328 0.103 7.33 6.69 8.71
9/23/2021 1:15:00 AM 17.96 64.328 0.103 7.38 6.58 8.71
9/23/2021 1:30:00 AM 17.96 64.328 0.104 7.4 6.7 8.7
9/23/2021 1:45:00 AM 17.97 64.346 0.104 7.4 7.11 8.71
9/23/2021 2:00:00 AM 17.97 64.346 0.105 7.39 7.42 8.71
9/23/2021 2:15:00 AM 17.97 64.346 0.105 7.4 7.66 8.7
9/23/2021 2:30:00 AM 17.98 64.364 0.105 7.4 7.09 8.71
9/23/2021 2:45:00 AM 17.97 64.346 0.105 7.4 7.31 8.7
9/23/2021 3:00:00 AM 17.97 64.346 0.105 7.36 7.91 8.7
9/23/2021 3:15:00 AM 17.98 64.364 0.105 7.39 8.04 8.7
9/23/2021 3:30:00 AM 17.98 64.364 0.105 7.38 7.28 8.7
9/23/2021 3:45:00 AM 17.99 64.382 0.105 7.4 7.3 8.69
9/23/2021 4:00:00 AM 17.99 64.382 0.105 7.4 7.43 8.7
9/23/2021 4:15:00 AM 17.98 64.364 0.105 7.4 7.29 8.7
9/23/2021 4:30:00 AM 17.98 64.364 0.105 7.4 7.1 8.69
9/23/2021 4:45:00 AM 17.98 64.364 0.105 7.39 7.03 8.69
9/23/2021 5:00:00 AM 17.98 64.364 0.105 7.4 6.53 8.69
9/23/2021 5:15:00 AM 17.98 64.364 0.105 7.4 6.69 8.7
9/23/2021 5:30:00 AM 17.98 64.364 0.105 7.4 6.36 8.7
9/23/2021 5:45:00 AM 17.98 64.364 0.105 7.39 6.35 8.7
9/23/2021 6:00:00 AM 17.98 64.364 0.105 7.4 6.4 8.7
9/23/2021 6:15:00 AM 17.99 64.382 0.105 7.4 6 8.7
9/23/2021 6:30:00 AM 18 64.4 0.105 7.39 6.15 8.69
9/23/2021 6:45:00 AM 18 64.4 0.105 7.39 6.22 8.7
9/23/2021 7:00:00 AM 18 64.4 0.104 7.38 5.85 8.7
9/23/2021 7:15:00 AM 17.98 64.364 0.104 7.4 5.94 8.71
9/23/2021 7:30:00 AM 17.94 64.292 0.104 7.4 5.98 8.73
9/23/2021 7:45:00 AM 17.91 64.238 0.103 7.4 5.96 8.73
9/23/2021 8:00:00 AM 17.85 64.13 0.102 7.4 6.59 8.74
9/23/2021 8:15:00 AM 17.77 63.986 0.101 7.4 7.36 8.77
9/23/2021 8:30:00 AM 17.71 63.878 0.101 7.39 8.5 8.79
9/23/2021 8:45:00 AM 17.64 63.752 0.102 7.39 17.15 8.8
9/23/2021 9:00:00 AM 17.6 63.68 0.105 7.41 29.62 8.82
9/23/2021 9:15:00 AM 17.56 63.608 0.108 7.42 45.48 8.82
9/23/2021 9:30:00 AM 17.52 63.536 0.106 7.43 113.81 8.82
9/23/2021 9:45:00 AM 17.45 63.41 0.098 7.42 250.62 8.9
9/23/2021 10:00:00 AM 17.4 63.32 0.092 7.4 403.68 8.94
9/23/2021 10:15:00 AM 17.32 63.176 0.084 7.36 523.86 8.98
9/23/2021 10:30:00 AM 17.26 63.068 0.084 7.33 593.6 8.98
9/23/2021 10:45:00 AM 17.21 62.978 0.077 7.29 541.11 8.97
9/23/2021 11:00:00 AM 17.16 62.888 0.066 7.26 427.89 8.94
9/23/2021 11:15:00 AM 17.11 62.798 0.067 7.21 325.91 8.92
9/23/2021 11:30:00 AM 17.05 62.69 0.07 7.16 274.23 8.91
9/23/2021 11:45:00 AM 16.97 62.546 0.058 7.09 268.06 8.91
9/23/2021 12:00:00 PM 16.93 62.474 0.057 7.08 276.43 8.94
9/23/2021 12:15:00 PM 16.91 62.438 0.055 7.01 305.89 8.96
9/23/2021 12:30:00 PM 16.92 62.456 0.052 7.04 327.85 8.99
9/23/2021 12:45:00 PM 16.94 62.492 0.049 7.04 377.56 9
9/23/2021 1:00:00 PM 16.95 62.51 0.047 6.96 363.97 9.01
9/23/2021 1:15:00 PM 16.96 62.528 0.048 6.86 340.31 9.02
9/23/2021 1:30:00 PM 16.94 62.492 0.048 6.9 299.01 9.04
9/23/2021 1:45:00 PM 16.93 62.474 0.046 6.94 326.51 9.03
9/23/2021 2:00:00 PM 16.92 62.456 0.062 6.85 337.03 9.04
9/23/2021 2:15:00 PM 16.91 62.438 0.064 6.88 383.11 9.03
9/23/2021 2:30:00 PM 16.91 62.438 0.064 6.8 355.88 9.02
9/23/2021 2:45:00 PM 16.92 62.456 0.062 6.79 331.37 9.06
9/23/2021 3:00:00 PM 16.92 62.456 0.062 6.66 286.89 9.05
9/23/2021 3:15:00 PM 16.93 62.474 0.06 6.74 244.26 9.08
9/23/2021 3:30:00 PM 16.93 62.474 0.062 6.7 220.07 9.09
9/23/2021 3:45:00 PM 16.94 62.492 0.063 6.63 179.79 9.09
9/23/2021 4:00:00 PM 16.97 62.546 0.064 6.64 182.55 9.09
9/23/2021 4:15:00 PM 17 62.6 0.065 6.7 157.23 9.1
9/23/2021 4:30:00 PM 17.03 62.654 0.066 6.71 144.8 9.1
9/23/2021 4:45:00 PM 17.06 62.708 0.067 6.8 132.26 9.09
9/23/2021 5:00:00 PM 17.08 62.744 0.068 6.79 122.28 9.09
9/23/2021 5:15:00 PM 17.09 62.762 0.07 6.88 108.1 9.08
9/23/2021 5:30:00 PM 17.09 62.762 0.07 6.77 101.79 9.08
9/23/2021 5:45:00 PM 17.08 62.744 0.071 6.78 94.77 9.09
9/23/2021 6:00:00 PM 17.06 62.708 0.072 6.81 90.06 9.1
9/23/2021 6:15:00 PM 17.03 62.654 0.071 6.79 83.92 9.09
9/23/2021 6:30:00 PM 16.99 62.582 0.073 6.84 79.5 9.1
9/23/2021 6:45:00 PM 16.95 62.51 0.072 6.79 80.1 9.12
9/23/2021 7:00:00 PM 16.91 62.438 0.074 6.84 75.4 9.12
9/23/2021 7:15:00 PM 16.86 62.348 0.075 6.94 68.26 9.13
9/23/2021 7:30:00 PM 16.81 62.258 0.074 6.83 64.49 9.15
9/23/2021 7:45:00 PM 16.75 62.15 0.075 6.87 60.64 9.16
9/23/2021 8:00:00 PM 16.69 62.042 0.074 6.83 56.38 9.18
9/23/2021 8:15:00 PM 16.62 61.916 0.072 6.86 55.87 9.2
9/23/2021 8:30:00 PM 16.56 61.808 0.073 6.9 65.34 9.22
9/23/2021 8:45:00 PM 16.49 61.682 0.062 6.95 50.9 9.24
9/23/2021 9:00:00 PM 16.42 61.556 0.066 6.92 48.51 9.26
9/23/2021 9:15:00 PM 16.34 61.412 0.074 6.99 47.47 9.28
9/23/2021 9:30:00 PM 16.26 61.268 0.076 7.01 44.34 9.29
9/23/2021 9:45:00 PM 16.18 61.124 0.077 7.01 44.91 9.3
9/23/2021 10:00:00 PM 16.1 60.98 0.077 7 41.93 9.32
9/23/2021 10:15:00 PM 16.01 60.818 0.078 7.02 41.65 9.35
9/23/2021 10:30:00 PM 15.93 60.674 0.078 7.03 39.96 9.37
9/23/2021 10:45:00 PM 15.85 60.53 0.077 6.97 36.82 9.39
9/23/2021 11:00:00 PM 15.77 60.386 0.078 6.96 37.08 9.41
9/23/2021 11:15:00 PM 15.68 60.224 0.077 6.95 31.81 9.42
9/23/2021 11:30:00 PM 15.6 60.08 0.077 7.01 35.08 9.45
9/23/2021 11:45:00 PM 15.51 59.918 0.079 6.97 34.29 9.45
9/24/2021 12:00:00 AM 15.42 59.756 0.079 6.97 33.64 9.47
9/24/2021 12:15:00 AM 15.32 59.576 0.079 7 32.87 9.5
9/24/2021 12:30:00 AM 15.23 59.414 0.079 6.95 31.46 9.52
9/24/2021 12:45:00 AM 15.14 59.252 0.079 6.95 30.73 9.55
9/24/2021 1:00:00 AM 15.05 59.09 0.079 6.96 30.5 9.57
9/24/2021 1:15:00 AM 14.96 58.928 0.079 6.96 38.45 9.59
9/24/2021 1:30:00 AM 14.88 58.784 0.079 6.96 28.72 9.61
9/24/2021 1:45:00 AM 14.81 58.658 0.079 6.95 26.14 9.61
9/24/2021 2:00:00 AM 14.74 58.532 0.08 6.96 26.45 9.63
9/24/2021 2:15:00 AM 14.67 58.406 0.08 6.96 27.31 9.65
9/24/2021 2:30:00 AM 14.6 58.28 0.08 6.96 25.86 9.67
9/24/2021 2:45:00 AM 14.54 58.172 0.08 7.01 25.57 9.68
9/24/2021 3:00:00 AM 14.48 58.064 0.08 6.97 25.36 9.7
9/24/2021 3:15:00 AM 14.42 57.956 0.08 7.01 24.49 9.71
9/24/2021 3:30:00 AM 14.37 57.866 0.08 6.98 23.09 9.73
9/24/2021 3:45:00 AM 14.31 57.758 0.08 6.96 22.76 9.74
9/24/2021 4:00:00 AM 14.26 57.668 0.08 6.98 22.02 9.75
9/24/2021 4:15:00 AM 14.21 57.578 0.08 7.04 22.54 9.76
9/24/2021 4:30:00 AM 14.16 57.488 0.08 7.04 21.06 9.77
9/24/2021 4:45:00 AM 14.11 57.398 0.077 6.95 22.23 9.77
9/24/2021 5:00:00 AM 14.06 57.308 0.08 7.02 22.57 9.78
9/24/2021 5:15:00 AM 14.02 57.236 0.079 7.03 20.48 9.8
9/24/2021 5:30:00 AM 13.97 57.146 0.081 6.98 20.19 9.81
9/24/2021 5:45:00 AM 14.06 57.308 0.08 7.01 19.75 9.78
9/24/2021 6:00:00 AM 14.01 57.218 0.079 6.98 20.62 9.79
9/24/2021 6:15:00 AM 13.97 57.146 0.077 6.98 18.22 9.81
9/24/2021 6:30:00 AM 13.92 57.056 0.077 7.04 18.92 9.82
9/24/2021 6:45:00 AM 13.88 56.984 0.078 6.96 19 9.83
9/24/2021 7:00:00 AM 13.84 56.912 0.078 6.99 18.46 9.84
9/24/2021 7:15:00 AM 13.79 56.822 0.076 6.98 17.91 9.85
9/24/2021 7:30:00 AM 13.75 56.75 0.077 6.98 18.36 9.86
9/24/2021 7:45:00 AM 13.71 56.678 0.078 6.97 16.72 9.87
9/24/2021 8:00:00 AM 13.68 56.624 0.078 6.98 18.01 9.87
9/24/2021 8:15:00 AM 13.65 56.57 0.078 6.99 16 9.89
9/24/2021 8:30:00 AM 13.63 56.534 0.078 7 16.12 9.89
9/24/2021 8:45:00 AM 13.61 56.498 0.078 7.01 13.29 9.9
9/24/2021 9:00:00 AM 13.59 56.462 0.077 7.04 13.25 9.91
9/24/2021 9:15:00 AM 13.59 56.462 0.077 6.99 15.29 9.92
9/24/2021 9:30:00 AM 13.6 56.48 0.078 7.06 15.34 9.93
9/24/2021 9:45:00 AM 13.62 56.516 0.078 6.98 17.76 9.94
9/24/2021 10:00:00 AM 13.65 56.57 0.077 7.07 14.69 9.95
9/24/2021 10:15:00 AM 13.69 56.642 0.078 7.03 13.32 9.96
9/24/2021 10:30:00 AM 13.73 56.714 0.077 7.07 14.55 9.97
9/24/2021 10:45:00 AM 13.79 56.822 0.077 7.07 13.49 9.96
9/24/2021 11:00:00 AM 13.84 56.912 0.075 7 13.43 9.96
9/24/2021 11:15:00 AM 13.91 57.038 0.075 7.08 12.66 9.97
9/24/2021 11:30:00 AM 13.96 57.128 0.075 7.01 13.56 9.96
9/24/2021 11:45:00 AM 14.01 57.218 0.074 7.03 13.21 9.96
9/24/2021 12:00:00 PM 14.09 57.362 0.073 7.1 12.31 9.94
9/24/2021 12:15:00 PM 14.19 57.542 0.071 7.1 12.4 9.93
9/24/2021 12:30:00 PM 14.31 57.758 0.071 7.03 12.16 9.92
9/24/2021 12:45:00 PM 14.38 57.884 0.071 7.04 12.76 9.92
9/24/2021 1:00:00 PM 14.49 58.082 0.071 7.05 12.18 9.91
9/24/2021 1:15:00 PM 14.62 58.316 0.073 7.07 11.49 9.89
9/24/2021 1:30:00 PM 14.67 58.406 0.072 7.1 11.69 9.87
9/24/2021 1:45:00 PM 14.8 58.64 0.071 7.12 12 9.85
9/24/2021 2:00:00 PM 14.9 58.82 0.068 7.06 11.54 9.83
9/24/2021 2:15:00 PM 14.99 58.982 0.068 7.06 11.76 9.81
9/24/2021 2:30:00 PM 15.04 59.072 0.069 7.12 11.99 9.8
9/24/2021 2:45:00 PM 15.1 59.18 0.066 7.02 11.89 9.78
9/24/2021 3:00:00 PM 15.19 59.342 0.066 7.05 11.92 9.76
9/24/2021 3:15:00 PM 15.28 59.504 0.065 7.07 12.88 9.74
9/24/2021 3:30:00 PM 15.36 59.648 0.065 7.08 11.98 9.71
9/24/2021 3:45:00 PM 15.43 59.774 0.063 7.09 11.55 9.68
9/24/2021 4:00:00 PM 15.47 59.846 0.064 7.11 11.84 9.65
9/24/2021 4:15:00 PM 15.5 59.9 0.061 7.1 13.61 9.64
9/24/2021 4:30:00 PM 15.51 59.918 0.06 7.1 11.82 9.62
9/24/2021 4:45:00 PM 15.51 59.918 0.061 7.11 12.44 9.6
9/24/2021 5:00:00 PM 15.5 59.9 0.061 7.11 11.95 9.59
9/24/2021 5:15:00 PM 15.49 59.882 0.062 7.1 11.81 9.58
9/24/2021 5:30:00 PM 15.47 59.846 0.062 7.1 12.35 9.57
9/24/2021 5:45:00 PM 15.43 59.774 0.062 7.1 11.63 9.57
9/24/2021 6:00:00 PM 15.4 59.72 0.061 7.1 11.54 9.56
9/24/2021 6:15:00 PM 15.36 59.648 0.061 7.1 11.24 9.56
9/24/2021 6:30:00 PM 15.32 59.576 0.06 7.09 10.81 9.57
9/24/2021 6:45:00 PM 15.28 59.504 0.06 7.09 10.99 9.57
9/24/2021 7:00:00 PM 15.24 59.432 0.06 7.09 10.66 9.56
9/24/2021 7:15:00 PM 15.2 59.36 0.06 7.09 10.36 9.56
9/24/2021 7:30:00 PM 15.15 59.27 0.06 7.09 18.75 9.52
9/24/2021 7:45:00 PM 15.1 59.18 0.06 7.08 10.59 9.57
9/24/2021 8:00:00 PM 15.06 59.108 0.061 7.08 10.88 9.57
9/24/2021 8:15:00 PM 15.01 59.018 0.06 7.07 10.22 9.57
9/24/2021 8:30:00 PM 14.96 58.928 0.06 7.07 10.51 9.58
9/24/2021 8:45:00 PM 14.91 58.838 0.06 7.07 10.88 9.58
9/24/2021 9:00:00 PM 14.87 58.766 0.06 7.07 10.85 9.59
9/24/2021 9:15:00 PM 14.82 58.676 0.06 7.07 9.81 9.61
9/24/2021 9:30:00 PM 14.77 58.586 0.06 7.07 10.18 9.62
9/24/2021 9:45:00 PM 14.72 58.496 0.06 7.07 9.8 9.63
9/24/2021 10:00:00 PM 14.66 58.388 0.059 7.07 10.08 9.65
9/24/2021 10:15:00 PM 14.61 58.298 0.059 7.07 9.85 9.66
9/24/2021 10:30:00 PM 14.56 58.208 0.059 7.07 9.38 9.67
9/24/2021 10:45:00 PM 14.51 58.118 0.059 7.07 10.33 9.68
9/24/2021 11:00:00 PM 14.46 58.028 0.059 7.06 9.68 9.69
9/24/2021 11:15:00 PM 14.41 57.938 0.059 7.07 9.37 9.7
9/24/2021 11:30:00 PM 14.35 57.83 0.058 7.07 9.46 9.71
9/24/2021 11:45:00 PM 14.3 57.74 0.058 7.07 10.08 9.72
9/25/2021 12:00:00 AM 14.25 57.65 0.058 7.06 9.25 9.73
9/25/2021 12:15:00 AM 14.2 57.56 0.058 7.06 11.99 9.74
9/25/2021 12:30:00 AM 14.15 57.47 0.058 7.07 9.31 9.76
9/25/2021 12:45:00 AM 14.1 57.38 0.058 7.07 9.1 9.77
9/25/2021 1:00:00 AM 14.05 57.29 0.058 7.06 9.29 9.79
9/25/2021 1:15:00 AM 14 57.2 0.058 7.07 9.34 9.8
9/25/2021 1:30:00 AM 13.94 57.092 0.058 7.06 9.02 9.81
9/25/2021 1:45:00 AM 13.89 57.002 0.058 7.07 8.57 9.83
9/25/2021 2:00:00 AM 13.84 56.912 0.058 7.07 8.75 9.84
9/25/2021 2:15:00 AM 13.79 56.822 0.058 7.07 8.53 9.85
9/25/2021 2:30:00 AM 13.74 56.732 0.058 7.07 8.57 9.86
9/25/2021 2:45:00 AM 13.7 56.66 0.058 7.08 8.39 9.87
9/25/2021 3:00:00 AM 13.65 56.57 0.057 7.08 13.55 9.87
9/25/2021 3:15:00 AM 13.6 56.48 0.057 7.08 8.39 9.88
9/25/2021 3:30:00 AM 13.55 56.39 0.058 7.08 8.7 9.9
9/25/2021 3:45:00 AM 13.51 56.318 0.057 7.08 8.68 9.91
9/25/2021 4:00:00 AM 13.46 56.228 0.057 7.08 8.2 9.92
9/25/2021 4:15:00 AM 13.42 56.156 0.057 7.08 8.65 9.94
9/25/2021 4:30:00 AM 13.37 56.066 0.057 7.08 8.44 9.95
9/25/2021 4:45:00 AM 13.33 55.994 0.057 7.09 8.57 9.96
9/25/2021 5:00:00 AM 13.29 55.922 0.057 7.09 8.01 9.97
9/25/2021 5:15:00 AM 13.25 55.85 0.057 7.09 7.8 9.98
9/25/2021 5:30:00 AM 13.2 55.76 0.057 7.1 7.75 9.99
9/25/2021 5:45:00 AM 13.16 55.688 0.057 7.1 7.62 10
9/25/2021 6:00:00 AM 13.11 55.598 0.057 7.1 7.9 10.01
9/25/2021 6:15:00 AM 13.07 55.526 0.057 7.1 7.83 10.01
9/25/2021 6:30:00 AM 13.02 55.436 0.057 7.1 7.88 10.03
9/25/2021 6:45:00 AM 12.98 55.364 0.057 7.1 7.58 10.03
9/25/2021 7:00:00 AM 12.94 55.292 0.057 7.1 7.43 10.04
9/25/2021 7:15:00 AM 12.9 55.22 0.056 7.1 7.64 10.06
9/25/2021 7:30:00 AM 12.86 55.148 0.057 7.1 7.26 10.07
9/25/2021 7:45:00 AM 12.82 55.076 0.057 7.1 7.19 10.09
9/25/2021 8:00:00 AM 12.79 55.022 0.056 7.11 7.22 10.11
9/25/2021 8:15:00 AM 12.77 54.986 0.056 7.11 6.92 10.12
9/25/2021 8:30:00 AM 12.75 54.95 0.056 7.12 7.11 10.15
9/25/2021 8:45:00 AM 12.73 54.914 0.056 7.12 7.24 10.17
9/25/2021 9:00:00 AM 12.73 54.914 0.057 7.13 6.63 10.2
9/25/2021 9:15:00 AM 12.72 54.896 0.056 7.13 6.64 10.21
9/25/2021 9:30:00 AM 12.72 54.896 0.056 7.13 6.6 10.22
9/25/2021 9:45:00 AM 12.74 54.932 0.056 7.13 6.52 10.22
9/25/2021 10:00:00 AM 12.77 54.986 0.056 7.14 6.43 10.23
9/25/2021 10:15:00 AM 12.81 55.058 0.056 7.14 6.28 10.24
9/25/2021 10:30:00 AM 12.87 55.166 0.056 7.16 6.13 10.24
9/25/2021 10:45:00 AM 12.93 55.274 0.056 7.16 6.12 10.23
9/25/2021 11:00:00 AM 13 55.4 0.056 7.16 6.52 10.23
9/25/2021 11:15:00 AM 13.08 55.544 0.056 7.17 6.48 10.22
9/25/2021 11:30:00 AM 13.18 55.724 0.056 7.17 6.39 10.22
9/25/2021 11:45:00 AM 13.29 55.922 0.056 7.18 6.32 10.21
9/25/2021 12:00:00 PM 13.4 56.12 0.056 7.19 6.29 10.22
9/25/2021 12:15:00 PM 13.53 56.354 0.056 7.19 6.16 10.2
9/25/2021 12:30:00 PM 13.66 56.588 0.056 7.2 5.91 10.19
9/25/2021 12:45:00 PM 13.8 56.84 0.056 7.21 5.82 10.19
9/25/2021 1:00:00 PM 13.94 57.092 0.056 7.21 5.83 10.16
9/25/2021 1:15:00 PM 14.07 57.326 0.056 7.22 6.09 10.14
9/25/2021 1:30:00 PM 14.18 57.524 0.056 7.22 5.95 10.12
9/25/2021 1:45:00 PM 14.29 57.722 0.056 7.23 6.15 10.1
9/25/2021 2:00:00 PM 14.42 57.956 0.056 7.23 6.1 10.08
9/25/2021 2:15:00 PM 14.55 58.19 0.056 7.24 6.13 10.05
9/25/2021 2:30:00 PM 14.67 58.406 0.056 7.24 5.84 10.02
9/25/2021 2:45:00 PM 14.78 58.604 0.056 7.25 6.1 9.98
9/25/2021 3:00:00 PM 14.86 58.748 0.056 7.24 6.02 9.94
9/25/2021 3:15:00 PM 14.93 58.874 0.056 7.25 5.91 9.92
9/25/2021 3:30:00 PM 15.03 59.054 0.055 7.26 5.95 9.91
9/25/2021 3:45:00 PM 15.12 59.216 0.056 7.26 6.02 9.88
9/25/2021 4:00:00 PM 15.17 59.306 0.055 7.25 6.25 9.85
9/25/2021 4:15:00 PM 15.2 59.36 0.055 7.26 6.05 9.82
9/25/2021 4:30:00 PM 15.24 59.432 0.055 7.24 6.13 9.79
9/25/2021 4:45:00 PM 15.26 59.468 0.055 7.25 6.07 9.75
9/25/2021 5:00:00 PM 15.29 59.522 0.055 7.24 6.11 9.72
9/25/2021 5:15:00 PM 15.31 59.558 0.055 7.24 5.93 9.71
9/25/2021 5:30:00 PM 15.33 59.594 0.055 7.23 6.21 9.69
9/25/2021 5:45:00 PM 15.32 59.576 0.055 7.24 5.93 9.67
9/25/2021 6:00:00 PM 15.32 59.576 0.055 7.23 6.09 9.65
9/25/2021 6:15:00 PM 15.31 59.558 0.055 7.22 5.95 9.64
9/25/2021 6:30:00 PM 15.3 59.54 0.055 7.22 5.98 9.61
9/25/2021 6:45:00 PM 15.29 59.522 0.055 7.21 6.36 9.59
9/25/2021 7:00:00 PM 15.28 59.504 0.055 7.21 6.37 9.57
9/25/2021 7:15:00 PM 15.26 59.468 0.055 7.2 6.32 9.56
9/25/2021 7:30:00 PM 15.24 59.432 0.055 7.2 8.5 9.54
9/25/2021 7:45:00 PM 15.21 59.378 0.054 7.19 6.24 9.54
9/25/2021 8:00:00 PM 15.19 59.342 0.055 7.19 6.2 9.52
9/25/2021 8:15:00 PM 15.16 59.288 0.054 7.18 6.13 9.53
9/25/2021 8:30:00 PM 15.14 59.252 0.054 7.18 6.01 9.52
9/25/2021 8:45:00 PM 15.11 59.198 0.054 7.18 6.6 9.52
9/25/2021 9:00:00 PM 15.08 59.144 0.054 7.18 6.32 9.52
9/25/2021 9:15:00 PM 15.05 59.09 0.055 7.18 6.59 9.52
9/25/2021 9:30:00 PM 15.02 59.036 0.054 7.17 6.16 9.52
9/25/2021 9:45:00 PM 14.98 58.964 0.055 7.17 6.74 9.51
9/25/2021 10:00:00 PM 14.95 58.91 0.055 7.17 6.42 9.51
9/25/2021 10:15:00 PM 14.92 58.856 0.054 7.18 430.91 9.51
9/25/2021 10:30:00 PM 14.89 58.802 0.054 7.22 6.12 9.53
9/25/2021 10:45:00 PM 14.86 58.748 0.055 7.19 5.84 9.54
9/25/2021 11:00:00 PM 14.84 58.712 0.055 7.2 5.89 9.55
9/25/2021 11:15:00 PM 14.81 58.658 0.055 7.21 6.19 9.56
9/25/2021 11:30:00 PM 14.79 58.622 0.055 7.21 6.16 9.57
9/25/2021 11:45:00 PM 14.76 58.568 0.055 7.21 5.95 9.57
9/26/2021 12:00:00 AM 14.73 58.514 0.055 7.16 5.74 9.58
9/26/2021 12:15:00 AM 14.71 58.478 0.055 7.17 6.06 9.59
9/26/2021 12:30:00 AM 14.69 58.442 0.055 7.17 5.89 9.6
9/26/2021 12:45:00 AM 14.66 58.388 0.055 7.17 6.14 9.6
9/26/2021 1:00:00 AM 14.63 58.334 0.055 7.17 5.98 9.61
9/26/2021 1:15:00 AM 14.61 58.298 0.055 7.17 6.16 9.61
9/26/2021 1:30:00 AM 14.58 58.244 0.054 7.17 5.69 9.63
9/26/2021 1:45:00 AM 14.56 58.208 0.054 7.17 6.01 9.63
9/26/2021 2:00:00 AM 14.54 58.172 0.054 7.17 6.35 9.63
9/26/2021 2:15:00 AM 14.53 58.154 0.055 7.18 5.7 9.64
9/26/2021 2:30:00 AM 14.51 58.118 0.054 7.18 5.6 9.63
9/26/2021 2:45:00 AM 14.48 58.064 0.054 7.18 5.8 9.65
9/26/2021 3:00:00 AM 14.45 58.01 0.054 7.18 5.85 9.65
9/26/2021 3:15:00 AM 14.41 57.938 0.054 7.19 5.63 9.66
9/26/2021 3:30:00 AM 14.36 57.848 0.054 7.19 6.14 9.66
9/26/2021 3:45:00 AM 14.32 57.776 0.054 7.19 5.7 9.67
9/26/2021 4:00:00 AM 14.28 57.704 0.054 7.19 5.82 9.67
9/26/2021 4:15:00 AM 14.24 57.632 0.054 7.19 5.37 9.66
9/26/2021 4:30:00 AM 14.19 57.542 0.054 7.19 5.42 9.7
9/26/2021 4:45:00 AM 14.15 57.47 0.054 7.19 5.52 9.71
9/26/2021 5:00:00 AM 14.1 57.38 0.054 7.19 5.59 9.72
9/26/2021 5:15:00 AM 14.05 57.29 0.054 7.19 5.63 9.73
9/26/2021 5:30:00 AM 14.01 57.218 0.054 7.19 5.47 9.74
9/26/2021 5:45:00 AM 13.96 57.128 0.054 7.19 5.35 9.74
9/26/2021 6:00:00 AM 13.91 57.038 0.054 7.19 5.5 9.76
9/26/2021 6:15:00 AM 13.86 56.948 0.054 7.19 5.37 9.76
9/26/2021 6:30:00 AM 13.81 56.858 0.055 7.19 5.32 9.77
9/26/2021 6:45:00 AM 13.76 56.768 0.054 7.16 7.45 9.79
9/26/2021 7:00:00 AM 13.71 56.678 0.054 7.17 5.68 9.81
9/26/2021 7:15:00 AM 13.66 56.588 0.054 7.19 5.56 9.8
9/26/2021 7:30:00 AM 13.62 56.516 0.054 7.19 5.3 9.83
9/26/2021 7:45:00 AM 13.57 56.426 0.054 7.19 5.13 9.85
9/26/2021 8:00:00 AM 13.53 56.354 0.054 7.19 5.07 9.86
9/26/2021 8:15:00 AM 13.5 56.3 0.054 7.19 5.03 9.89
9/26/2021 8:30:00 AM 13.47 56.246 0.054 7.2 4.99 9.93
9/26/2021 8:45:00 AM 13.46 56.228 0.054 7.2 4.77 9.95
9/26/2021 9:00:00 AM 13.45 56.21 0.054 7.19 5.08 9.98
9/26/2021 9:15:00 AM 13.45 56.21 0.054 7.21 5.06 9.99
9/26/2021 9:30:00 AM 13.47 56.246 0.054 7.22 4.85 10.01
9/26/2021 9:45:00 AM 13.48 56.264 0.054 7.22 4.78 10.02
9/26/2021 10:00:00 AM 13.5 56.3 0.054 7.23 4.75 10.04
9/26/2021 10:15:00 AM 13.54 56.372 0.054 7.24 4.42 10.05
9/26/2021 10:30:00 AM 13.58 56.444 0.054 7.25 4.54 10.06
9/26/2021 10:45:00 AM 13.61 56.498 0.054 7.25 4.44 10.07
9/26/2021 11:00:00 AM 13.65 56.57 0.053 7.25 4.47 10.06
9/26/2021 11:15:00 AM 13.7 56.66 0.054 7.26 4.27 10.07
9/26/2021 11:30:00 AM 13.78 56.804 0.054 7.26 4.5 10.09
9/26/2021 11:45:00 AM 13.87 56.966 0.054 7.27 4.39 10.1
9/26/2021 12:00:00 PM 13.98 57.164 0.054 7.28 4.35 10.1
9/26/2021 12:15:00 PM 14.08 57.344 0.054 7.28 4.23 10.09
9/26/2021 12:30:00 PM 14.21 57.578 0.054 7.29 4.43 10.09
9/26/2021 12:45:00 PM 14.36 57.848 0.054 7.3 4.24 10.1
9/26/2021 1:00:00 PM 14.47 58.046 0.054 7.3 4.27 10.09
9/26/2021 1:15:00 PM 14.58 58.244 0.054 7.31 4.36 10.07
9/26/2021 1:30:00 PM 14.71 58.478 0.054 7.31 4.26 10.05
9/26/2021 1:45:00 PM 14.78 58.604 0.054 7.32 4.26 10.01
9/26/2021 2:00:00 PM 14.88 58.784 0.054 7.32 4.31 10
9/26/2021 2:15:00 PM 14.99 58.982 0.054 7.32 4.21 9.98
9/26/2021 2:30:00 PM 15.1 59.18 0.054 7.33 4.19 9.97
9/26/2021 2:45:00 PM 15.13 59.234 0.054 7.33 4.33 9.9
9/26/2021 3:00:00 PM 15.13 59.234 0.054 7.32 4.29 9.89
9/26/2021 3:15:00 PM 15.24 59.432 0.054 7.33 4.47 9.87
9/26/2021 3:30:00 PM 15.32 59.576 0.054 7.33 4.58 9.86
9/26/2021 3:45:00 PM 15.4 59.72 0.055 7.34 4.59 9.84
9/26/2021 4:00:00 PM 15.43 59.774 0.055 7.33 4.38 9.79
9/26/2021 4:15:00 PM 15.47 59.846 0.055 7.33 4.58 9.75
9/26/2021 4:30:00 PM 15.5 59.9 0.055 7.33 4.66 9.75
9/26/2021 4:45:00 PM 15.52 59.936 0.055 7.33 4.41 9.68
9/26/2021 5:00:00 PM 15.53 59.954 0.055 7.32 4.41 9.68
9/26/2021 5:15:00 PM 15.53 59.954 0.055 7.32 4.25 9.64
9/26/2021 5:30:00 PM 15.53 59.954 0.055 7.31 4.56 9.62
9/26/2021 5:45:00 PM 15.51 59.918 0.055 7.3 4.42 9.58
9/26/2021 6:00:00 PM 15.49 59.882 0.055 7.3 4.4 9.57
9/26/2021 6:15:00 PM 15.46 59.828 0.055 7.29 4.53 9.56
9/26/2021 6:30:00 PM 15.41 59.738 0.055 7.28 4.33 9.54
9/26/2021 6:45:00 PM 15.36 59.648 0.055 7.28 4.7 9.54
9/26/2021 7:00:00 PM 15.3 59.54 0.056 7.27 4.58 9.53
9/26/2021 7:15:00 PM 15.25 59.45 0.055 7.26 4.49 9.53
9/26/2021 7:30:00 PM 15.19 59.342 0.055 7.26 4.57 9.51
9/26/2021 7:45:00 PM 15.14 59.252 0.056 7.26 4.66 9.52
9/26/2021 8:00:00 PM 15.08 59.144 0.055 7.25 4.63 9.52
9/26/2021 8:15:00 PM 15.03 59.054 0.056 7.25 4.86 9.49
9/26/2021 8:30:00 PM 14.97 58.946 0.056 7.24 4.88 9.51
9/26/2021 8:45:00 PM 14.92 58.856 0.056 7.24 4.88 9.51
9/26/2021 9:00:00 PM 14.87 58.766 0.056 7.23 5.14 9.53
9/26/2021 9:15:00 PM 14.82 58.676 0.056 7.23 4.99 9.53
9/26/2021 9:30:00 PM 14.76 58.568 0.056 7.23 4.98 9.55
9/26/2021 9:45:00 PM 14.71 58.478 0.057 7.22 5.25 9.55
9/26/2021 10:00:00 PM 14.65 58.37 0.056 7.22 4.83 9.57
9/26/2021 10:15:00 PM 14.61 58.298 0.056 7.22 5.01 9.58
9/26/2021 10:30:00 PM 14.56 58.208 0.056 7.22 5.2 9.6
9/26/2021 10:45:00 PM 14.52 58.136 0.056 7.22 5.63 9.61
9/26/2021 11:00:00 PM 14.48 58.064 0.056 7.22 4.94 9.61
9/26/2021 11:15:00 PM 14.44 57.992 0.056 7.22 8.54 9.62
9/26/2021 11:30:00 PM 14.41 57.938 0.056 7.22 5.1 9.63
9/26/2021 11:45:00 PM 14.37 57.866 0.056 7.23 5.1 9.64
9/27/2021 12:00:00 AM 14.34 57.812 0.056 7.22 4.8 9.64
9/27/2021 12:15:00 AM 14.3 57.74 0.056 7.23 5.03 9.65
9/27/2021 12:30:00 AM 14.26 57.668 0.056 7.26 4.86 9.64
9/27/2021 12:45:00 AM 14.22 57.596 0.056 7.21 4.84 9.66
9/27/2021 1:00:00 AM 14.18 57.524 0.056 7.22 5.18 9.68
9/27/2021 1:15:00 AM 14.13 57.434 0.055 7.22 5.06 9.7
9/27/2021 1:30:00 AM 14.09 57.362 0.055 7.22 5.28 9.7
9/27/2021 1:45:00 AM 14.05 57.29 0.056 7.22 5.07 9.73
9/27/2021 2:00:00 AM 14 57.2 0.055 7.22 5.05 9.73
9/27/2021 2:15:00 AM 13.96 57.128 0.056 7.22 5.06 9.75
9/27/2021 2:30:00 AM 13.91 57.038 0.056 7.22 5.15 9.75
9/27/2021 2:45:00 AM 13.87 56.966 0.056 7.22 5.17 9.77
9/27/2021 3:00:00 AM 13.83 56.894 0.056 7.21 4.91 9.77
9/27/2021 3:15:00 AM 13.79 56.822 0.056 7.21 4.89 9.79
9/27/2021 3:30:00 AM 13.75 56.75 0.056 7.21 4.82 9.77
9/27/2021 3:45:00 AM 13.71 56.678 0.056 7.21 4.57 9.8
9/27/2021 4:00:00 AM 13.67 56.606 0.056 7.21 4.51 9.8
9/27/2021 4:15:00 AM 13.64 56.552 0.056 7.21 4.51 9.81
9/27/2021 4:30:00 AM 13.61 56.498 0.056 7.21 4.84 9.81
9/27/2021 4:45:00 AM 13.57 56.426 0.056 7.21 5.08 9.82
9/27/2021 5:00:00 AM 13.55 56.39 0.056 7.21 4.7 9.84
9/27/2021 5:15:00 AM 13.52 56.336 0.056 7.25 4.63 9.85
9/27/2021 5:30:00 AM 13.5 56.3 0.056 7.21 4.59 9.85
9/27/2021 5:45:00 AM 13.47 56.246 0.056 7.22 4.57 9.86
9/27/2021 6:00:00 AM 13.45 56.21 0.056 7.22 4.63 9.88
9/27/2021 6:15:00 AM 13.42 56.156 0.056 7.22 4.85 9.87
9/27/2021 6:30:00 AM 13.4 56.12 0.056 7.22 4.7 9.89
9/27/2021 6:45:00 AM 13.38 56.084 0.056 7.26 4.57 9.91
9/27/2021 7:00:00 AM 13.36 56.048 0.056 7.22 4.62 9.9
9/27/2021 7:15:00 AM 13.33 55.994 0.056 7.21 4.55 9.91
9/27/2021 7:30:00 AM 13.3 55.94 0.056 7.22 4.7 9.94
9/27/2021 7:45:00 AM 13.28 55.904 0.056 7.22 4.71 9.95
9/27/2021 8:00:00 AM 13.26 55.868 0.057 7.22 4.3 9.96
9/27/2021 8:15:00 AM 13.24 55.832 0.056 7.23 4.32 9.98
9/27/2021 8:30:00 AM 13.23 55.814 0.056 7.23 4.22 10.01
9/27/2021 8:45:00 AM 13.23 55.814 0.056 7.23 4.16 10.04
9/27/2021 9:00:00 AM 13.24 55.832 0.057 7.24 4.27 10.05
9/27/2021 9:15:00 AM 13.26 55.868 0.057 7.25 4.32 10.06
9/27/2021 9:30:00 AM 13.28 55.904 0.057 7.26 4.23 10.08
9/27/2021 9:45:00 AM 13.31 55.958 0.057 7.26 4.01 10.1
9/27/2021 10:00:00 AM 13.36 56.048 0.057 7.27 3.96 10.13
9/27/2021 10:15:00 AM 13.44 56.192 0.057 7.28 3.88 10.16
9/27/2021 10:30:00 AM 13.5 56.3 0.058 7.29 4.08 10.16
9/27/2021 10:45:00 AM 13.56 56.408 0.058 7.29 4.15 10.14
9/27/2021 11:00:00 AM 13.63 56.534 0.057 7.3 3.83 10.15
9/27/2021 11:15:00 AM 13.72 56.696 0.058 7.31 4.05 10.17
9/27/2021 11:30:00 AM 13.83 56.894 0.057 7.32 3.82 10.18
9/27/2021 11:45:00 AM 13.95 57.11 0.058 7.33 3.89 10.19
9/27/2021 12:00:00 PM 14.09 57.362 0.057 7.34 3.83 10.19
9/27/2021 12:15:00 PM 14.22 57.596 0.057 7.35 3.81 10.15
9/27/2021 12:30:00 PM 14.38 57.884 0.058 7.36 3.85 10.16
9/27/2021 12:45:00 PM 14.54 58.172 0.058 7.37 4.17 10.17
9/27/2021 1:00:00 PM 14.7 58.46 0.059 7.38 4.09 10.15
9/27/2021 1:15:00 PM 14.85 58.73 0.059 7.38 3.9 10.11
9/27/2021 1:30:00 PM 15.01 59.018 0.06 7.39 3.96 10.1
9/27/2021 1:45:00 PM 15.15 59.27 0.059 7.39 4.04 10.06
9/27/2021 2:00:00 PM 15.28 59.504 0.059 7.41 3.96 10.06
9/27/2021 2:15:00 PM 15.39 59.702 0.058 7.41 3.93 10.01
9/27/2021 2:30:00 PM 15.48 59.864 0.059 7.42 3.98 10
9/27/2021 2:45:00 PM 15.59 60.062 0.058 7.42 3.93 9.96
9/27/2021 3:00:00 PM 15.69 60.242 0.058 7.42 3.93 9.93
9/27/2021 3:15:00 PM 15.77 60.386 0.058 7.41 4.13 9.86
9/27/2021 3:30:00 PM 15.85 60.53 0.059 7.42 3.92 9.86
9/27/2021 3:45:00 PM 15.92 60.656 0.059 7.42 3.93 9.82
9/27/2021 4:00:00 PM 15.99 60.782 0.062 7.42 5.49 9.77
9/27/2021 4:15:00 PM 16.05 60.89 0.061 7.41 3.85 9.74
9/27/2021 4:30:00 PM 16.1 60.98 0.063 7.41 3.8 9.7
9/27/2021 4:45:00 PM 16.15 61.07 0.062 7.41 3.88 9.65
9/27/2021 5:00:00 PM 16.18 61.124 0.062 7.4 3.84 9.6
9/27/2021 5:15:00 PM 16.21 61.178 0.066 7.39 3.81 9.56
9/27/2021 5:30:00 PM 16.23 61.214 0.067 7.38 4.01 9.51
9/27/2021 5:45:00 PM 16.25 61.25 0.065 7.37 3.98 9.48
9/27/2021 6:00:00 PM 16.26 61.268 0.066 7.36 4.26 9.45
9/27/2021 6:15:00 PM 16.27 61.286 0.066 7.35 3.91 9.43
9/27/2021 6:30:00 PM 16.27 61.286 0.065 7.35 3.89 9.39
9/27/2021 6:45:00 PM 16.25 61.25 0.065 7.34 3.84 9.37
9/27/2021 7:00:00 PM 16.23 61.214 0.067 7.33 4.15 9.33
9/27/2021 7:15:00 PM 16.19 61.142 0.068 7.31 3.9 9.33
9/27/2021 7:30:00 PM 16.16 61.088 0.069 7.3 3.98 9.3
9/27/2021 7:45:00 PM 16.12 61.016 0.069 7.3 4.05 9.3
9/27/2021 8:00:00 PM 16.09 60.962 0.065 7.29 4.09 9.29
9/27/2021 8:15:00 PM 16.05 60.89 0.066 7.28 4.14 9.29
9/27/2021 8:30:00 PM 16.01 60.818 0.067 7.27 4.49 9.29
9/27/2021 8:45:00 PM 15.97 60.746 0.067 7.27 4.2 9.27
9/27/2021 9:00:00 PM 15.93 60.674 0.066 7.27 4.57 9.27
9/27/2021 9:15:00 PM 15.89 60.602 0.067 7.26 4.37 9.29
9/27/2021 9:30:00 PM 15.85 60.53 0.068 7.26 4.33 9.29
9/27/2021 9:45:00 PM 15.82 60.476 0.07 7.25 5.62 9.29
9/27/2021 10:00:00 PM 15.78 60.404 0.067 7.25 5.07 9.28
9/27/2021 10:15:00 PM 15.74 60.332 0.067 7.25 5.6 9.3
9/27/2021 10:30:00 PM 15.7 60.26 0.07 7.25 5.12 9.3
9/27/2021 10:45:00 PM 15.66 60.188 0.071 7.24 5.38 9.28
9/27/2021 11:00:00 PM 15.63 60.134 0.067 7.24 4.88 9.29
9/27/2021 11:15:00 PM 15.59 60.062 0.068 7.24 4.8 9.3
9/27/2021 11:30:00 PM 15.55 59.99 0.069 7.24 4.83 9.32
9/27/2021 11:45:00 PM 15.52 59.936 0.07 7.25 4.86 9.31
9/28/2021 12:00:00 AM 15.48 59.864 0.07 7.24 4.85 9.34
9/28/2021 12:15:00 AM 15.44 59.792 0.071 7.25 5.04 9.35
9/28/2021 12:30:00 AM 15.41 59.738 0.071 7.25 4.71 9.34
9/28/2021 12:45:00 AM 15.37 59.666 0.069 7.24 4.64 9.36
9/28/2021 1:00:00 AM 15.33 59.594 0.07 7.24 4.68 9.37
9/28/2021 1:15:00 AM 15.3 59.54 0.073 7.25 5.07 9.37
9/28/2021 1:30:00 AM 15.26 59.468 0.072 7.24 4.68 9.38
9/28/2021 1:45:00 AM 15.22 59.396 0.073 7.24 4.64 9.39
9/28/2021 2:00:00 AM 15.19 59.342 0.073 7.24 4.77 9.4
9/28/2021 2:15:00 AM 15.16 59.288 0.074 7.24 4.64 9.4
9/28/2021 2:30:00 AM 15.14 59.252 0.075 7.24 4.93 9.41
9/28/2021 2:45:00 AM 15.11 59.198 0.073 7.24 4.54 9.42
9/28/2021 3:00:00 AM 15.08 59.144 0.075 7.24 4.96 9.42
9/28/2021 3:15:00 AM 15.05 59.09 0.073 7.24 4.79 9.43
9/28/2021 3:30:00 AM 15.03 59.054 0.076 7.24 4.63 9.44
9/28/2021 3:45:00 AM 15 59 0.075 7.24 4.79 9.45
9/28/2021 4:00:00 AM 14.98 58.964 0.077 7.24 4.39 9.42
9/28/2021 4:15:00 AM 14.96 58.928 0.075 7.24 4.76 9.43
9/28/2021 4:30:00 AM 14.93 58.874 0.076 7.24 4.38 9.45
9/28/2021 4:45:00 AM 14.91 58.838 0.075 7.24 4.41 9.44
9/28/2021 5:00:00 AM 14.89 58.802 0.077 7.24 4.31 9.47
9/28/2021 5:15:00 AM 14.87 58.766 0.079 7.24 4.31 9.47
9/28/2021 5:30:00 AM 14.84 58.712 0.078 7.24 4.39 9.47
9/28/2021 5:45:00 AM 14.82 58.676 0.079 7.24 4.14 9.49
9/28/2021 6:00:00 AM 14.8 58.64 0.08 7.24 4.14 9.49
9/28/2021 6:15:00 AM 14.78 58.604 0.081 7.24 4.51 9.5
9/28/2021 6:30:00 AM 14.76 58.568 0.082 7.24 4.21 9.51
9/28/2021 6:45:00 AM 14.74 58.532 0.079 7.24 4.19 9.51
9/28/2021 7:00:00 AM 14.72 58.496 0.076 7.24 4.25 9.51
9/28/2021 7:15:00 AM 14.71 58.478 0.077 7.24 4.23 9.52
9/28/2021 7:30:00 AM 14.69 58.442 0.081 7.24 4.24 9.53
9/28/2021 7:45:00 AM 14.68 58.424 0.078 7.24 4.27 9.54
9/28/2021 8:00:00 AM 14.67 58.406 0.08 7.24 4.08 9.55
9/28/2021 8:15:00 AM 14.65 58.37 0.081 7.24 4.07 9.55
9/28/2021 8:30:00 AM 14.65 58.37 0.078 7.24 4.06 9.54
9/28/2021 8:45:00 AM 14.64 58.352 0.081 7.24 4.16 9.55
9/28/2021 9:00:00 AM 14.63 58.334 0.081 7.24 4.39 9.56
9/28/2021 9:15:00 AM 14.62 58.316 0.082 7.24 3.99 9.57
9/28/2021 9:30:00 AM 14.62 58.316 0.083 7.24 4.1 9.59
9/28/2021 9:45:00 AM 14.63 58.334 0.082 7.25 4 9.63
9/28/2021 10:00:00 AM 14.66 58.388 0.084 7.26 4.15 9.69
9/28/2021 10:15:00 AM 14.68 58.424 0.083 7.27 4.26 9.7
9/28/2021 10:30:00 AM 14.71 58.478 0.083 7.28 4.33 9.74
9/28/2021 10:45:00 AM 14.7 58.46 0.083 7.27 4.02 9.69
9/28/2021 11:00:00 AM 14.71 58.478 0.085 7.27 4.36 9.69
9/28/2021 11:15:00 AM 14.74 58.532 0.086 7.28 4.29 9.73
9/28/2021 11:30:00 AM 14.76 58.568 0.083 7.29 4.63 9.73
9/28/2021 11:45:00 AM 14.78 58.604 0.086 7.3 4.58 9.75
9/28/2021 12:00:00 PM 14.82 58.676 0.085 7.3 5.35 9.75
9/28/2021 12:15:00 PM 14.83 58.694 0.087 7.3 6.37 9.7
9/28/2021 12:30:00 PM 14.84 58.712 0.088 7.3 6.02 9.7
9/28/2021 12:45:00 PM 14.88 58.784 0.086 7.31 5.94 9.72
9/28/2021 1:00:00 PM 14.94 58.892 0.089 7.33 6.72 9.75
9/28/2021 1:15:00 PM 15.05 59.09 0.088 7.35 7.76 9.82
9/28/2021 1:30:00 PM 15.14 59.252 0.09 7.35 7.81 9.79
9/28/2021 1:45:00 PM 15.15 59.27 0.091 7.35 9.58 9.78
9/28/2021 2:00:00 PM 15.19 59.342 0.091 7.35 12.84 9.76
9/28/2021 2:15:00 PM 15.23 59.414 0.091 7.34 18.73 9.72
9/28/2021 2:30:00 PM 15.3 59.54 0.09 7.35 13.39 9.75
9/28/2021 2:45:00 PM 15.36 59.648 0.09 7.37 11.6 9.75
9/28/2021 3:00:00 PM 15.4 59.72 0.092 7.37 10.56 9.71
9/28/2021 3:15:00 PM 15.43 59.774 0.092 7.37 10.37 9.72
9/28/2021 3:30:00 PM 15.52 59.936 0.093 7.39 9.17 9.73
9/28/2021 3:45:00 PM 15.59 60.062 0.093 7.4 8.77 9.74
9/28/2021 4:00:00 PM 15.65 60.17 0.093 7.41 8.66 9.77
9/28/2021 4:15:00 PM 15.65 60.17 0.092 7.41 8.83 9.74
9/28/2021 4:30:00 PM 15.63 60.134 0.093 7.41 7.85 9.73
9/28/2021 4:45:00 PM 15.6 60.08 0.092 7.4 7.12 9.71
9/28/2021 5:00:00 PM 15.65 60.17 0.093 7.41 6.61 9.74
9/28/2021 5:15:00 PM 15.67 60.206 0.088 7.4 6.32 9.71
9/28/2021 5:30:00 PM 15.64 60.152 0.088 7.39 6.28 9.65
9/28/2021 5:45:00 PM 15.64 60.152 0.089 7.38 6 9.61
9/28/2021 6:00:00 PM 15.63 60.134 0.087 7.37 5.44 9.59
9/28/2021 6:15:00 PM 15.62 60.116 0.087 7.36 5.82 9.53
9/28/2021 6:30:00 PM 15.59 60.062 0.089 7.36 5.41 9.52
9/28/2021 6:45:00 PM 15.55 59.99 0.088 7.35 5.32 9.5
9/28/2021 7:00:00 PM 15.51 59.918 0.089 7.34 5.28 9.47
9/28/2021 7:15:00 PM 15.47 59.846 0.089 7.33 5.25 9.48
9/28/2021 7:30:00 PM 15.43 59.774 0.09 7.32 4.77 9.44
9/28/2021 7:45:00 PM 15.39 59.702 0.089 7.32 5.25 9.44
9/28/2021 8:00:00 PM 15.36 59.648 0.091 7.31 4.83 9.44
9/28/2021 8:15:00 PM 15.33 59.594 0.091 7.31 4.95 9.42
9/28/2021 8:30:00 PM 15.3 59.54 0.092 7.3 5.24 9.44
9/28/2021 8:45:00 PM 15.26 59.468 0.092 7.3 5.12 9.43
9/28/2021 9:00:00 PM 15.22 59.396 0.091 7.29 5.28 9.41
9/28/2021 9:15:00 PM 15.19 59.342 0.092 7.29 5.13 9.43
9/28/2021 9:30:00 PM 15.16 59.288 0.092 7.29 5.95 9.42
9/28/2021 9:45:00 PM 15.11 59.198 0.091 7.29 4.9 9.43
9/28/2021 10:00:00 PM 15.07 59.126 0.089 7.29 4.97 9.42
9/28/2021 10:15:00 PM 15.03 59.054 0.091 7.29 5.28 9.45
9/28/2021 10:30:00 PM 14.99 58.982 0.091 7.29 5 9.44
9/28/2021 10:45:00 PM 14.95 58.91 0.091 7.29 5.08 9.47
9/28/2021 11:00:00 PM 14.91 58.838 0.091 7.29 5.79 9.46
9/28/2021 11:15:00 PM 14.87 58.766 0.091 7.29 6.38 9.48
9/28/2021 11:30:00 PM 14.82 58.676 0.091 7.29 5.04 9.49
9/28/2021 11:45:00 PM 14.78 58.604 0.091 7.29 4.85 9.49
9/29/2021 12:00:00 AM 14.73 58.514 0.092 7.29 4.96 9.51
9/29/2021 12:15:00 AM 14.69 58.442 0.092 7.29 4.85 9.53
9/29/2021 12:30:00 AM 14.64 58.352 0.092 7.29 4.91 9.56
9/29/2021 12:45:00 AM 14.6 58.28 0.094 7.29 5.1 9.52
9/29/2021 1:00:00 AM 14.55 58.19 0.094 7.32 4.86 9.58
9/29/2021 1:15:00 AM 14.5 58.1 0.094 7.28 4.87 9.57
9/29/2021 1:30:00 AM 14.45 58.01 0.095 7.29 5.13 9.59
9/29/2021 1:45:00 AM 14.4 57.92 0.093 7.29 5.08 9.58
9/29/2021 2:00:00 AM 14.34 57.812 0.094 7.32 4.89 9.61
9/29/2021 2:15:00 AM 14.29 57.722 0.094 7.28 4.59 9.61
9/29/2021 2:30:00 AM 14.23 57.614 0.095 7.29 4.82 9.61
9/29/2021 2:45:00 AM 14.18 57.524 0.095 7.29 4.86 9.63
9/29/2021 3:00:00 AM 14.12 57.416 0.095 7.28 5.23 9.64
9/29/2021 3:15:00 AM 14.06 57.308 0.096 7.28 5.21 9.66
9/29/2021 3:30:00 AM 14 57.2 0.096 7.28 4.9 9.66
9/29/2021 3:45:00 AM 13.94 57.092 0.096 7.29 5.01 9.69
9/29/2021 4:00:00 AM 13.88 56.984 0.091 7.28 4.88 9.68
9/29/2021 4:15:00 AM 13.82 56.876 0.097 7.28 4.9 9.73
9/29/2021 4:30:00 AM 13.76 56.768 0.097 7.28 4.84 9.71
9/29/2021 4:45:00 AM 13.69 56.642 0.096 7.28 4.72 9.76
9/29/2021 5:00:00 AM 13.63 56.534 0.097 7.28 5.29 9.75
9/29/2021 5:15:00 AM 13.58 56.444 0.095 7.28 4.94 9.77
9/29/2021 5:30:00 AM 13.52 56.336 0.097 7.28 6.44 9.8
9/29/2021 5:45:00 AM 13.46 56.228 0.097 7.28 5.29 9.79
9/29/2021 6:00:00 AM 13.4 56.12 0.097 7.28 5.27 9.83
9/29/2021 6:15:00 AM 13.33 55.994 0.097 7.28 4.79 9.83
9/29/2021 6:30:00 AM 13.27 55.886 0.097 7.28 5.18 9.84
9/29/2021 6:45:00 AM 13.21 55.778 0.096 7.28 5.01 9.88
9/29/2021 7:00:00 AM 13.16 55.688 0.096 7.27 5.19 9.86
9/29/2021 7:15:00 AM 13.09 55.562 0.097 7.26 5.46 9.86
9/29/2021 7:30:00 AM 13.04 55.472 0.097 7.28 5.37 9.92
9/29/2021 7:45:00 AM 12.98 55.364 0.097 7.28 4.65 9.94
9/29/2021 8:00:00 AM 12.94 55.292 0.097 7.28 6.07 9.97
9/29/2021 8:15:00 AM 12.89 55.202 0.097 7.29 4.73 10.03
9/29/2021 8:30:00 AM 12.86 55.148 0.097 7.29 6.17 10.08
9/29/2021 8:45:00 AM 12.84 55.112 0.097 7.31 5.69 10.11
9/29/2021 9:00:00 AM 12.81 55.058 0.097 7.31 5.64 10.13
9/29/2021 9:15:00 AM 12.8 55.04 0.097 7.31 5.35 10.15
9/29/2021 9:30:00 AM 12.81 55.058 0.097 7.32 5.68 10.18
9/29/2021 9:45:00 AM 12.83 55.094 0.097 7.33 5.73 10.22
9/29/2021 10:00:00 AM 12.86 55.148 0.097 7.34 5.23 10.25
9/29/2021 10:15:00 AM 12.9 55.22 0.097 7.35 5.28 10.29
9/29/2021 10:30:00 AM 12.94 55.292 0.088 7.3 109.68 10.23
9/29/2021 10:45:00 AM 12.97 55.346 0.084 7.37 5.02 10.32
9/29/2021 11:00:00 AM 13 55.4 0.089 7.37 6.04 10.33
9/29/2021 11:15:00 AM 13.07 55.526 0.089 7.4 4.64 10.36
9/29/2021 11:30:00 AM 13.14 55.652 0.092 7.4 5.13 10.39
9/29/2021 11:45:00 AM 13.24 55.832 0.089 7.41 4.46 10.41
9/29/2021 12:00:00 PM 13.37 56.066 0.092 7.42 4.59 10.43
9/29/2021 12:15:00 PM 13.49 56.282 0.092 7.43 4.97 10.4
9/29/2021 12:30:00 PM 13.65 56.57 0.093 7.45 4.91 10.42
9/29/2021 12:45:00 PM 13.8 56.84 0.094 7.44 4.49 10.43
9/29/2021 1:00:00 PM 13.95 57.11 0.094 7.45 4.81 10.4
9/29/2021 1:15:00 PM 14.05 57.29 0.095 7.45 4.34 10.4
9/29/2021 1:30:00 PM 14.18 57.524 0.093 7.47 4.39 10.39
9/29/2021 1:45:00 PM 14.29 57.722 0.094 7.46 4.29 10.33
9/29/2021 2:00:00 PM 14.37 57.866 0.095 7.48 4.58 10.34
9/29/2021 2:15:00 PM 14.47 58.046 0.095 7.51 4.19 10.37
9/29/2021 2:30:00 PM 14.61 58.298 0.095 7.5 4.32 10.31
9/29/2021 2:45:00 PM 14.66 58.388 0.095 7.48 4.72 10.27
9/29/2021 3:00:00 PM 14.71 58.478 0.095 7.52 4.45 10.3
9/29/2021 3:15:00 PM 14.68 58.424 0.095 7.49 4.61 10.23
9/29/2021 3:30:00 PM 14.64 58.352 0.095 7.51 4.36 10.18
9/29/2021 3:45:00 PM 14.62 58.316 0.095 7.49 4.43 10.15
9/29/2021 4:00:00 PM 14.6 58.28 0.096 7.5 4.44 10.12
9/29/2021 4:15:00 PM 14.7 58.46 0.095 7.48 4.5 10.15
9/29/2021 4:30:00 PM 14.78 58.604 0.096 7.48 4.47 10.11
9/29/2021 4:45:00 PM 14.76 58.568 0.095 7.48 4.42 10.09
9/29/2021 5:00:00 PM 14.8 58.64 0.096 7.48 4.28 10.05
9/29/2021 5:15:00 PM 14.8 58.64 0.096 7.49 5.68 10.01
9/29/2021 5:30:00 PM 14.84 58.712 0.096 7.46 4.54 9.96
9/29/2021 5:45:00 PM 14.88 58.784 0.096 7.48 5.03 9.94
9/29/2021 6:00:00 PM 14.9 58.82 0.096 7.46 4.7 9.86
9/29/2021 6:15:00 PM 14.91 58.838 0.096 7.42 5.07 9.86
9/29/2021 6:30:00 PM 14.89 58.802 0.096 7.41 5.73 9.78
9/29/2021 6:45:00 PM 14.87 58.766 0.096 7.4 4.91 9.75
9/29/2021 7:00:00 PM 14.86 58.748 0.096 7.38 5.46 9.7
9/29/2021 7:15:00 PM 14.84 58.712 0.096 7.38 4.85 9.69
9/29/2021 7:30:00 PM 14.83 58.694 0.096 7.37 5.65 9.66
9/29/2021 7:45:00 PM 14.81 58.658 0.097 7.37 6.59 9.64
9/29/2021 8:00:00 PM 14.77 58.586 0.091 7.33 24.27 9.57
9/29/2021 8:15:00 PM 14.73 58.514 0.09 7.37 11.95 9.63
9/29/2021 8:30:00 PM 14.69 58.442 0.092 7.34 7.58 9.61
9/29/2021 8:45:00 PM 14.66 58.388 0.093 7.33 8.23 9.6
9/29/2021 9:00:00 PM 14.61 58.298 0.093 7.35 6.94 9.61
9/29/2021 9:15:00 PM 14.58 58.244 0.093 7.32 6.72 9.61
9/29/2021 9:30:00 PM 14.54 58.172 0.093 7.35 7.3 9.63
9/29/2021 9:45:00 PM 14.5 58.1 0.094 7.34 6.65 9.6
9/29/2021 10:00:00 PM 14.46 58.028 0.095 7.34 6.56 9.61
9/29/2021 10:15:00 PM 14.43 57.974 0.095 7.32 6.52 9.63
9/29/2021 10:30:00 PM 14.4 57.92 0.094 7.34 6.48 9.61
9/29/2021 10:45:00 PM 14.37 57.866 0.096 7.33 6.7 9.62
9/29/2021 11:00:00 PM 14.33 57.794 0.096 7.33 6.58 9.63
9/29/2021 11:15:00 PM 14.29 57.722 0.096 7.32 6.75 9.62
9/29/2021 11:30:00 PM 14.26 57.668 0.096 7.29 6.6 9.63
9/29/2021 11:45:00 PM 14.22 57.596 0.096 7.33 6.56 9.64
9/30/2021 12:00:00 AM 14.17 57.506 0.096 7.32 6.56 9.66
9/30/2021 12:15:00 AM 14.13 57.434 0.096 7.32 6.25 9.68
9/30/2021 12:30:00 AM 14.08 57.344 0.095 7.31 6.45 9.69
9/30/2021 12:45:00 AM 14.04 57.272 0.096 7.31 6.15 9.7
9/30/2021 1:00:00 AM 13.99 57.182 0.097 7.32 6.41 9.68
9/30/2021 1:15:00 AM 13.94 57.092 0.097 7.32 6.12 9.69
9/30/2021 1:30:00 AM 13.88 56.984 0.097 7.31 6.18 9.71
9/30/2021 1:45:00 AM 13.84 56.912 0.097 7.26 6.14 9.72
9/30/2021 2:00:00 AM 13.81 56.858 0.097 7.32 6.45 9.74
9/30/2021 2:15:00 AM 13.77 56.786 0.097 7.26 6.25 9.76
9/30/2021 2:30:00 AM 13.73 56.714 0.097 7.28 6.38 9.74
9/30/2021 2:45:00 AM 13.7 56.66 0.097 7.32 6.39 9.76
9/30/2021 3:00:00 AM 13.67 56.606 0.098 7.32 6.2 9.77
9/30/2021 3:15:00 AM 13.64 56.552 0.097 7.31 6.29 9.77
9/30/2021 3:30:00 AM 13.61 56.498 0.098 7.31 6.24 9.78
9/30/2021 3:45:00 AM 13.58 56.444 0.098 7.26 6.1 9.78
9/30/2021 4:00:00 AM 13.55 56.39 0.098 7.31 6.21 9.79
9/30/2021 4:15:00 AM 13.52 56.336 0.098 7.27 6.44 9.82
9/30/2021 4:30:00 AM 13.48 56.264 0.098 7.31 6.48 9.82
9/30/2021 4:45:00 AM 13.44 56.192 0.098 7.27 6.14 9.83
9/30/2021 5:00:00 AM 13.4 56.12 0.098 7.29 6.37 9.83
9/30/2021 5:15:00 AM 13.35 56.03 0.098 7.31 6.2 9.86
9/30/2021 5:30:00 AM 13.31 55.958 0.098 7.28 6.23 9.86
9/30/2021 5:45:00 AM 13.27 55.886 0.098 7.31 6.84 9.88
9/30/2021 6:00:00 AM 13.23 55.814 0.098 7.28 6.39 9.89
9/30/2021 6:15:00 AM 13.19 55.742 0.099 7.31 6.26 9.9
9/30/2021 6:30:00 AM 13.15 55.67 0.099 7.27 6.4 9.9
9/30/2021 6:45:00 AM 13.12 55.616 0.099 7.28 7.11 9.91
9/30/2021 7:00:00 AM 13.08 55.544 0.099 7.28 19.62 9.91
9/30/2021 7:15:00 AM 13.04 55.472 0.079 7.27 10.03 9.91
9/30/2021 7:30:00 AM 13 55.4 0.081 7.28 8.29 9.95
9/30/2021 7:45:00 AM 12.97 55.346 0.083 7.28 9.51 9.99
9/30/2021 8:00:00 AM 12.94 55.292 0.088 7.29 7.6 10.01
9/30/2021 8:15:00 AM 12.92 55.256 0.089 7.29 7.79 10.04
9/30/2021 8:30:00 AM 12.9 55.22 0.094 7.3 8.05 10.07
9/30/2021 8:45:00 AM 12.87 55.166 0.094 7.31 7.39 10.13
9/30/2021 9:00:00 AM 12.85 55.13 0.094 7.31 7.13 10.15
9/30/2021 9:15:00 AM 12.85 55.13 0.095 7.33 8.31 10.23
9/30/2021 9:30:00 AM 12.88 55.184 0.095 7.34 7.54 10.28
9/30/2021 9:45:00 AM 12.91 55.238 0.095 7.35 6.97 10.33
9/30/2021 10:00:00 AM 12.94 55.292 0.094 7.36 7.11 10.34
9/30/2021 10:15:00 AM 12.94 55.292 0.096 7.38 6.81 10.38